<?xml version="1.0" encoding="UTF-8" standalone="no" ?>
<gpx xmlns="http://www.topografix.com/GPX/1/1" xmlns:xsi="http://www.w3.org/2001/XMLSchema-instance" xsi:schemaLocation="http://www.topografix.com/GPX/1/1 http://www.topografix.com/GPX/1/1/gpx.xsd" version="1.1" creator="VisuGPX - https://www.visugpx.com">
  <metadata>
    <name>Créon - La sauve - Dardenac</name>
    <desc><![CDATA[Circuit rando VTT]]></desc>
  </metadata>
  <trk>
    <name><![CDATA[Creon camiac blesignac sauve baudin]]></name>
    <trkseg>
      <trkpt lat="44.7762" lon="-0.34595">
        <ele>104</ele>
        <time>2012-11-18T13:49:36Z</time>
      </trkpt>
      <trkpt lat="44.77622" lon="-0.3459">
        <ele>104</ele>
        <time>2012-11-18T13:49:37Z</time>
      </trkpt>
      <trkpt lat="44.77634" lon="-0.34563">
        <ele>104</ele>
        <time>2012-11-18T13:49:42Z</time>
      </trkpt>
      <trkpt lat="44.77635" lon="-0.34556">
        <ele>104</ele>
        <time>2012-11-18T13:49:43Z</time>
      </trkpt>
      <trkpt lat="44.7764" lon="-0.3453">
        <ele>104</ele>
        <time>2012-11-18T13:49:47Z</time>
      </trkpt>
      <trkpt lat="44.77656" lon="-0.34448">
        <ele>103</ele>
        <time>2012-11-18T13:49:59Z</time>
      </trkpt>
      <trkpt lat="44.77678" lon="-0.34367">
        <ele>99</ele>
        <time>2012-11-18T13:50:11Z</time>
      </trkpt>
      <trkpt lat="44.77708" lon="-0.34301">
        <ele>101</ele>
        <time>2012-11-18T13:50:23Z</time>
      </trkpt>
      <trkpt lat="44.77737" lon="-0.34238">
        <ele>101</ele>
        <time>2012-11-18T13:50:38Z</time>
      </trkpt>
      <trkpt lat="44.77738" lon="-0.34233">
        <ele>101</ele>
        <time>2012-11-18T13:50:44Z</time>
      </trkpt>
      <trkpt lat="44.77739" lon="-0.34233">
        <ele>101</ele>
        <time>2012-11-18T13:51:01Z</time>
      </trkpt>
      <trkpt lat="44.77739" lon="-0.34233">
        <ele>101</ele>
        <time>2012-11-18T13:51:11Z</time>
      </trkpt>
      <trkpt lat="44.77738" lon="-0.34236">
        <ele>101</ele>
        <time>2012-11-18T13:51:12Z</time>
      </trkpt>
      <trkpt lat="44.77722" lon="-0.34243">
        <ele>102</ele>
        <time>2012-11-18T13:51:19Z</time>
      </trkpt>
      <trkpt lat="44.77701" lon="-0.3423">
        <ele>103</ele>
        <time>2012-11-18T13:51:25Z</time>
      </trkpt>
      <trkpt lat="44.77697" lon="-0.34228">
        <ele>103</ele>
        <time>2012-11-18T13:51:26Z</time>
      </trkpt>
      <trkpt lat="44.77678" lon="-0.34216">
        <ele>103</ele>
        <time>2012-11-18T13:51:31Z</time>
      </trkpt>
      <trkpt lat="44.77646" lon="-0.34197">
        <ele>104</ele>
        <time>2012-11-18T13:51:40Z</time>
      </trkpt>
      <trkpt lat="44.77609" lon="-0.34178">
        <ele>105</ele>
        <time>2012-11-18T13:51:51Z</time>
      </trkpt>
      <trkpt lat="44.77584" lon="-0.34164">
        <ele>105</ele>
        <time>2012-11-18T13:52:01Z</time>
      </trkpt>
      <trkpt lat="44.77582" lon="-0.34164">
        <ele>105</ele>
        <time>2012-11-18T13:52:02Z</time>
      </trkpt>
      <trkpt lat="44.77579" lon="-0.34166">
        <ele>105</ele>
        <time>2012-11-18T13:52:03Z</time>
      </trkpt>
      <trkpt lat="44.77577" lon="-0.34169">
        <ele>105</ele>
        <time>2012-11-18T13:52:04Z</time>
      </trkpt>
      <trkpt lat="44.77575" lon="-0.34173">
        <ele>105</ele>
        <time>2012-11-18T13:52:05Z</time>
      </trkpt>
      <trkpt lat="44.77573" lon="-0.34176">
        <ele>105</ele>
        <time>2012-11-18T13:52:06Z</time>
      </trkpt>
      <trkpt lat="44.77572" lon="-0.3418">
        <ele>105</ele>
        <time>2012-11-18T13:52:07Z</time>
      </trkpt>
      <trkpt lat="44.77571" lon="-0.34184">
        <ele>105</ele>
        <time>2012-11-18T13:52:08Z</time>
      </trkpt>
      <trkpt lat="44.77569" lon="-0.34188">
        <ele>105</ele>
        <time>2012-11-18T13:52:09Z</time>
      </trkpt>
      <trkpt lat="44.77568" lon="-0.34192">
        <ele>104</ele>
        <time>2012-11-18T13:52:10Z</time>
      </trkpt>
      <trkpt lat="44.77567" lon="-0.34197">
        <ele>104</ele>
        <time>2012-11-18T13:52:11Z</time>
      </trkpt>
      <trkpt lat="44.77566" lon="-0.34201">
        <ele>104</ele>
        <time>2012-11-18T13:52:12Z</time>
      </trkpt>
      <trkpt lat="44.77559" lon="-0.34234">
        <ele>104</ele>
        <time>2012-11-18T13:52:20Z</time>
      </trkpt>
      <trkpt lat="44.77558" lon="-0.34237">
        <ele>104</ele>
        <time>2012-11-18T13:52:21Z</time>
      </trkpt>
      <trkpt lat="44.77557" lon="-0.3424">
        <ele>104</ele>
        <time>2012-11-18T13:52:22Z</time>
      </trkpt>
      <trkpt lat="44.77555" lon="-0.34242">
        <ele>104</ele>
        <time>2012-11-18T13:52:23Z</time>
      </trkpt>
      <trkpt lat="44.77553" lon="-0.34244">
        <ele>104</ele>
        <time>2012-11-18T13:52:24Z</time>
      </trkpt>
      <trkpt lat="44.77544" lon="-0.3425">
        <ele>104</ele>
        <time>2012-11-18T13:52:29Z</time>
      </trkpt>
      <trkpt lat="44.77542" lon="-0.34249">
        <ele>104</ele>
        <time>2012-11-18T13:52:30Z</time>
      </trkpt>
      <trkpt lat="44.7754" lon="-0.34248">
        <ele>105</ele>
        <time>2012-11-18T13:52:31Z</time>
      </trkpt>
      <trkpt lat="44.77538" lon="-0.34247">
        <ele>105</ele>
        <time>2012-11-18T13:52:32Z</time>
      </trkpt>
      <trkpt lat="44.77536" lon="-0.34246">
        <ele>105</ele>
        <time>2012-11-18T13:52:33Z</time>
      </trkpt>
      <trkpt lat="44.77533" lon="-0.34245">
        <ele>105</ele>
        <time>2012-11-18T13:52:34Z</time>
      </trkpt>
      <trkpt lat="44.7753" lon="-0.34243">
        <ele>105</ele>
        <time>2012-11-18T13:52:35Z</time>
      </trkpt>
      <trkpt lat="44.77526" lon="-0.34241">
        <ele>105</ele>
        <time>2012-11-18T13:52:36Z</time>
      </trkpt>
      <trkpt lat="44.77523" lon="-0.34239">
        <ele>105</ele>
        <time>2012-11-18T13:52:37Z</time>
      </trkpt>
      <trkpt lat="44.7752" lon="-0.34237">
        <ele>105</ele>
        <time>2012-11-18T13:52:38Z</time>
      </trkpt>
      <trkpt lat="44.77517" lon="-0.34235">
        <ele>105</ele>
        <time>2012-11-18T13:52:39Z</time>
      </trkpt>
      <trkpt lat="44.77508" lon="-0.34232">
        <ele>105</ele>
        <time>2012-11-18T13:52:42Z</time>
      </trkpt>
      <trkpt lat="44.77505" lon="-0.34233">
        <ele>105</ele>
        <time>2012-11-18T13:52:43Z</time>
      </trkpt>
      <trkpt lat="44.77503" lon="-0.34232">
        <ele>105</ele>
        <time>2012-11-18T13:52:44Z</time>
      </trkpt>
      <trkpt lat="44.775" lon="-0.34229">
        <ele>105</ele>
        <time>2012-11-18T13:52:45Z</time>
      </trkpt>
      <trkpt lat="44.77496" lon="-0.34227">
        <ele>105</ele>
        <time>2012-11-18T13:52:46Z</time>
      </trkpt>
      <trkpt lat="44.77492" lon="-0.34224">
        <ele>105</ele>
        <time>2012-11-18T13:52:47Z</time>
      </trkpt>
      <trkpt lat="44.7746" lon="-0.34203">
        <ele>105</ele>
        <time>2012-11-18T13:52:56Z</time>
      </trkpt>
      <trkpt lat="44.77448" lon="-0.34197">
        <ele>106</ele>
        <time>2012-11-18T13:52:59Z</time>
      </trkpt>
      <trkpt lat="44.77444" lon="-0.34194">
        <ele>106</ele>
        <time>2012-11-18T13:53:00Z</time>
      </trkpt>
      <trkpt lat="44.77414" lon="-0.34166">
        <ele>106</ele>
        <time>2012-11-18T13:53:09Z</time>
      </trkpt>
      <trkpt lat="44.77408" lon="-0.34158">
        <ele>106</ele>
        <time>2012-11-18T13:53:11Z</time>
      </trkpt>
      <trkpt lat="44.77405" lon="-0.34154">
        <ele>106</ele>
        <time>2012-11-18T13:53:12Z</time>
      </trkpt>
      <trkpt lat="44.77401" lon="-0.34151">
        <ele>106</ele>
        <time>2012-11-18T13:53:13Z</time>
      </trkpt>
      <trkpt lat="44.77373" lon="-0.34119">
        <ele>106</ele>
        <time>2012-11-18T13:53:22Z</time>
      </trkpt>
      <trkpt lat="44.7737" lon="-0.34116">
        <ele>106</ele>
        <time>2012-11-18T13:53:23Z</time>
      </trkpt>
      <trkpt lat="44.77363" lon="-0.34108">
        <ele>106</ele>
        <time>2012-11-18T13:53:25Z</time>
      </trkpt>
      <trkpt lat="44.77334" lon="-0.34067">
        <ele>106</ele>
        <time>2012-11-18T13:53:35Z</time>
      </trkpt>
      <trkpt lat="44.77332" lon="-0.34063">
        <ele>106</ele>
        <time>2012-11-18T13:53:36Z</time>
      </trkpt>
      <trkpt lat="44.77329" lon="-0.3406">
        <ele>106</ele>
        <time>2012-11-18T13:53:37Z</time>
      </trkpt>
      <trkpt lat="44.77326" lon="-0.34057">
        <ele>106</ele>
        <time>2012-11-18T13:53:38Z</time>
      </trkpt>
      <trkpt lat="44.77323" lon="-0.34054">
        <ele>106</ele>
        <time>2012-11-18T13:53:39Z</time>
      </trkpt>
      <trkpt lat="44.7732" lon="-0.3405">
        <ele>106</ele>
        <time>2012-11-18T13:53:40Z</time>
      </trkpt>
      <trkpt lat="44.77298" lon="-0.34029">
        <ele>106</ele>
        <time>2012-11-18T13:53:48Z</time>
      </trkpt>
      <trkpt lat="44.77294" lon="-0.34022">
        <ele>106</ele>
        <time>2012-11-18T13:53:50Z</time>
      </trkpt>
      <trkpt lat="44.77291" lon="-0.34019">
        <ele>106</ele>
        <time>2012-11-18T13:53:51Z</time>
      </trkpt>
      <trkpt lat="44.77289" lon="-0.34015">
        <ele>106</ele>
        <time>2012-11-18T13:53:52Z</time>
      </trkpt>
      <trkpt lat="44.77286" lon="-0.34011">
        <ele>106</ele>
        <time>2012-11-18T13:53:53Z</time>
      </trkpt>
      <trkpt lat="44.77284" lon="-0.34007">
        <ele>105</ele>
        <time>2012-11-18T13:53:54Z</time>
      </trkpt>
      <trkpt lat="44.77261" lon="-0.33969">
        <ele>105</ele>
        <time>2012-11-18T13:54:04Z</time>
      </trkpt>
      <trkpt lat="44.7725" lon="-0.33954">
        <ele>105</ele>
        <time>2012-11-18T13:54:10Z</time>
      </trkpt>
      <trkpt lat="44.77248" lon="-0.33954">
        <ele>105</ele>
        <time>2012-11-18T13:54:11Z</time>
      </trkpt>
      <trkpt lat="44.77246" lon="-0.33954">
        <ele>105</ele>
        <time>2012-11-18T13:54:12Z</time>
      </trkpt>
      <trkpt lat="44.77244" lon="-0.33954">
        <ele>105</ele>
        <time>2012-11-18T13:54:13Z</time>
      </trkpt>
      <trkpt lat="44.77243" lon="-0.33955">
        <ele>105</ele>
        <time>2012-11-18T13:54:14Z</time>
      </trkpt>
      <trkpt lat="44.77237" lon="-0.33957">
        <ele>105</ele>
        <time>2012-11-18T13:54:18Z</time>
      </trkpt>
      <trkpt lat="44.77236" lon="-0.33956">
        <ele>105</ele>
        <time>2012-11-18T13:54:19Z</time>
      </trkpt>
      <trkpt lat="44.77235" lon="-0.33955">
        <ele>105</ele>
        <time>2012-11-18T13:54:27Z</time>
      </trkpt>
      <trkpt lat="44.77237" lon="-0.33953">
        <ele>105</ele>
        <time>2012-11-18T13:54:53Z</time>
      </trkpt>
      <trkpt lat="44.77233" lon="-0.33946">
        <ele>105</ele>
        <time>2012-11-18T13:55:03Z</time>
      </trkpt>
      <trkpt lat="44.77235" lon="-0.339">
        <ele>104</ele>
        <time>2012-11-18T13:55:13Z</time>
      </trkpt>
      <trkpt lat="44.77238" lon="-0.33847">
        <ele>104</ele>
        <time>2012-11-18T13:55:22Z</time>
      </trkpt>
      <trkpt lat="44.77236" lon="-0.33802">
        <ele>104</ele>
        <time>2012-11-18T13:55:29Z</time>
      </trkpt>
      <trkpt lat="44.77235" lon="-0.33796">
        <ele>104</ele>
        <time>2012-11-18T13:55:30Z</time>
      </trkpt>
      <trkpt lat="44.77218" lon="-0.33695">
        <ele>104</ele>
        <time>2012-11-18T13:55:44Z</time>
      </trkpt>
      <trkpt lat="44.77216" lon="-0.33688">
        <ele>104</ele>
        <time>2012-11-18T13:55:45Z</time>
      </trkpt>
      <trkpt lat="44.77206" lon="-0.33656">
        <ele>104</ele>
        <time>2012-11-18T13:55:50Z</time>
      </trkpt>
      <trkpt lat="44.77204" lon="-0.33644">
        <ele>104</ele>
        <time>2012-11-18T13:55:52Z</time>
      </trkpt>
      <trkpt lat="44.77203" lon="-0.3362">
        <ele>104</ele>
        <time>2012-11-18T13:55:56Z</time>
      </trkpt>
      <trkpt lat="44.77205" lon="-0.33615">
        <ele>104</ele>
        <time>2012-11-18T13:55:57Z</time>
      </trkpt>
      <trkpt lat="44.77208" lon="-0.33612">
        <ele>104</ele>
        <time>2012-11-18T13:55:58Z</time>
      </trkpt>
      <trkpt lat="44.77212" lon="-0.3361">
        <ele>104</ele>
        <time>2012-11-18T13:55:59Z</time>
      </trkpt>
      <trkpt lat="44.77216" lon="-0.33609">
        <ele>104</ele>
        <time>2012-11-18T13:56:00Z</time>
      </trkpt>
      <trkpt lat="44.7722" lon="-0.3361">
        <ele>104</ele>
        <time>2012-11-18T13:56:01Z</time>
      </trkpt>
      <trkpt lat="44.77224" lon="-0.3361">
        <ele>104</ele>
        <time>2012-11-18T13:56:02Z</time>
      </trkpt>
      <trkpt lat="44.77229" lon="-0.33607">
        <ele>104</ele>
        <time>2012-11-18T13:56:03Z</time>
      </trkpt>
      <trkpt lat="44.77232" lon="-0.33603">
        <ele>104</ele>
        <time>2012-11-18T13:56:04Z</time>
      </trkpt>
      <trkpt lat="44.77234" lon="-0.33598">
        <ele>104</ele>
        <time>2012-11-18T13:56:05Z</time>
      </trkpt>
      <trkpt lat="44.77236" lon="-0.33593">
        <ele>104</ele>
        <time>2012-11-18T13:56:06Z</time>
      </trkpt>
      <trkpt lat="44.77242" lon="-0.33583">
        <ele>104</ele>
        <time>2012-11-18T13:56:08Z</time>
      </trkpt>
      <trkpt lat="44.77245" lon="-0.33578">
        <ele>103</ele>
        <time>2012-11-18T13:56:09Z</time>
      </trkpt>
      <trkpt lat="44.7725" lon="-0.33575">
        <ele>103</ele>
        <time>2012-11-18T13:56:10Z</time>
      </trkpt>
      <trkpt lat="44.77255" lon="-0.33572">
        <ele>103</ele>
        <time>2012-11-18T13:56:11Z</time>
      </trkpt>
      <trkpt lat="44.7726" lon="-0.3357">
        <ele>103</ele>
        <time>2012-11-18T13:56:12Z</time>
      </trkpt>
      <trkpt lat="44.77294" lon="-0.33553">
        <ele>101</ele>
        <time>2012-11-18T13:56:19Z</time>
      </trkpt>
      <trkpt lat="44.77298" lon="-0.33552">
        <ele>101</ele>
        <time>2012-11-18T13:56:20Z</time>
      </trkpt>
      <trkpt lat="44.77303" lon="-0.3355">
        <ele>101</ele>
        <time>2012-11-18T13:56:21Z</time>
      </trkpt>
      <trkpt lat="44.77307" lon="-0.33547">
        <ele>101</ele>
        <time>2012-11-18T13:56:22Z</time>
      </trkpt>
      <trkpt lat="44.77309" lon="-0.33541">
        <ele>100</ele>
        <time>2012-11-18T13:56:23Z</time>
      </trkpt>
      <trkpt lat="44.7731" lon="-0.33534">
        <ele>100</ele>
        <time>2012-11-18T13:56:24Z</time>
      </trkpt>
      <trkpt lat="44.77308" lon="-0.33527">
        <ele>100</ele>
        <time>2012-11-18T13:56:25Z</time>
      </trkpt>
      <trkpt lat="44.77306" lon="-0.3352">
        <ele>100</ele>
        <time>2012-11-18T13:56:26Z</time>
      </trkpt>
      <trkpt lat="44.77301" lon="-0.33497">
        <ele>100</ele>
        <time>2012-11-18T13:56:30Z</time>
      </trkpt>
      <trkpt lat="44.77287" lon="-0.33447">
        <ele>101</ele>
        <time>2012-11-18T13:56:39Z</time>
      </trkpt>
      <trkpt lat="44.77287" lon="-0.3344">
        <ele>101</ele>
        <time>2012-11-18T13:56:40Z</time>
      </trkpt>
      <trkpt lat="44.77287" lon="-0.33434">
        <ele>101</ele>
        <time>2012-11-18T13:56:41Z</time>
      </trkpt>
      <trkpt lat="44.77288" lon="-0.33427">
        <ele>101</ele>
        <time>2012-11-18T13:56:42Z</time>
      </trkpt>
      <trkpt lat="44.77288" lon="-0.3342">
        <ele>101</ele>
        <time>2012-11-18T13:56:43Z</time>
      </trkpt>
      <trkpt lat="44.77289" lon="-0.33413">
        <ele>101</ele>
        <time>2012-11-18T13:56:44Z</time>
      </trkpt>
      <trkpt lat="44.77296" lon="-0.33326">
        <ele>102</ele>
        <time>2012-11-18T13:56:56Z</time>
      </trkpt>
      <trkpt lat="44.77299" lon="-0.33291">
        <ele>102</ele>
        <time>2012-11-18T13:57:03Z</time>
      </trkpt>
      <trkpt lat="44.773" lon="-0.33273">
        <ele>103</ele>
        <time>2012-11-18T13:57:06Z</time>
      </trkpt>
      <trkpt lat="44.77301" lon="-0.33267">
        <ele>103</ele>
        <time>2012-11-18T13:57:07Z</time>
      </trkpt>
      <trkpt lat="44.77303" lon="-0.33243">
        <ele>103</ele>
        <time>2012-11-18T13:57:11Z</time>
      </trkpt>
      <trkpt lat="44.77303" lon="-0.33229">
        <ele>103</ele>
        <time>2012-11-18T13:57:13Z</time>
      </trkpt>
      <trkpt lat="44.77304" lon="-0.33223">
        <ele>103</ele>
        <time>2012-11-18T13:57:14Z</time>
      </trkpt>
      <trkpt lat="44.77319" lon="-0.3317">
        <ele>102</ele>
        <time>2012-11-18T13:57:21Z</time>
      </trkpt>
      <trkpt lat="44.77325" lon="-0.33149">
        <ele>101</ele>
        <time>2012-11-18T13:57:24Z</time>
      </trkpt>
      <trkpt lat="44.77331" lon="-0.33118">
        <ele>100</ele>
        <time>2012-11-18T13:57:28Z</time>
      </trkpt>
      <trkpt lat="44.77335" lon="-0.33074">
        <ele>100</ele>
        <time>2012-11-18T13:57:34Z</time>
      </trkpt>
      <trkpt lat="44.77343" lon="-0.33036">
        <ele>99</ele>
        <time>2012-11-18T13:57:39Z</time>
      </trkpt>
      <trkpt lat="44.77344" lon="-0.33029">
        <ele>98</ele>
        <time>2012-11-18T13:57:40Z</time>
      </trkpt>
      <trkpt lat="44.77345" lon="-0.33022">
        <ele>98</ele>
        <time>2012-11-18T13:57:41Z</time>
      </trkpt>
      <trkpt lat="44.77347" lon="-0.33015">
        <ele>98</ele>
        <time>2012-11-18T13:57:42Z</time>
      </trkpt>
      <trkpt lat="44.77349" lon="-0.33009">
        <ele>98</ele>
        <time>2012-11-18T13:57:43Z</time>
      </trkpt>
      <trkpt lat="44.77351" lon="-0.33004">
        <ele>98</ele>
        <time>2012-11-18T13:57:44Z</time>
      </trkpt>
      <trkpt lat="44.77354" lon="-0.33002">
        <ele>98</ele>
        <time>2012-11-18T13:57:45Z</time>
      </trkpt>
      <trkpt lat="44.77358" lon="-0.33002">
        <ele>98</ele>
        <time>2012-11-18T13:57:46Z</time>
      </trkpt>
      <trkpt lat="44.77362" lon="-0.33002">
        <ele>98</ele>
        <time>2012-11-18T13:57:47Z</time>
      </trkpt>
      <trkpt lat="44.77391" lon="-0.32999">
        <ele>98</ele>
        <time>2012-11-18T13:57:54Z</time>
      </trkpt>
      <trkpt lat="44.77395" lon="-0.32996">
        <ele>98</ele>
        <time>2012-11-18T13:57:55Z</time>
      </trkpt>
      <trkpt lat="44.77399" lon="-0.32993">
        <ele>98</ele>
        <time>2012-11-18T13:57:56Z</time>
      </trkpt>
      <trkpt lat="44.77403" lon="-0.3299">
        <ele>98</ele>
        <time>2012-11-18T13:57:57Z</time>
      </trkpt>
      <trkpt lat="44.77407" lon="-0.32986">
        <ele>98</ele>
        <time>2012-11-18T13:57:58Z</time>
      </trkpt>
      <trkpt lat="44.77438" lon="-0.32953">
        <ele>98</ele>
        <time>2012-11-18T13:58:06Z</time>
      </trkpt>
      <trkpt lat="44.77462" lon="-0.32927">
        <ele>98</ele>
        <time>2012-11-18T13:58:12Z</time>
      </trkpt>
      <trkpt lat="44.77474" lon="-0.32916">
        <ele>98</ele>
        <time>2012-11-18T13:58:15Z</time>
      </trkpt>
      <trkpt lat="44.77478" lon="-0.32913">
        <ele>98</ele>
        <time>2012-11-18T13:58:16Z</time>
      </trkpt>
      <trkpt lat="44.77507" lon="-0.32886">
        <ele>99</ele>
        <time>2012-11-18T13:58:26Z</time>
      </trkpt>
      <trkpt lat="44.77526" lon="-0.32869">
        <ele>99</ele>
        <time>2012-11-18T13:58:32Z</time>
      </trkpt>
      <trkpt lat="44.77552" lon="-0.32858">
        <ele>98</ele>
        <time>2012-11-18T13:58:37Z</time>
      </trkpt>
      <trkpt lat="44.77563" lon="-0.32855">
        <ele>98</ele>
        <time>2012-11-18T13:58:39Z</time>
      </trkpt>
      <trkpt lat="44.77569" lon="-0.32853">
        <ele>98</ele>
        <time>2012-11-18T13:58:40Z</time>
      </trkpt>
      <trkpt lat="44.7758" lon="-0.32848">
        <ele>97</ele>
        <time>2012-11-18T13:58:42Z</time>
      </trkpt>
      <trkpt lat="44.77586" lon="-0.32848">
        <ele>97</ele>
        <time>2012-11-18T13:58:43Z</time>
      </trkpt>
      <trkpt lat="44.77593" lon="-0.32847">
        <ele>97</ele>
        <time>2012-11-18T13:58:44Z</time>
      </trkpt>
      <trkpt lat="44.77599" lon="-0.32845">
        <ele>97</ele>
        <time>2012-11-18T13:58:45Z</time>
      </trkpt>
      <trkpt lat="44.77604" lon="-0.32842">
        <ele>96</ele>
        <time>2012-11-18T13:58:46Z</time>
      </trkpt>
      <trkpt lat="44.77607" lon="-0.32836">
        <ele>96</ele>
        <time>2012-11-18T13:58:47Z</time>
      </trkpt>
      <trkpt lat="44.77609" lon="-0.32821">
        <ele>96</ele>
        <time>2012-11-18T13:58:49Z</time>
      </trkpt>
      <trkpt lat="44.77604" lon="-0.32799">
        <ele>97</ele>
        <time>2012-11-18T13:58:52Z</time>
      </trkpt>
      <trkpt lat="44.77592" lon="-0.32721">
        <ele>96</ele>
        <time>2012-11-18T13:59:02Z</time>
      </trkpt>
      <trkpt lat="44.77586" lon="-0.32688">
        <ele>94</ele>
        <time>2012-11-18T13:59:06Z</time>
      </trkpt>
      <trkpt lat="44.77588" lon="-0.32654">
        <ele>92</ele>
        <time>2012-11-18T13:59:10Z</time>
      </trkpt>
      <trkpt lat="44.77587" lon="-0.32576">
        <ele>88</ele>
        <time>2012-11-18T13:59:18Z</time>
      </trkpt>
      <trkpt lat="44.77583" lon="-0.325">
        <ele>86</ele>
        <time>2012-11-18T13:59:25Z</time>
      </trkpt>
      <trkpt lat="44.77571" lon="-0.32462">
        <ele>85</ele>
        <time>2012-11-18T13:59:29Z</time>
      </trkpt>
      <trkpt lat="44.77555" lon="-0.32417">
        <ele>83</ele>
        <time>2012-11-18T13:59:34Z</time>
      </trkpt>
      <trkpt lat="44.77553" lon="-0.32397">
        <ele>82</ele>
        <time>2012-11-18T13:59:39Z</time>
      </trkpt>
      <trkpt lat="44.7758" lon="-0.32391">
        <ele>81</ele>
        <time>2012-11-18T13:59:46Z</time>
      </trkpt>
      <trkpt lat="44.7766" lon="-0.32395">
        <ele>78</ele>
        <time>2012-11-18T13:59:59Z</time>
      </trkpt>
      <trkpt lat="44.77696" lon="-0.32398">
        <ele>76</ele>
        <time>2012-11-18T14:00:05Z</time>
      </trkpt>
      <trkpt lat="44.77712" lon="-0.32391">
        <ele>75</ele>
        <time>2012-11-18T14:00:08Z</time>
      </trkpt>
      <trkpt lat="44.77729" lon="-0.32394">
        <ele>75</ele>
        <time>2012-11-18T14:00:12Z</time>
      </trkpt>
      <trkpt lat="44.77737" lon="-0.32399">
        <ele>74</ele>
        <time>2012-11-18T14:00:14Z</time>
      </trkpt>
      <trkpt lat="44.77812" lon="-0.32409">
        <ele>73</ele>
        <time>2012-11-18T14:00:26Z</time>
      </trkpt>
      <trkpt lat="44.77832" lon="-0.32387">
        <ele>72</ele>
        <time>2012-11-18T14:00:31Z</time>
      </trkpt>
      <trkpt lat="44.77839" lon="-0.32302">
        <ele>69</ele>
        <time>2012-11-18T14:00:39Z</time>
      </trkpt>
      <trkpt lat="44.77856" lon="-0.32275">
        <ele>68</ele>
        <time>2012-11-18T14:00:44Z</time>
      </trkpt>
      <trkpt lat="44.77868" lon="-0.32278">
        <ele>67</ele>
        <time>2012-11-18T14:00:46Z</time>
      </trkpt>
      <trkpt lat="44.77931" lon="-0.32295">
        <ele>66</ele>
        <time>2012-11-18T14:00:56Z</time>
      </trkpt>
      <trkpt lat="44.77937" lon="-0.32296">
        <ele>66</ele>
        <time>2012-11-18T14:00:57Z</time>
      </trkpt>
      <trkpt lat="44.77963" lon="-0.32275">
        <ele>65</ele>
        <time>2012-11-18T14:01:03Z</time>
      </trkpt>
      <trkpt lat="44.77975" lon="-0.32275">
        <ele>65</ele>
        <time>2012-11-18T14:01:05Z</time>
      </trkpt>
      <trkpt lat="44.77988" lon="-0.32278">
        <ele>64</ele>
        <time>2012-11-18T14:01:07Z</time>
      </trkpt>
      <trkpt lat="44.78007" lon="-0.32259">
        <ele>63</ele>
        <time>2012-11-18T14:01:12Z</time>
      </trkpt>
      <trkpt lat="44.78008" lon="-0.32251">
        <ele>63</ele>
        <time>2012-11-18T14:01:13Z</time>
      </trkpt>
      <trkpt lat="44.78012" lon="-0.32233">
        <ele>63</ele>
        <time>2012-11-18T14:01:15Z</time>
      </trkpt>
      <trkpt lat="44.78016" lon="-0.32195">
        <ele>61</ele>
        <time>2012-11-18T14:01:19Z</time>
      </trkpt>
      <trkpt lat="44.78024" lon="-0.32158">
        <ele>60</ele>
        <time>2012-11-18T14:01:24Z</time>
      </trkpt>
      <trkpt lat="44.78025" lon="-0.32148">
        <ele>60</ele>
        <time>2012-11-18T14:01:34Z</time>
      </trkpt>
      <trkpt lat="44.78025" lon="-0.32146">
        <ele>60</ele>
        <time>2012-11-18T14:01:45Z</time>
      </trkpt>
      <trkpt lat="44.78026" lon="-0.32145">
        <ele>60</ele>
        <time>2012-11-18T14:01:56Z</time>
      </trkpt>
      <trkpt lat="44.78026" lon="-0.32143">
        <ele>60</ele>
        <time>2012-11-18T14:02:12Z</time>
      </trkpt>
      <trkpt lat="44.78026" lon="-0.32142">
        <ele>60</ele>
        <time>2012-11-18T14:02:23Z</time>
      </trkpt>
      <trkpt lat="44.78027" lon="-0.32143">
        <ele>60</ele>
        <time>2012-11-18T14:02:36Z</time>
      </trkpt>
      <trkpt lat="44.78026" lon="-0.32143">
        <ele>60</ele>
        <time>2012-11-18T14:02:57Z</time>
      </trkpt>
      <trkpt lat="44.78026" lon="-0.32144">
        <ele>60</ele>
        <time>2012-11-18T14:03:17Z</time>
      </trkpt>
      <trkpt lat="44.78026" lon="-0.32143">
        <ele>60</ele>
        <time>2012-11-18T14:03:40Z</time>
      </trkpt>
      <trkpt lat="44.78027" lon="-0.32144">
        <ele>60</ele>
        <time>2012-11-18T14:03:55Z</time>
      </trkpt>
      <trkpt lat="44.78027" lon="-0.32143">
        <ele>60</ele>
        <time>2012-11-18T14:04:07Z</time>
      </trkpt>
      <trkpt lat="44.78027" lon="-0.32142">
        <ele>60</ele>
        <time>2012-11-18T14:04:24Z</time>
      </trkpt>
      <trkpt lat="44.78027" lon="-0.32143">
        <ele>60</ele>
        <time>2012-11-18T14:04:44Z</time>
      </trkpt>
      <trkpt lat="44.78028" lon="-0.32143">
        <ele>60</ele>
        <time>2012-11-18T14:05:09Z</time>
      </trkpt>
      <trkpt lat="44.78028" lon="-0.32142">
        <ele>60</ele>
        <time>2012-11-18T14:05:24Z</time>
      </trkpt>
      <trkpt lat="44.78027" lon="-0.32142">
        <ele>60</ele>
        <time>2012-11-18T14:05:43Z</time>
      </trkpt>
      <trkpt lat="44.78027" lon="-0.32141">
        <ele>60</ele>
        <time>2012-11-18T14:05:57Z</time>
      </trkpt>
      <trkpt lat="44.78046" lon="-0.32137">
        <ele>60</ele>
        <time>2012-11-18T14:06:05Z</time>
      </trkpt>
      <trkpt lat="44.78077" lon="-0.32134">
        <ele>60</ele>
        <time>2012-11-18T14:06:14Z</time>
      </trkpt>
      <trkpt lat="44.78109" lon="-0.32133">
        <ele>60</ele>
        <time>2012-11-18T14:06:23Z</time>
      </trkpt>
      <trkpt lat="44.7813" lon="-0.32133">
        <ele>60</ele>
        <time>2012-11-18T14:06:28Z</time>
      </trkpt>
      <trkpt lat="44.78149" lon="-0.32139">
        <ele>60</ele>
        <time>2012-11-18T14:06:32Z</time>
      </trkpt>
      <trkpt lat="44.78179" lon="-0.32157">
        <ele>60</ele>
        <time>2012-11-18T14:06:39Z</time>
      </trkpt>
      <trkpt lat="44.78198" lon="-0.32166">
        <ele>60</ele>
        <time>2012-11-18T14:06:43Z</time>
      </trkpt>
      <trkpt lat="44.78203" lon="-0.32168">
        <ele>60</ele>
        <time>2012-11-18T14:06:44Z</time>
      </trkpt>
      <trkpt lat="44.78208" lon="-0.3217">
        <ele>60</ele>
        <time>2012-11-18T14:06:45Z</time>
      </trkpt>
      <trkpt lat="44.78213" lon="-0.32172">
        <ele>60</ele>
        <time>2012-11-18T14:06:46Z</time>
      </trkpt>
      <trkpt lat="44.78217" lon="-0.32173">
        <ele>60</ele>
        <time>2012-11-18T14:06:47Z</time>
      </trkpt>
      <trkpt lat="44.78226" lon="-0.32177">
        <ele>60</ele>
        <time>2012-11-18T14:06:49Z</time>
      </trkpt>
      <trkpt lat="44.78239" lon="-0.32186">
        <ele>60</ele>
        <time>2012-11-18T14:06:52Z</time>
      </trkpt>
      <trkpt lat="44.78243" lon="-0.3219">
        <ele>60</ele>
        <time>2012-11-18T14:06:53Z</time>
      </trkpt>
      <trkpt lat="44.78247" lon="-0.32195">
        <ele>60</ele>
        <time>2012-11-18T14:06:54Z</time>
      </trkpt>
      <trkpt lat="44.78255" lon="-0.32204">
        <ele>60</ele>
        <time>2012-11-18T14:06:56Z</time>
      </trkpt>
      <trkpt lat="44.78259" lon="-0.32207">
        <ele>60</ele>
        <time>2012-11-18T14:06:57Z</time>
      </trkpt>
      <trkpt lat="44.78263" lon="-0.32208">
        <ele>60</ele>
        <time>2012-11-18T14:06:58Z</time>
      </trkpt>
      <trkpt lat="44.78267" lon="-0.32208">
        <ele>60</ele>
        <time>2012-11-18T14:06:59Z</time>
      </trkpt>
      <trkpt lat="44.78272" lon="-0.32206">
        <ele>60</ele>
        <time>2012-11-18T14:07:00Z</time>
      </trkpt>
      <trkpt lat="44.78281" lon="-0.32203">
        <ele>60</ele>
        <time>2012-11-18T14:07:02Z</time>
      </trkpt>
      <trkpt lat="44.78285" lon="-0.32201">
        <ele>60</ele>
        <time>2012-11-18T14:07:03Z</time>
      </trkpt>
      <trkpt lat="44.7829" lon="-0.32199">
        <ele>60</ele>
        <time>2012-11-18T14:07:04Z</time>
      </trkpt>
      <trkpt lat="44.78295" lon="-0.32198">
        <ele>60</ele>
        <time>2012-11-18T14:07:05Z</time>
      </trkpt>
      <trkpt lat="44.783" lon="-0.32198">
        <ele>60</ele>
        <time>2012-11-18T14:07:06Z</time>
      </trkpt>
      <trkpt lat="44.78342" lon="-0.32203">
        <ele>60</ele>
        <time>2012-11-18T14:07:15Z</time>
      </trkpt>
      <trkpt lat="44.78346" lon="-0.32203">
        <ele>60</ele>
        <time>2012-11-18T14:07:16Z</time>
      </trkpt>
      <trkpt lat="44.7837" lon="-0.32207">
        <ele>61</ele>
        <time>2012-11-18T14:07:21Z</time>
      </trkpt>
      <trkpt lat="44.78375" lon="-0.32208">
        <ele>61</ele>
        <time>2012-11-18T14:07:22Z</time>
      </trkpt>
      <trkpt lat="44.78434" lon="-0.32221">
        <ele>61</ele>
        <time>2012-11-18T14:07:33Z</time>
      </trkpt>
      <trkpt lat="44.78439" lon="-0.32224">
        <ele>61</ele>
        <time>2012-11-18T14:07:34Z</time>
      </trkpt>
      <trkpt lat="44.78478" lon="-0.32251">
        <ele>61</ele>
        <time>2012-11-18T14:07:42Z</time>
      </trkpt>
      <trkpt lat="44.78483" lon="-0.3225">
        <ele>60</ele>
        <time>2012-11-18T14:07:43Z</time>
      </trkpt>
      <trkpt lat="44.78488" lon="-0.32247">
        <ele>60</ele>
        <time>2012-11-18T14:07:44Z</time>
      </trkpt>
      <trkpt lat="44.78492" lon="-0.3224">
        <ele>60</ele>
        <time>2012-11-18T14:07:45Z</time>
      </trkpt>
      <trkpt lat="44.78494" lon="-0.32233">
        <ele>60</ele>
        <time>2012-11-18T14:07:46Z</time>
      </trkpt>
      <trkpt lat="44.78499" lon="-0.32218">
        <ele>59</ele>
        <time>2012-11-18T14:07:48Z</time>
      </trkpt>
      <trkpt lat="44.78503" lon="-0.32212">
        <ele>59</ele>
        <time>2012-11-18T14:07:49Z</time>
      </trkpt>
      <trkpt lat="44.78505" lon="-0.32204">
        <ele>59</ele>
        <time>2012-11-18T14:07:50Z</time>
      </trkpt>
      <trkpt lat="44.78508" lon="-0.32197">
        <ele>58</ele>
        <time>2012-11-18T14:07:51Z</time>
      </trkpt>
      <trkpt lat="44.7851" lon="-0.3219">
        <ele>58</ele>
        <time>2012-11-18T14:07:52Z</time>
      </trkpt>
      <trkpt lat="44.78512" lon="-0.32183">
        <ele>58</ele>
        <time>2012-11-18T14:07:53Z</time>
      </trkpt>
      <trkpt lat="44.78546" lon="-0.32091">
        <ele>58</ele>
        <time>2012-11-18T14:08:05Z</time>
      </trkpt>
      <trkpt lat="44.78555" lon="-0.32066">
        <ele>58</ele>
        <time>2012-11-18T14:08:08Z</time>
      </trkpt>
      <trkpt lat="44.78557" lon="-0.32058">
        <ele>58</ele>
        <time>2012-11-18T14:08:09Z</time>
      </trkpt>
      <trkpt lat="44.78594" lon="-0.31965">
        <ele>60</ele>
        <time>2012-11-18T14:08:22Z</time>
      </trkpt>
      <trkpt lat="44.78628" lon="-0.31879">
        <ele>64</ele>
        <time>2012-11-18T14:08:34Z</time>
      </trkpt>
      <trkpt lat="44.78631" lon="-0.31873">
        <ele>64</ele>
        <time>2012-11-18T14:08:35Z</time>
      </trkpt>
      <trkpt lat="44.78655" lon="-0.31806">
        <ele>66</ele>
        <time>2012-11-18T14:08:45Z</time>
      </trkpt>
      <trkpt lat="44.78656" lon="-0.31801">
        <ele>66</ele>
        <time>2012-11-18T14:08:46Z</time>
      </trkpt>
      <trkpt lat="44.78657" lon="-0.31795">
        <ele>66</ele>
        <time>2012-11-18T14:08:47Z</time>
      </trkpt>
      <trkpt lat="44.78662" lon="-0.31764">
        <ele>66</ele>
        <time>2012-11-18T14:08:55Z</time>
      </trkpt>
      <trkpt lat="44.78669" lon="-0.31738">
        <ele>66</ele>
        <time>2012-11-18T14:09:03Z</time>
      </trkpt>
      <trkpt lat="44.78675" lon="-0.31717">
        <ele>66</ele>
        <time>2012-11-18T14:09:09Z</time>
      </trkpt>
      <trkpt lat="44.78683" lon="-0.31678">
        <ele>67</ele>
        <time>2012-11-18T14:09:17Z</time>
      </trkpt>
      <trkpt lat="44.78691" lon="-0.31641">
        <ele>67</ele>
        <time>2012-11-18T14:09:25Z</time>
      </trkpt>
      <trkpt lat="44.78696" lon="-0.31602">
        <ele>68</ele>
        <time>2012-11-18T14:09:33Z</time>
      </trkpt>
      <trkpt lat="44.78699" lon="-0.31543">
        <ele>69</ele>
        <time>2012-11-18T14:09:43Z</time>
      </trkpt>
      <trkpt lat="44.78697" lon="-0.31474">
        <ele>70</ele>
        <time>2012-11-18T14:09:55Z</time>
      </trkpt>
      <trkpt lat="44.78696" lon="-0.3145">
        <ele>71</ele>
        <time>2012-11-18T14:09:59Z</time>
      </trkpt>
      <trkpt lat="44.78695" lon="-0.31427">
        <ele>72</ele>
        <time>2012-11-18T14:10:03Z</time>
      </trkpt>
      <trkpt lat="44.78694" lon="-0.31422">
        <ele>72</ele>
        <time>2012-11-18T14:10:04Z</time>
      </trkpt>
      <trkpt lat="44.78689" lon="-0.31362">
        <ele>72</ele>
        <time>2012-11-18T14:10:15Z</time>
      </trkpt>
      <trkpt lat="44.78686" lon="-0.3129">
        <ele>72</ele>
        <time>2012-11-18T14:10:28Z</time>
      </trkpt>
      <trkpt lat="44.78689" lon="-0.3121">
        <ele>71</ele>
        <time>2012-11-18T14:10:41Z</time>
      </trkpt>
      <trkpt lat="44.78691" lon="-0.31184">
        <ele>70</ele>
        <time>2012-11-18T14:10:45Z</time>
      </trkpt>
      <trkpt lat="44.78691" lon="-0.31177">
        <ele>70</ele>
        <time>2012-11-18T14:10:46Z</time>
      </trkpt>
      <trkpt lat="44.78697" lon="-0.31098">
        <ele>70</ele>
        <time>2012-11-18T14:10:58Z</time>
      </trkpt>
      <trkpt lat="44.78698" lon="-0.31091">
        <ele>70</ele>
        <time>2012-11-18T14:10:59Z</time>
      </trkpt>
      <trkpt lat="44.78701" lon="-0.31036">
        <ele>70</ele>
        <time>2012-11-18T14:11:10Z</time>
      </trkpt>
      <trkpt lat="44.78706" lon="-0.3099">
        <ele>70</ele>
        <time>2012-11-18T14:11:20Z</time>
      </trkpt>
      <trkpt lat="44.7871" lon="-0.30948">
        <ele>70</ele>
        <time>2012-11-18T14:11:28Z</time>
      </trkpt>
      <trkpt lat="44.78711" lon="-0.3093">
        <ele>70</ele>
        <time>2012-11-18T14:11:32Z</time>
      </trkpt>
      <trkpt lat="44.7871" lon="-0.30926">
        <ele>70</ele>
        <time>2012-11-18T14:11:33Z</time>
      </trkpt>
      <trkpt lat="44.7871" lon="-0.30923">
        <ele>70</ele>
        <time>2012-11-18T14:11:34Z</time>
      </trkpt>
      <trkpt lat="44.7871" lon="-0.30918">
        <ele>70</ele>
        <time>2012-11-18T14:11:35Z</time>
      </trkpt>
      <trkpt lat="44.78712" lon="-0.30914">
        <ele>70</ele>
        <time>2012-11-18T14:11:36Z</time>
      </trkpt>
      <trkpt lat="44.78712" lon="-0.30909">
        <ele>70</ele>
        <time>2012-11-18T14:11:37Z</time>
      </trkpt>
      <trkpt lat="44.78713" lon="-0.30904">
        <ele>71</ele>
        <time>2012-11-18T14:11:38Z</time>
      </trkpt>
      <trkpt lat="44.78713" lon="-0.30874">
        <ele>70</ele>
        <time>2012-11-18T14:11:46Z</time>
      </trkpt>
      <trkpt lat="44.78715" lon="-0.30837">
        <ele>71</ele>
        <time>2012-11-18T14:11:56Z</time>
      </trkpt>
      <trkpt lat="44.78716" lon="-0.30794">
        <ele>71</ele>
        <time>2012-11-18T14:12:06Z</time>
      </trkpt>
      <trkpt lat="44.78717" lon="-0.3077">
        <ele>71</ele>
        <time>2012-11-18T14:12:15Z</time>
      </trkpt>
      <trkpt lat="44.78718" lon="-0.30769">
        <ele>71</ele>
        <time>2012-11-18T14:12:23Z</time>
      </trkpt>
      <trkpt lat="44.78717" lon="-0.30769">
        <ele>71</ele>
        <time>2012-11-18T14:12:41Z</time>
      </trkpt>
      <trkpt lat="44.78718" lon="-0.30768">
        <ele>71</ele>
        <time>2012-11-18T14:13:06Z</time>
      </trkpt>
      <trkpt lat="44.78719" lon="-0.30759">
        <ele>71</ele>
        <time>2012-11-18T14:13:16Z</time>
      </trkpt>
      <trkpt lat="44.78721" lon="-0.30722">
        <ele>72</ele>
        <time>2012-11-18T14:13:25Z</time>
      </trkpt>
      <trkpt lat="44.78724" lon="-0.30676">
        <ele>72</ele>
        <time>2012-11-18T14:13:36Z</time>
      </trkpt>
      <trkpt lat="44.78725" lon="-0.30669">
        <ele>72</ele>
        <time>2012-11-18T14:13:41Z</time>
      </trkpt>
      <trkpt lat="44.78725" lon="-0.30667">
        <ele>72</ele>
        <time>2012-11-18T14:13:42Z</time>
      </trkpt>
      <trkpt lat="44.78731" lon="-0.30629">
        <ele>71</ele>
        <time>2012-11-18T14:13:54Z</time>
      </trkpt>
      <trkpt lat="44.78732" lon="-0.30598">
        <ele>71</ele>
        <time>2012-11-18T14:14:00Z</time>
      </trkpt>
      <trkpt lat="44.78732" lon="-0.30557">
        <ele>72</ele>
        <time>2012-11-18T14:14:06Z</time>
      </trkpt>
      <trkpt lat="44.78732" lon="-0.30551">
        <ele>72</ele>
        <time>2012-11-18T14:14:07Z</time>
      </trkpt>
      <trkpt lat="44.78732" lon="-0.30468">
        <ele>72</ele>
        <time>2012-11-18T14:14:19Z</time>
      </trkpt>
      <trkpt lat="44.7873" lon="-0.30434">
        <ele>73</ele>
        <time>2012-11-18T14:14:26Z</time>
      </trkpt>
      <trkpt lat="44.7873" lon="-0.30413">
        <ele>73</ele>
        <time>2012-11-18T14:14:34Z</time>
      </trkpt>
      <trkpt lat="44.78729" lon="-0.30392">
        <ele>73</ele>
        <time>2012-11-18T14:14:38Z</time>
      </trkpt>
      <trkpt lat="44.7873" lon="-0.30368">
        <ele>73</ele>
        <time>2012-11-18T14:14:42Z</time>
      </trkpt>
      <trkpt lat="44.7873" lon="-0.30333">
        <ele>73</ele>
        <time>2012-11-18T14:14:51Z</time>
      </trkpt>
      <trkpt lat="44.78729" lon="-0.30306">
        <ele>74</ele>
        <time>2012-11-18T14:15:00Z</time>
      </trkpt>
      <trkpt lat="44.78728" lon="-0.30298">
        <ele>74</ele>
        <time>2012-11-18T14:15:05Z</time>
      </trkpt>
      <trkpt lat="44.78721" lon="-0.30288">
        <ele>74</ele>
        <time>2012-11-18T14:15:14Z</time>
      </trkpt>
      <trkpt lat="44.78717" lon="-0.30266">
        <ele>74</ele>
        <time>2012-11-18T14:15:22Z</time>
      </trkpt>
      <trkpt lat="44.78715" lon="-0.30255">
        <ele>74</ele>
        <time>2012-11-18T14:15:25Z</time>
      </trkpt>
      <trkpt lat="44.78713" lon="-0.30224">
        <ele>75</ele>
        <time>2012-11-18T14:15:34Z</time>
      </trkpt>
      <trkpt lat="44.78711" lon="-0.30179">
        <ele>75</ele>
        <time>2012-11-18T14:15:43Z</time>
      </trkpt>
      <trkpt lat="44.78711" lon="-0.30174">
        <ele>76</ele>
        <time>2012-11-18T14:15:44Z</time>
      </trkpt>
      <trkpt lat="44.78718" lon="-0.3015">
        <ele>76</ele>
        <time>2012-11-18T14:15:51Z</time>
      </trkpt>
      <trkpt lat="44.78719" lon="-0.30145">
        <ele>76</ele>
        <time>2012-11-18T14:15:54Z</time>
      </trkpt>
      <trkpt lat="44.78715" lon="-0.30129">
        <ele>76</ele>
        <time>2012-11-18T14:16:02Z</time>
      </trkpt>
      <trkpt lat="44.78715" lon="-0.30129">
        <ele>76</ele>
        <time>2012-11-18T14:16:03Z</time>
      </trkpt>
      <trkpt lat="44.78716" lon="-0.30118">
        <ele>77</ele>
        <time>2012-11-18T14:16:07Z</time>
      </trkpt>
      <trkpt lat="44.78712" lon="-0.30103">
        <ele>77</ele>
        <time>2012-11-18T14:16:12Z</time>
      </trkpt>
      <trkpt lat="44.78709" lon="-0.30061">
        <ele>78</ele>
        <time>2012-11-18T14:16:21Z</time>
      </trkpt>
      <trkpt lat="44.7871" lon="-0.30009">
        <ele>79</ele>
        <time>2012-11-18T14:16:32Z</time>
      </trkpt>
      <trkpt lat="44.78704" lon="-0.29967">
        <ele>80</ele>
        <time>2012-11-18T14:16:41Z</time>
      </trkpt>
      <trkpt lat="44.78704" lon="-0.29915">
        <ele>81</ele>
        <time>2012-11-18T14:16:53Z</time>
      </trkpt>
      <trkpt lat="44.78702" lon="-0.29883">
        <ele>81</ele>
        <time>2012-11-18T14:17:01Z</time>
      </trkpt>
      <trkpt lat="44.787" lon="-0.29869">
        <ele>82</ele>
        <time>2012-11-18T14:17:06Z</time>
      </trkpt>
      <trkpt lat="44.78699" lon="-0.29855">
        <ele>82</ele>
        <time>2012-11-18T14:17:10Z</time>
      </trkpt>
      <trkpt lat="44.78692" lon="-0.29822">
        <ele>83</ele>
        <time>2012-11-18T14:17:19Z</time>
      </trkpt>
      <trkpt lat="44.78691" lon="-0.29784">
        <ele>84</ele>
        <time>2012-11-18T14:17:29Z</time>
      </trkpt>
      <trkpt lat="44.78689" lon="-0.2976">
        <ele>84</ele>
        <time>2012-11-18T14:17:36Z</time>
      </trkpt>
      <trkpt lat="44.78688" lon="-0.29739">
        <ele>84</ele>
        <time>2012-11-18T14:17:44Z</time>
      </trkpt>
      <trkpt lat="44.78688" lon="-0.29736">
        <ele>84</ele>
        <time>2012-11-18T14:17:59Z</time>
      </trkpt>
      <trkpt lat="44.78687" lon="-0.29739">
        <ele>84</ele>
        <time>2012-11-18T14:18:18Z</time>
      </trkpt>
      <trkpt lat="44.78686" lon="-0.2974">
        <ele>84</ele>
        <time>2012-11-18T14:18:33Z</time>
      </trkpt>
      <trkpt lat="44.78686" lon="-0.29739">
        <ele>84</ele>
        <time>2012-11-18T14:18:50Z</time>
      </trkpt>
      <trkpt lat="44.78685" lon="-0.29738">
        <ele>84</ele>
        <time>2012-11-18T14:19:05Z</time>
      </trkpt>
      <trkpt lat="44.78686" lon="-0.29739">
        <ele>84</ele>
        <time>2012-11-18T14:19:15Z</time>
      </trkpt>
      <trkpt lat="44.78686" lon="-0.2974">
        <ele>84</ele>
        <time>2012-11-18T14:19:34Z</time>
      </trkpt>
      <trkpt lat="44.78685" lon="-0.2974">
        <ele>84</ele>
        <time>2012-11-18T14:19:48Z</time>
      </trkpt>
      <trkpt lat="44.78686" lon="-0.29742">
        <ele>84</ele>
        <time>2012-11-18T14:20:12Z</time>
      </trkpt>
      <trkpt lat="44.78686" lon="-0.29743">
        <ele>84</ele>
        <time>2012-11-18T14:20:36Z</time>
      </trkpt>
      <trkpt lat="44.78685" lon="-0.2974">
        <ele>84</ele>
        <time>2012-11-18T14:20:43Z</time>
      </trkpt>
      <trkpt lat="44.78678" lon="-0.29729">
        <ele>84</ele>
        <time>2012-11-18T14:20:48Z</time>
      </trkpt>
      <trkpt lat="44.78676" lon="-0.29718">
        <ele>84</ele>
        <time>2012-11-18T14:20:54Z</time>
      </trkpt>
      <trkpt lat="44.78678" lon="-0.29716">
        <ele>84</ele>
        <time>2012-11-18T14:20:57Z</time>
      </trkpt>
      <trkpt lat="44.78673" lon="-0.29713">
        <ele>84</ele>
        <time>2012-11-18T14:21:06Z</time>
      </trkpt>
      <trkpt lat="44.78673" lon="-0.29712">
        <ele>84</ele>
        <time>2012-11-18T14:21:09Z</time>
      </trkpt>
      <trkpt lat="44.78672" lon="-0.29711">
        <ele>84</ele>
        <time>2012-11-18T14:21:11Z</time>
      </trkpt>
      <trkpt lat="44.78661" lon="-0.29691">
        <ele>83</ele>
        <time>2012-11-18T14:21:18Z</time>
      </trkpt>
      <trkpt lat="44.78646" lon="-0.29675">
        <ele>82</ele>
        <time>2012-11-18T14:21:25Z</time>
      </trkpt>
      <trkpt lat="44.78625" lon="-0.29643">
        <ele>80</ele>
        <time>2012-11-18T14:21:35Z</time>
      </trkpt>
      <trkpt lat="44.78612" lon="-0.29622">
        <ele>78</ele>
        <time>2012-11-18T14:21:40Z</time>
      </trkpt>
      <trkpt lat="44.786" lon="-0.29604">
        <ele>77</ele>
        <time>2012-11-18T14:21:44Z</time>
      </trkpt>
      <trkpt lat="44.78571" lon="-0.2956">
        <ele>75</ele>
        <time>2012-11-18T14:21:54Z</time>
      </trkpt>
      <trkpt lat="44.78562" lon="-0.29537">
        <ele>74</ele>
        <time>2012-11-18T14:22:02Z</time>
      </trkpt>
      <trkpt lat="44.78548" lon="-0.29504">
        <ele>73</ele>
        <time>2012-11-18T14:22:10Z</time>
      </trkpt>
      <trkpt lat="44.78535" lon="-0.29486">
        <ele>73</ele>
        <time>2012-11-18T14:22:14Z</time>
      </trkpt>
      <trkpt lat="44.78524" lon="-0.29459">
        <ele>72</ele>
        <time>2012-11-18T14:22:19Z</time>
      </trkpt>
      <trkpt lat="44.78497" lon="-0.29412">
        <ele>70</ele>
        <time>2012-11-18T14:22:29Z</time>
      </trkpt>
      <trkpt lat="44.78473" lon="-0.29371">
        <ele>70</ele>
        <time>2012-11-18T14:22:38Z</time>
      </trkpt>
      <trkpt lat="44.7847" lon="-0.29363">
        <ele>70</ele>
        <time>2012-11-18T14:22:45Z</time>
      </trkpt>
      <trkpt lat="44.78467" lon="-0.29348">
        <ele>70</ele>
        <time>2012-11-18T14:22:49Z</time>
      </trkpt>
      <trkpt lat="44.78458" lon="-0.29329">
        <ele>69</ele>
        <time>2012-11-18T14:22:55Z</time>
      </trkpt>
      <trkpt lat="44.7846" lon="-0.29326">
        <ele>69</ele>
        <time>2012-11-18T14:23:04Z</time>
      </trkpt>
      <trkpt lat="44.7846" lon="-0.29324">
        <ele>69</ele>
        <time>2012-11-18T14:23:16Z</time>
      </trkpt>
      <trkpt lat="44.78461" lon="-0.29321">
        <ele>69</ele>
        <time>2012-11-18T14:23:29Z</time>
      </trkpt>
      <trkpt lat="44.78462" lon="-0.29318">
        <ele>69</ele>
        <time>2012-11-18T14:23:31Z</time>
      </trkpt>
      <trkpt lat="44.78469" lon="-0.29305">
        <ele>70</ele>
        <time>2012-11-18T14:23:37Z</time>
      </trkpt>
      <trkpt lat="44.78482" lon="-0.29283">
        <ele>70</ele>
        <time>2012-11-18T14:23:45Z</time>
      </trkpt>
      <trkpt lat="44.785" lon="-0.29252">
        <ele>71</ele>
        <time>2012-11-18T14:23:55Z</time>
      </trkpt>
      <trkpt lat="44.78518" lon="-0.29227">
        <ele>71</ele>
        <time>2012-11-18T14:24:04Z</time>
      </trkpt>
      <trkpt lat="44.7854" lon="-0.292">
        <ele>71</ele>
        <time>2012-11-18T14:24:14Z</time>
      </trkpt>
      <trkpt lat="44.78568" lon="-0.29164">
        <ele>70</ele>
        <time>2012-11-18T14:24:26Z</time>
      </trkpt>
      <trkpt lat="44.7857" lon="-0.29162">
        <ele>70</ele>
        <time>2012-11-18T14:24:27Z</time>
      </trkpt>
      <trkpt lat="44.78592" lon="-0.29145">
        <ele>70</ele>
        <time>2012-11-18T14:24:36Z</time>
      </trkpt>
      <trkpt lat="44.78597" lon="-0.29138">
        <ele>70</ele>
        <time>2012-11-18T14:24:38Z</time>
      </trkpt>
      <trkpt lat="44.78637" lon="-0.291">
        <ele>69</ele>
        <time>2012-11-18T14:24:51Z</time>
      </trkpt>
      <trkpt lat="44.78684" lon="-0.29064">
        <ele>68</ele>
        <time>2012-11-18T14:25:04Z</time>
      </trkpt>
      <trkpt lat="44.78716" lon="-0.29038">
        <ele>67</ele>
        <time>2012-11-18T14:25:14Z</time>
      </trkpt>
      <trkpt lat="44.78754" lon="-0.29006">
        <ele>66</ele>
        <time>2012-11-18T14:25:25Z</time>
      </trkpt>
      <trkpt lat="44.78776" lon="-0.28976">
        <ele>65</ele>
        <time>2012-11-18T14:25:33Z</time>
      </trkpt>
      <trkpt lat="44.78786" lon="-0.28962">
        <ele>65</ele>
        <time>2012-11-18T14:25:36Z</time>
      </trkpt>
      <trkpt lat="44.788" lon="-0.28939">
        <ele>64</ele>
        <time>2012-11-18T14:25:40Z</time>
      </trkpt>
      <trkpt lat="44.78833" lon="-0.28895">
        <ele>64</ele>
        <time>2012-11-18T14:25:48Z</time>
      </trkpt>
      <trkpt lat="44.78874" lon="-0.2886">
        <ele>63</ele>
        <time>2012-11-18T14:25:57Z</time>
      </trkpt>
      <trkpt lat="44.7889" lon="-0.28842">
        <ele>64</ele>
        <time>2012-11-18T14:26:02Z</time>
      </trkpt>
      <trkpt lat="44.78881" lon="-0.28804">
        <ele>63</ele>
        <time>2012-11-18T14:26:11Z</time>
      </trkpt>
      <trkpt lat="44.7887" lon="-0.2876">
        <ele>63</ele>
        <time>2012-11-18T14:26:22Z</time>
      </trkpt>
      <trkpt lat="44.78862" lon="-0.28727">
        <ele>62</ele>
        <time>2012-11-18T14:26:30Z</time>
      </trkpt>
      <trkpt lat="44.78861" lon="-0.28711">
        <ele>62</ele>
        <time>2012-11-18T14:26:37Z</time>
      </trkpt>
      <trkpt lat="44.78861" lon="-0.28712">
        <ele>62</ele>
        <time>2012-11-18T14:26:47Z</time>
      </trkpt>
      <trkpt lat="44.78861" lon="-0.28713">
        <ele>62</ele>
        <time>2012-11-18T14:27:01Z</time>
      </trkpt>
      <trkpt lat="44.78862" lon="-0.28714">
        <ele>62</ele>
        <time>2012-11-18T14:27:14Z</time>
      </trkpt>
      <trkpt lat="44.78861" lon="-0.28714">
        <ele>62</ele>
        <time>2012-11-18T14:27:33Z</time>
      </trkpt>
      <trkpt lat="44.78862" lon="-0.28715">
        <ele>62</ele>
        <time>2012-11-18T14:27:52Z</time>
      </trkpt>
      <trkpt lat="44.78861" lon="-0.28714">
        <ele>62</ele>
        <time>2012-11-18T14:28:12Z</time>
      </trkpt>
      <trkpt lat="44.7886" lon="-0.28704">
        <ele>62</ele>
        <time>2012-11-18T14:28:23Z</time>
      </trkpt>
      <trkpt lat="44.78853" lon="-0.28674">
        <ele>61</ele>
        <time>2012-11-18T14:28:31Z</time>
      </trkpt>
      <trkpt lat="44.78843" lon="-0.28611">
        <ele>60</ele>
        <time>2012-11-18T14:28:40Z</time>
      </trkpt>
      <trkpt lat="44.78836" lon="-0.28547">
        <ele>58</ele>
        <time>2012-11-18T14:28:50Z</time>
      </trkpt>
      <trkpt lat="44.78824" lon="-0.28486">
        <ele>56</ele>
        <time>2012-11-18T14:28:58Z</time>
      </trkpt>
      <trkpt lat="44.78811" lon="-0.2844">
        <ele>55</ele>
        <time>2012-11-18T14:29:05Z</time>
      </trkpt>
      <trkpt lat="44.78808" lon="-0.28425">
        <ele>55</ele>
        <time>2012-11-18T14:29:08Z</time>
      </trkpt>
      <trkpt lat="44.78819" lon="-0.28411">
        <ele>55</ele>
        <time>2012-11-18T14:29:14Z</time>
      </trkpt>
      <trkpt lat="44.78828" lon="-0.28409">
        <ele>55</ele>
        <time>2012-11-18T14:29:17Z</time>
      </trkpt>
      <trkpt lat="44.78853" lon="-0.28392">
        <ele>56</ele>
        <time>2012-11-18T14:29:25Z</time>
      </trkpt>
      <trkpt lat="44.78879" lon="-0.28362">
        <ele>58</ele>
        <time>2012-11-18T14:29:33Z</time>
      </trkpt>
      <trkpt lat="44.78905" lon="-0.28327">
        <ele>59</ele>
        <time>2012-11-18T14:29:41Z</time>
      </trkpt>
      <trkpt lat="44.78937" lon="-0.28298">
        <ele>59</ele>
        <time>2012-11-18T14:29:51Z</time>
      </trkpt>
      <trkpt lat="44.78965" lon="-0.28273">
        <ele>59</ele>
        <time>2012-11-18T14:30:00Z</time>
      </trkpt>
      <trkpt lat="44.78999" lon="-0.28244">
        <ele>60</ele>
        <time>2012-11-18T14:30:11Z</time>
      </trkpt>
      <trkpt lat="44.79032" lon="-0.28227">
        <ele>60</ele>
        <time>2012-11-18T14:30:21Z</time>
      </trkpt>
      <trkpt lat="44.79036" lon="-0.28226">
        <ele>60</ele>
        <time>2012-11-18T14:30:22Z</time>
      </trkpt>
      <trkpt lat="44.79041" lon="-0.28226">
        <ele>60</ele>
        <time>2012-11-18T14:30:23Z</time>
      </trkpt>
      <trkpt lat="44.79045" lon="-0.28226">
        <ele>60</ele>
        <time>2012-11-18T14:30:24Z</time>
      </trkpt>
      <trkpt lat="44.7905" lon="-0.28227">
        <ele>60</ele>
        <time>2012-11-18T14:30:25Z</time>
      </trkpt>
      <trkpt lat="44.79054" lon="-0.28228">
        <ele>60</ele>
        <time>2012-11-18T14:30:26Z</time>
      </trkpt>
      <trkpt lat="44.79103" lon="-0.28236">
        <ele>59</ele>
        <time>2012-11-18T14:30:38Z</time>
      </trkpt>
      <trkpt lat="44.7915" lon="-0.28225">
        <ele>58</ele>
        <time>2012-11-18T14:30:50Z</time>
      </trkpt>
      <trkpt lat="44.79188" lon="-0.28182">
        <ele>62</ele>
        <time>2012-11-18T14:31:02Z</time>
      </trkpt>
      <trkpt lat="44.79209" lon="-0.2815">
        <ele>63</ele>
        <time>2012-11-18T14:31:12Z</time>
      </trkpt>
      <trkpt lat="44.79227" lon="-0.28121">
        <ele>63</ele>
        <time>2012-11-18T14:31:21Z</time>
      </trkpt>
      <trkpt lat="44.79239" lon="-0.28102">
        <ele>64</ele>
        <time>2012-11-18T14:31:29Z</time>
      </trkpt>
      <trkpt lat="44.79239" lon="-0.28101">
        <ele>64</ele>
        <time>2012-11-18T14:31:38Z</time>
      </trkpt>
      <trkpt lat="44.79239" lon="-0.28099">
        <ele>64</ele>
        <time>2012-11-18T14:31:51Z</time>
      </trkpt>
      <trkpt lat="44.79238" lon="-0.28099">
        <ele>64</ele>
        <time>2012-11-18T14:32:08Z</time>
      </trkpt>
      <trkpt lat="44.79238" lon="-0.28098">
        <ele>63</ele>
        <time>2012-11-18T14:32:25Z</time>
      </trkpt>
      <trkpt lat="44.79238" lon="-0.28098">
        <ele>63</ele>
        <time>2012-11-18T14:32:43Z</time>
      </trkpt>
      <trkpt lat="44.79238" lon="-0.28098">
        <ele>63</ele>
        <time>2012-11-18T14:32:56Z</time>
      </trkpt>
      <trkpt lat="44.79238" lon="-0.28098">
        <ele>63</ele>
        <time>2012-11-18T14:33:14Z</time>
      </trkpt>
      <trkpt lat="44.79237" lon="-0.28099">
        <ele>63</ele>
        <time>2012-11-18T14:33:37Z</time>
      </trkpt>
      <trkpt lat="44.79238" lon="-0.28098">
        <ele>64</ele>
        <time>2012-11-18T14:33:55Z</time>
      </trkpt>
      <trkpt lat="44.79238" lon="-0.28097">
        <ele>63</ele>
        <time>2012-11-18T14:34:13Z</time>
      </trkpt>
      <trkpt lat="44.79242" lon="-0.28077">
        <ele>63</ele>
        <time>2012-11-18T14:34:23Z</time>
      </trkpt>
      <trkpt lat="44.79253" lon="-0.28052">
        <ele>62</ele>
        <time>2012-11-18T14:34:32Z</time>
      </trkpt>
      <trkpt lat="44.79278" lon="-0.28016">
        <ele>62</ele>
        <time>2012-11-18T14:34:42Z</time>
      </trkpt>
      <trkpt lat="44.79292" lon="-0.28002">
        <ele>62</ele>
        <time>2012-11-18T14:34:46Z</time>
      </trkpt>
      <trkpt lat="44.79295" lon="-0.27999">
        <ele>62</ele>
        <time>2012-11-18T14:34:47Z</time>
      </trkpt>
      <trkpt lat="44.79299" lon="-0.27995">
        <ele>62</ele>
        <time>2012-11-18T14:34:48Z</time>
      </trkpt>
      <trkpt lat="44.79345" lon="-0.27944">
        <ele>61</ele>
        <time>2012-11-18T14:34:59Z</time>
      </trkpt>
      <trkpt lat="44.79385" lon="-0.2789">
        <ele>61</ele>
        <time>2012-11-18T14:35:09Z</time>
      </trkpt>
      <trkpt lat="44.7939" lon="-0.27884">
        <ele>61</ele>
        <time>2012-11-18T14:35:10Z</time>
      </trkpt>
      <trkpt lat="44.79446" lon="-0.27812">
        <ele>60</ele>
        <time>2012-11-18T14:35:22Z</time>
      </trkpt>
      <trkpt lat="44.79479" lon="-0.27728">
        <ele>58</ele>
        <time>2012-11-18T14:35:31Z</time>
      </trkpt>
      <trkpt lat="44.7949" lon="-0.27686">
        <ele>56</ele>
        <time>2012-11-18T14:35:35Z</time>
      </trkpt>
      <trkpt lat="44.79492" lon="-0.27675">
        <ele>56</ele>
        <time>2012-11-18T14:35:36Z</time>
      </trkpt>
      <trkpt lat="44.79492" lon="-0.27664">
        <ele>55</ele>
        <time>2012-11-18T14:35:37Z</time>
      </trkpt>
      <trkpt lat="44.79491" lon="-0.27653">
        <ele>55</ele>
        <time>2012-11-18T14:35:38Z</time>
      </trkpt>
      <trkpt lat="44.79491" lon="-0.27642">
        <ele>55</ele>
        <time>2012-11-18T14:35:39Z</time>
      </trkpt>
      <trkpt lat="44.7948" lon="-0.27562">
        <ele>52</ele>
        <time>2012-11-18T14:35:47Z</time>
      </trkpt>
      <trkpt lat="44.79477" lon="-0.27534">
        <ele>51</ele>
        <time>2012-11-18T14:35:50Z</time>
      </trkpt>
      <trkpt lat="44.79466" lon="-0.27472">
        <ele>47</ele>
        <time>2012-11-18T14:35:56Z</time>
      </trkpt>
      <trkpt lat="44.79467" lon="-0.27459">
        <ele>46</ele>
        <time>2012-11-18T14:35:57Z</time>
      </trkpt>
      <trkpt lat="44.79479" lon="-0.27334">
        <ele>44</ele>
        <time>2012-11-18T14:36:07Z</time>
      </trkpt>
      <trkpt lat="44.79482" lon="-0.27315">
        <ele>45</ele>
        <time>2012-11-18T14:36:09Z</time>
      </trkpt>
      <trkpt lat="44.79483" lon="-0.27306">
        <ele>45</ele>
        <time>2012-11-18T14:36:10Z</time>
      </trkpt>
      <trkpt lat="44.79484" lon="-0.27297">
        <ele>45</ele>
        <time>2012-11-18T14:36:11Z</time>
      </trkpt>
      <trkpt lat="44.79484" lon="-0.27288">
        <ele>46</ele>
        <time>2012-11-18T14:36:12Z</time>
      </trkpt>
      <trkpt lat="44.79484" lon="-0.27279">
        <ele>47</ele>
        <time>2012-11-18T14:36:13Z</time>
      </trkpt>
      <trkpt lat="44.79484" lon="-0.2727">
        <ele>47</ele>
        <time>2012-11-18T14:36:14Z</time>
      </trkpt>
      <trkpt lat="44.79482" lon="-0.27261">
        <ele>48</ele>
        <time>2012-11-18T14:36:15Z</time>
      </trkpt>
      <trkpt lat="44.79479" lon="-0.27253">
        <ele>49</ele>
        <time>2012-11-18T14:36:16Z</time>
      </trkpt>
      <trkpt lat="44.79476" lon="-0.27246">
        <ele>50</ele>
        <time>2012-11-18T14:36:17Z</time>
      </trkpt>
      <trkpt lat="44.7947" lon="-0.27232">
        <ele>51</ele>
        <time>2012-11-18T14:36:19Z</time>
      </trkpt>
      <trkpt lat="44.79457" lon="-0.27212">
        <ele>51</ele>
        <time>2012-11-18T14:36:23Z</time>
      </trkpt>
      <trkpt lat="44.79453" lon="-0.27208">
        <ele>52</ele>
        <time>2012-11-18T14:36:24Z</time>
      </trkpt>
      <trkpt lat="44.7945" lon="-0.27205">
        <ele>52</ele>
        <time>2012-11-18T14:36:25Z</time>
      </trkpt>
      <trkpt lat="44.79442" lon="-0.27199">
        <ele>52</ele>
        <time>2012-11-18T14:36:27Z</time>
      </trkpt>
      <trkpt lat="44.79434" lon="-0.27193">
        <ele>53</ele>
        <time>2012-11-18T14:36:29Z</time>
      </trkpt>
      <trkpt lat="44.7943" lon="-0.2719">
        <ele>53</ele>
        <time>2012-11-18T14:36:30Z</time>
      </trkpt>
      <trkpt lat="44.79425" lon="-0.27189">
        <ele>53</ele>
        <time>2012-11-18T14:36:31Z</time>
      </trkpt>
      <trkpt lat="44.79417" lon="-0.27185">
        <ele>53</ele>
        <time>2012-11-18T14:36:33Z</time>
      </trkpt>
      <trkpt lat="44.79383" lon="-0.27168">
        <ele>54</ele>
        <time>2012-11-18T14:36:43Z</time>
      </trkpt>
      <trkpt lat="44.7938" lon="-0.27168">
        <ele>54</ele>
        <time>2012-11-18T14:36:44Z</time>
      </trkpt>
      <trkpt lat="44.79377" lon="-0.2717">
        <ele>54</ele>
        <time>2012-11-18T14:36:45Z</time>
      </trkpt>
      <trkpt lat="44.79375" lon="-0.27172">
        <ele>55</ele>
        <time>2012-11-18T14:36:46Z</time>
      </trkpt>
      <trkpt lat="44.79374" lon="-0.27175">
        <ele>55</ele>
        <time>2012-11-18T14:36:47Z</time>
      </trkpt>
      <trkpt lat="44.79373" lon="-0.27178">
        <ele>55</ele>
        <time>2012-11-18T14:36:48Z</time>
      </trkpt>
      <trkpt lat="44.79371" lon="-0.2718">
        <ele>55</ele>
        <time>2012-11-18T14:36:49Z</time>
      </trkpt>
      <trkpt lat="44.7937" lon="-0.27183">
        <ele>55</ele>
        <time>2012-11-18T14:36:50Z</time>
      </trkpt>
      <trkpt lat="44.79368" lon="-0.27185">
        <ele>55</ele>
        <time>2012-11-18T14:36:51Z</time>
      </trkpt>
      <trkpt lat="44.79366" lon="-0.27187">
        <ele>55</ele>
        <time>2012-11-18T14:36:52Z</time>
      </trkpt>
      <trkpt lat="44.79364" lon="-0.27189">
        <ele>55</ele>
        <time>2012-11-18T14:36:53Z</time>
      </trkpt>
      <trkpt lat="44.79337" lon="-0.27216">
        <ele>56</ele>
        <time>2012-11-18T14:37:05Z</time>
      </trkpt>
      <trkpt lat="44.79312" lon="-0.2724">
        <ele>57</ele>
        <time>2012-11-18T14:37:16Z</time>
      </trkpt>
      <trkpt lat="44.79283" lon="-0.2727">
        <ele>57</ele>
        <time>2012-11-18T14:37:28Z</time>
      </trkpt>
      <trkpt lat="44.79246" lon="-0.27308">
        <ele>57</ele>
        <time>2012-11-18T14:37:43Z</time>
      </trkpt>
      <trkpt lat="44.79216" lon="-0.27339">
        <ele>56</ele>
        <time>2012-11-18T14:37:56Z</time>
      </trkpt>
      <trkpt lat="44.79197" lon="-0.27359">
        <ele>56</ele>
        <time>2012-11-18T14:38:06Z</time>
      </trkpt>
      <trkpt lat="44.79175" lon="-0.27384">
        <ele>56</ele>
        <time>2012-11-18T14:38:16Z</time>
      </trkpt>
      <trkpt lat="44.79146" lon="-0.27416">
        <ele>56</ele>
        <time>2012-11-18T14:38:28Z</time>
      </trkpt>
      <trkpt lat="44.79124" lon="-0.27436">
        <ele>56</ele>
        <time>2012-11-18T14:38:38Z</time>
      </trkpt>
      <trkpt lat="44.79122" lon="-0.27435">
        <ele>56</ele>
        <time>2012-11-18T14:38:39Z</time>
      </trkpt>
      <trkpt lat="44.79121" lon="-0.27434">
        <ele>56</ele>
        <time>2012-11-18T14:38:40Z</time>
      </trkpt>
      <trkpt lat="44.79119" lon="-0.27429">
        <ele>56</ele>
        <time>2012-11-18T14:38:42Z</time>
      </trkpt>
      <trkpt lat="44.79106" lon="-0.27408">
        <ele>57</ele>
        <time>2012-11-18T14:38:52Z</time>
      </trkpt>
      <trkpt lat="44.79092" lon="-0.27383">
        <ele>58</ele>
        <time>2012-11-18T14:39:02Z</time>
      </trkpt>
      <trkpt lat="44.79077" lon="-0.27361">
        <ele>59</ele>
        <time>2012-11-18T14:39:12Z</time>
      </trkpt>
      <trkpt lat="44.79063" lon="-0.27337">
        <ele>60</ele>
        <time>2012-11-18T14:39:22Z</time>
      </trkpt>
      <trkpt lat="44.79044" lon="-0.27307">
        <ele>61</ele>
        <time>2012-11-18T14:39:35Z</time>
      </trkpt>
      <trkpt lat="44.79021" lon="-0.27268">
        <ele>61</ele>
        <time>2012-11-18T14:39:49Z</time>
      </trkpt>
      <trkpt lat="44.79001" lon="-0.27237">
        <ele>62</ele>
        <time>2012-11-18T14:40:00Z</time>
      </trkpt>
      <trkpt lat="44.78987" lon="-0.27214">
        <ele>62</ele>
        <time>2012-11-18T14:40:08Z</time>
      </trkpt>
      <trkpt lat="44.7896" lon="-0.27169">
        <ele>63</ele>
        <time>2012-11-18T14:40:21Z</time>
      </trkpt>
      <trkpt lat="44.78933" lon="-0.27126">
        <ele>64</ele>
        <time>2012-11-18T14:40:34Z</time>
      </trkpt>
      <trkpt lat="44.78918" lon="-0.271">
        <ele>65</ele>
        <time>2012-11-18T14:40:44Z</time>
      </trkpt>
      <trkpt lat="44.78912" lon="-0.27092">
        <ele>65</ele>
        <time>2012-11-18T14:40:54Z</time>
      </trkpt>
      <trkpt lat="44.78912" lon="-0.27092">
        <ele>65</ele>
        <time>2012-11-18T14:41:05Z</time>
      </trkpt>
      <trkpt lat="44.78912" lon="-0.27093">
        <ele>65</ele>
        <time>2012-11-18T14:41:17Z</time>
      </trkpt>
      <trkpt lat="44.78912" lon="-0.27092">
        <ele>65</ele>
        <time>2012-11-18T14:41:33Z</time>
      </trkpt>
      <trkpt lat="44.78912" lon="-0.27093">
        <ele>65</ele>
        <time>2012-11-18T14:41:54Z</time>
      </trkpt>
      <trkpt lat="44.78912" lon="-0.27093">
        <ele>65</ele>
        <time>2012-11-18T14:42:14Z</time>
      </trkpt>
      <trkpt lat="44.78912" lon="-0.27093">
        <ele>65</ele>
        <time>2012-11-18T14:42:33Z</time>
      </trkpt>
      <trkpt lat="44.78913" lon="-0.27093">
        <ele>65</ele>
        <time>2012-11-18T14:42:55Z</time>
      </trkpt>
      <trkpt lat="44.78913" lon="-0.27093">
        <ele>65</ele>
        <time>2012-11-18T14:43:15Z</time>
      </trkpt>
      <trkpt lat="44.78913" lon="-0.27093">
        <ele>65</ele>
        <time>2012-11-18T14:43:43Z</time>
      </trkpt>
      <trkpt lat="44.78913" lon="-0.27093">
        <ele>65</ele>
        <time>2012-11-18T14:44:03Z</time>
      </trkpt>
      <trkpt lat="44.78912" lon="-0.27092">
        <ele>65</ele>
        <time>2012-11-18T14:44:19Z</time>
      </trkpt>
      <trkpt lat="44.78912" lon="-0.27093">
        <ele>65</ele>
        <time>2012-11-18T14:44:33Z</time>
      </trkpt>
      <trkpt lat="44.78911" lon="-0.27092">
        <ele>65</ele>
        <time>2012-11-18T14:45:02Z</time>
      </trkpt>
      <trkpt lat="44.78911" lon="-0.27092">
        <ele>65</ele>
        <time>2012-11-18T14:45:12Z</time>
      </trkpt>
      <trkpt lat="44.78911" lon="-0.27091">
        <ele>65</ele>
        <time>2012-11-18T14:45:23Z</time>
      </trkpt>
      <trkpt lat="44.78912" lon="-0.27092">
        <ele>65</ele>
        <time>2012-11-18T14:45:41Z</time>
      </trkpt>
      <trkpt lat="44.78912" lon="-0.27093">
        <ele>65</ele>
        <time>2012-11-18T14:45:48Z</time>
      </trkpt>
      <trkpt lat="44.7891" lon="-0.27091">
        <ele>65</ele>
        <time>2012-11-18T14:45:50Z</time>
      </trkpt>
      <trkpt lat="44.78909" lon="-0.2709">
        <ele>65</ele>
        <time>2012-11-18T14:45:51Z</time>
      </trkpt>
      <trkpt lat="44.78908" lon="-0.27089">
        <ele>65</ele>
        <time>2012-11-18T14:45:52Z</time>
      </trkpt>
      <trkpt lat="44.78907" lon="-0.27086">
        <ele>65</ele>
        <time>2012-11-18T14:45:53Z</time>
      </trkpt>
      <trkpt lat="44.78906" lon="-0.27083">
        <ele>65</ele>
        <time>2012-11-18T14:45:54Z</time>
      </trkpt>
      <trkpt lat="44.78905" lon="-0.2708">
        <ele>65</ele>
        <time>2012-11-18T14:45:55Z</time>
      </trkpt>
      <trkpt lat="44.78904" lon="-0.27076">
        <ele>65</ele>
        <time>2012-11-18T14:45:56Z</time>
      </trkpt>
      <trkpt lat="44.78902" lon="-0.27073">
        <ele>65</ele>
        <time>2012-11-18T14:45:57Z</time>
      </trkpt>
      <trkpt lat="44.78901" lon="-0.2707">
        <ele>65</ele>
        <time>2012-11-18T14:45:58Z</time>
      </trkpt>
      <trkpt lat="44.78891" lon="-0.27039">
        <ele>65</ele>
        <time>2012-11-18T14:46:07Z</time>
      </trkpt>
      <trkpt lat="44.78878" lon="-0.26998">
        <ele>65</ele>
        <time>2012-11-18T14:46:18Z</time>
      </trkpt>
      <trkpt lat="44.78862" lon="-0.26953">
        <ele>65</ele>
        <time>2012-11-18T14:46:29Z</time>
      </trkpt>
      <trkpt lat="44.7885" lon="-0.26912">
        <ele>63</ele>
        <time>2012-11-18T14:46:37Z</time>
      </trkpt>
      <trkpt lat="44.78845" lon="-0.2689">
        <ele>63</ele>
        <time>2012-11-18T14:46:41Z</time>
      </trkpt>
      <trkpt lat="44.78834" lon="-0.2683">
        <ele>63</ele>
        <time>2012-11-18T14:46:52Z</time>
      </trkpt>
      <trkpt lat="44.78824" lon="-0.26787">
        <ele>63</ele>
        <time>2012-11-18T14:47:01Z</time>
      </trkpt>
      <trkpt lat="44.78818" lon="-0.26762">
        <ele>63</ele>
        <time>2012-11-18T14:47:06Z</time>
      </trkpt>
      <trkpt lat="44.78805" lon="-0.26709">
        <ele>62</ele>
        <time>2012-11-18T14:47:17Z</time>
      </trkpt>
      <trkpt lat="44.78786" lon="-0.26674">
        <ele>62</ele>
        <time>2012-11-18T14:47:27Z</time>
      </trkpt>
      <trkpt lat="44.7876" lon="-0.26631">
        <ele>61</ele>
        <time>2012-11-18T14:47:38Z</time>
      </trkpt>
      <trkpt lat="44.78736" lon="-0.26599">
        <ele>60</ele>
        <time>2012-11-18T14:47:48Z</time>
      </trkpt>
      <trkpt lat="44.78743" lon="-0.26552">
        <ele>60</ele>
        <time>2012-11-18T14:47:58Z</time>
      </trkpt>
      <trkpt lat="44.78755" lon="-0.26502">
        <ele>59</ele>
        <time>2012-11-18T14:48:09Z</time>
      </trkpt>
      <trkpt lat="44.7876" lon="-0.26458">
        <ele>59</ele>
        <time>2012-11-18T14:48:20Z</time>
      </trkpt>
      <trkpt lat="44.78751" lon="-0.26412">
        <ele>58</ele>
        <time>2012-11-18T14:48:29Z</time>
      </trkpt>
      <trkpt lat="44.78735" lon="-0.2635">
        <ele>57</ele>
        <time>2012-11-18T14:48:41Z</time>
      </trkpt>
      <trkpt lat="44.78723" lon="-0.26309">
        <ele>56</ele>
        <time>2012-11-18T14:48:49Z</time>
      </trkpt>
      <trkpt lat="44.78725" lon="-0.26303">
        <ele>56</ele>
        <time>2012-11-18T14:48:51Z</time>
      </trkpt>
      <trkpt lat="44.78727" lon="-0.263">
        <ele>56</ele>
        <time>2012-11-18T14:48:52Z</time>
      </trkpt>
      <trkpt lat="44.78729" lon="-0.26298">
        <ele>56</ele>
        <time>2012-11-18T14:48:53Z</time>
      </trkpt>
      <trkpt lat="44.78732" lon="-0.26295">
        <ele>57</ele>
        <time>2012-11-18T14:48:54Z</time>
      </trkpt>
      <trkpt lat="44.78735" lon="-0.26292">
        <ele>57</ele>
        <time>2012-11-18T14:48:55Z</time>
      </trkpt>
      <trkpt lat="44.78773" lon="-0.26252">
        <ele>56</ele>
        <time>2012-11-18T14:49:06Z</time>
      </trkpt>
      <trkpt lat="44.78784" lon="-0.26239">
        <ele>56</ele>
        <time>2012-11-18T14:49:09Z</time>
      </trkpt>
      <trkpt lat="44.78821" lon="-0.26185">
        <ele>54</ele>
        <time>2012-11-18T14:49:17Z</time>
      </trkpt>
      <trkpt lat="44.78868" lon="-0.26098">
        <ele>51</ele>
        <time>2012-11-18T14:49:27Z</time>
      </trkpt>
      <trkpt lat="44.78902" lon="-0.26005">
        <ele>49</ele>
        <time>2012-11-18T14:49:37Z</time>
      </trkpt>
      <trkpt lat="44.78912" lon="-0.25964">
        <ele>49</ele>
        <time>2012-11-18T14:49:41Z</time>
      </trkpt>
      <trkpt lat="44.78939" lon="-0.25848">
        <ele>47</ele>
        <time>2012-11-18T14:49:53Z</time>
      </trkpt>
      <trkpt lat="44.78962" lon="-0.25751">
        <ele>49</ele>
        <time>2012-11-18T14:50:03Z</time>
      </trkpt>
      <trkpt lat="44.7898" lon="-0.25674">
        <ele>49</ele>
        <time>2012-11-18T14:50:11Z</time>
      </trkpt>
      <trkpt lat="44.78988" lon="-0.25643">
        <ele>48</ele>
        <time>2012-11-18T14:50:18Z</time>
      </trkpt>
      <trkpt lat="44.78992" lon="-0.25624">
        <ele>47</ele>
        <time>2012-11-18T14:50:28Z</time>
      </trkpt>
      <trkpt lat="44.78992" lon="-0.25621">
        <ele>47</ele>
        <time>2012-11-18T14:50:42Z</time>
      </trkpt>
      <trkpt lat="44.78991" lon="-0.25623">
        <ele>47</ele>
        <time>2012-11-18T14:51:01Z</time>
      </trkpt>
      <trkpt lat="44.78992" lon="-0.25619">
        <ele>47</ele>
        <time>2012-11-18T14:51:13Z</time>
      </trkpt>
      <trkpt lat="44.78993" lon="-0.25614">
        <ele>47</ele>
        <time>2012-11-18T14:51:20Z</time>
      </trkpt>
      <trkpt lat="44.78993" lon="-0.25611">
        <ele>46</ele>
        <time>2012-11-18T14:51:39Z</time>
      </trkpt>
      <trkpt lat="44.78994" lon="-0.25603">
        <ele>46</ele>
        <time>2012-11-18T14:51:48Z</time>
      </trkpt>
      <trkpt lat="44.79" lon="-0.25583">
        <ele>46</ele>
        <time>2012-11-18T14:51:56Z</time>
      </trkpt>
      <trkpt lat="44.79011" lon="-0.25538">
        <ele>45</ele>
        <time>2012-11-18T14:52:06Z</time>
      </trkpt>
      <trkpt lat="44.79014" lon="-0.25527">
        <ele>44</ele>
        <time>2012-11-18T14:52:08Z</time>
      </trkpt>
      <trkpt lat="44.79026" lon="-0.25459">
        <ele>43</ele>
        <time>2012-11-18T14:52:17Z</time>
      </trkpt>
      <trkpt lat="44.7903" lon="-0.25434">
        <ele>42</ele>
        <time>2012-11-18T14:52:20Z</time>
      </trkpt>
      <trkpt lat="44.79034" lon="-0.25363">
        <ele>40</ele>
        <time>2012-11-18T14:52:28Z</time>
      </trkpt>
      <trkpt lat="44.79032" lon="-0.2528">
        <ele>36</ele>
        <time>2012-11-18T14:52:37Z</time>
      </trkpt>
      <trkpt lat="44.79022" lon="-0.25207">
        <ele>33</ele>
        <time>2012-11-18T14:52:46Z</time>
      </trkpt>
      <trkpt lat="44.79015" lon="-0.25167">
        <ele>33</ele>
        <time>2012-11-18T14:52:52Z</time>
      </trkpt>
      <trkpt lat="44.79014" lon="-0.25161">
        <ele>33</ele>
        <time>2012-11-18T14:52:53Z</time>
      </trkpt>
      <trkpt lat="44.79002" lon="-0.25097">
        <ele>34</ele>
        <time>2012-11-18T14:53:04Z</time>
      </trkpt>
      <trkpt lat="44.78994" lon="-0.25055">
        <ele>36</ele>
        <time>2012-11-18T14:53:13Z</time>
      </trkpt>
      <trkpt lat="44.78989" lon="-0.25029">
        <ele>40</ele>
        <time>2012-11-18T14:53:21Z</time>
      </trkpt>
      <trkpt lat="44.78988" lon="-0.25027">
        <ele>40</ele>
        <time>2012-11-18T14:53:22Z</time>
      </trkpt>
      <trkpt lat="44.78987" lon="-0.25025">
        <ele>41</ele>
        <time>2012-11-18T14:53:23Z</time>
      </trkpt>
      <trkpt lat="44.78986" lon="-0.2502">
        <ele>41</ele>
        <time>2012-11-18T14:53:26Z</time>
      </trkpt>
      <trkpt lat="44.78988" lon="-0.25016">
        <ele>42</ele>
        <time>2012-11-18T14:53:33Z</time>
      </trkpt>
      <trkpt lat="44.7899" lon="-0.25017">
        <ele>42</ele>
        <time>2012-11-18T14:53:41Z</time>
      </trkpt>
      <trkpt lat="44.78992" lon="-0.25018">
        <ele>42</ele>
        <time>2012-11-18T14:53:46Z</time>
      </trkpt>
      <trkpt lat="44.78996" lon="-0.2502">
        <ele>42</ele>
        <time>2012-11-18T14:53:49Z</time>
      </trkpt>
      <trkpt lat="44.78997" lon="-0.2502">
        <ele>42</ele>
        <time>2012-11-18T14:53:50Z</time>
      </trkpt>
      <trkpt lat="44.78999" lon="-0.25021">
        <ele>42</ele>
        <time>2012-11-18T14:53:51Z</time>
      </trkpt>
      <trkpt lat="44.79" lon="-0.25022">
        <ele>42</ele>
        <time>2012-11-18T14:53:52Z</time>
      </trkpt>
      <trkpt lat="44.79002" lon="-0.25023">
        <ele>42</ele>
        <time>2012-11-18T14:53:53Z</time>
      </trkpt>
      <trkpt lat="44.79019" lon="-0.2503">
        <ele>40</ele>
        <time>2012-11-18T14:54:00Z</time>
      </trkpt>
      <trkpt lat="44.79019" lon="-0.25032">
        <ele>40</ele>
        <time>2012-11-18T14:54:01Z</time>
      </trkpt>
      <trkpt lat="44.7902" lon="-0.25034">
        <ele>40</ele>
        <time>2012-11-18T14:54:02Z</time>
      </trkpt>
      <trkpt lat="44.79012" lon="-0.25037">
        <ele>39</ele>
        <time>2012-11-18T14:54:11Z</time>
      </trkpt>
      <trkpt lat="44.79005" lon="-0.25035">
        <ele>40</ele>
        <time>2012-11-18T14:54:22Z</time>
      </trkpt>
      <trkpt lat="44.79005" lon="-0.25036">
        <ele>40</ele>
        <time>2012-11-18T14:54:38Z</time>
      </trkpt>
      <trkpt lat="44.79002" lon="-0.25035">
        <ele>40</ele>
        <time>2012-11-18T14:54:55Z</time>
      </trkpt>
      <trkpt lat="44.78997" lon="-0.25034">
        <ele>40</ele>
        <time>2012-11-18T14:54:58Z</time>
      </trkpt>
      <trkpt lat="44.78975" lon="-0.25032">
        <ele>39</ele>
        <time>2012-11-18T14:55:11Z</time>
      </trkpt>
      <trkpt lat="44.78968" lon="-0.2503">
        <ele>39</ele>
        <time>2012-11-18T14:55:16Z</time>
      </trkpt>
      <trkpt lat="44.78963" lon="-0.25026">
        <ele>39</ele>
        <time>2012-11-18T14:55:23Z</time>
      </trkpt>
      <trkpt lat="44.78959" lon="-0.25025">
        <ele>39</ele>
        <time>2012-11-18T14:55:27Z</time>
      </trkpt>
      <trkpt lat="44.78953" lon="-0.2502">
        <ele>39</ele>
        <time>2012-11-18T14:55:33Z</time>
      </trkpt>
      <trkpt lat="44.78938" lon="-0.25011">
        <ele>40</ele>
        <time>2012-11-18T14:55:43Z</time>
      </trkpt>
      <trkpt lat="44.78924" lon="-0.25005">
        <ele>40</ele>
        <time>2012-11-18T14:55:51Z</time>
      </trkpt>
      <trkpt lat="44.78898" lon="-0.24997">
        <ele>41</ele>
        <time>2012-11-18T14:56:02Z</time>
      </trkpt>
      <trkpt lat="44.78868" lon="-0.25003">
        <ele>43</ele>
        <time>2012-11-18T14:56:14Z</time>
      </trkpt>
      <trkpt lat="44.78863" lon="-0.25004">
        <ele>43</ele>
        <time>2012-11-18T14:56:16Z</time>
      </trkpt>
      <trkpt lat="44.78855" lon="-0.25001">
        <ele>43</ele>
        <time>2012-11-18T14:56:19Z</time>
      </trkpt>
      <trkpt lat="44.7885" lon="-0.24996">
        <ele>44</ele>
        <time>2012-11-18T14:56:22Z</time>
      </trkpt>
      <trkpt lat="44.78844" lon="-0.24992">
        <ele>44</ele>
        <time>2012-11-18T14:56:31Z</time>
      </trkpt>
      <trkpt lat="44.78838" lon="-0.24987">
        <ele>45</ele>
        <time>2012-11-18T14:57:25Z</time>
      </trkpt>
      <trkpt lat="44.78807" lon="-0.24953">
        <ele>47</ele>
        <time>2012-11-18T14:57:37Z</time>
      </trkpt>
      <trkpt lat="44.78777" lon="-0.24922">
        <ele>46</ele>
        <time>2012-11-18T14:57:48Z</time>
      </trkpt>
      <trkpt lat="44.7877" lon="-0.24915">
        <ele>46</ele>
        <time>2012-11-18T14:57:50Z</time>
      </trkpt>
      <trkpt lat="44.78761" lon="-0.24902">
        <ele>45</ele>
        <time>2012-11-18T14:57:53Z</time>
      </trkpt>
      <trkpt lat="44.78753" lon="-0.24885">
        <ele>45</ele>
        <time>2012-11-18T14:57:56Z</time>
      </trkpt>
      <trkpt lat="44.78738" lon="-0.24821">
        <ele>41</ele>
        <time>2012-11-18T14:58:05Z</time>
      </trkpt>
      <trkpt lat="44.78735" lon="-0.24807">
        <ele>41</ele>
        <time>2012-11-18T14:58:07Z</time>
      </trkpt>
      <trkpt lat="44.78726" lon="-0.24763">
        <ele>40</ele>
        <time>2012-11-18T14:58:15Z</time>
      </trkpt>
      <trkpt lat="44.78708" lon="-0.24737">
        <ele>41</ele>
        <time>2012-11-18T14:58:23Z</time>
      </trkpt>
      <trkpt lat="44.7868" lon="-0.24708">
        <ele>42</ele>
        <time>2012-11-18T14:58:33Z</time>
      </trkpt>
      <trkpt lat="44.78659" lon="-0.24682">
        <ele>45</ele>
        <time>2012-11-18T14:58:41Z</time>
      </trkpt>
      <trkpt lat="44.78642" lon="-0.24655">
        <ele>47</ele>
        <time>2012-11-18T14:58:48Z</time>
      </trkpt>
      <trkpt lat="44.78631" lon="-0.2463">
        <ele>49</ele>
        <time>2012-11-18T14:58:57Z</time>
      </trkpt>
      <trkpt lat="44.78616" lon="-0.2461">
        <ele>52</ele>
        <time>2012-11-18T14:59:06Z</time>
      </trkpt>
      <trkpt lat="44.78597" lon="-0.24596">
        <ele>53</ele>
        <time>2012-11-18T14:59:14Z</time>
      </trkpt>
      <trkpt lat="44.78574" lon="-0.24579">
        <ele>55</ele>
        <time>2012-11-18T14:59:23Z</time>
      </trkpt>
      <trkpt lat="44.78553" lon="-0.24543">
        <ele>55</ele>
        <time>2012-11-18T14:59:33Z</time>
      </trkpt>
      <trkpt lat="44.78521" lon="-0.24527">
        <ele>53</ele>
        <time>2012-11-18T14:59:42Z</time>
      </trkpt>
      <trkpt lat="44.78498" lon="-0.24526">
        <ele>51</ele>
        <time>2012-11-18T14:59:50Z</time>
      </trkpt>
      <trkpt lat="44.78478" lon="-0.24502">
        <ele>49</ele>
        <time>2012-11-18T14:59:59Z</time>
      </trkpt>
      <trkpt lat="44.78476" lon="-0.24462">
        <ele>50</ele>
        <time>2012-11-18T15:00:07Z</time>
      </trkpt>
      <trkpt lat="44.7847" lon="-0.24414">
        <ele>50</ele>
        <time>2012-11-18T15:00:17Z</time>
      </trkpt>
      <trkpt lat="44.78462" lon="-0.24374">
        <ele>50</ele>
        <time>2012-11-18T15:00:25Z</time>
      </trkpt>
      <trkpt lat="44.78459" lon="-0.24323">
        <ele>50</ele>
        <time>2012-11-18T15:00:35Z</time>
      </trkpt>
      <trkpt lat="44.78469" lon="-0.24294">
        <ele>51</ele>
        <time>2012-11-18T15:00:41Z</time>
      </trkpt>
      <trkpt lat="44.78471" lon="-0.24287">
        <ele>52</ele>
        <time>2012-11-18T15:00:42Z</time>
      </trkpt>
      <trkpt lat="44.78472" lon="-0.24281">
        <ele>52</ele>
        <time>2012-11-18T15:00:43Z</time>
      </trkpt>
      <trkpt lat="44.78472" lon="-0.24274">
        <ele>52</ele>
        <time>2012-11-18T15:00:44Z</time>
      </trkpt>
      <trkpt lat="44.78471" lon="-0.24267">
        <ele>53</ele>
        <time>2012-11-18T15:00:45Z</time>
      </trkpt>
      <trkpt lat="44.7847" lon="-0.2426">
        <ele>53</ele>
        <time>2012-11-18T15:00:46Z</time>
      </trkpt>
      <trkpt lat="44.78468" lon="-0.24254">
        <ele>53</ele>
        <time>2012-11-18T15:00:47Z</time>
      </trkpt>
      <trkpt lat="44.78466" lon="-0.24249">
        <ele>54</ele>
        <time>2012-11-18T15:00:48Z</time>
      </trkpt>
      <trkpt lat="44.78464" lon="-0.24244">
        <ele>54</ele>
        <time>2012-11-18T15:00:49Z</time>
      </trkpt>
      <trkpt lat="44.78437" lon="-0.24197">
        <ele>57</ele>
        <time>2012-11-18T15:01:01Z</time>
      </trkpt>
      <trkpt lat="44.7843" lon="-0.24187">
        <ele>57</ele>
        <time>2012-11-18T15:01:04Z</time>
      </trkpt>
      <trkpt lat="44.78427" lon="-0.24184">
        <ele>57</ele>
        <time>2012-11-18T15:01:05Z</time>
      </trkpt>
      <trkpt lat="44.78424" lon="-0.24181">
        <ele>57</ele>
        <time>2012-11-18T15:01:06Z</time>
      </trkpt>
      <trkpt lat="44.78395" lon="-0.24156">
        <ele>57</ele>
        <time>2012-11-18T15:01:16Z</time>
      </trkpt>
      <trkpt lat="44.78368" lon="-0.24149">
        <ele>57</ele>
        <time>2012-11-18T15:01:24Z</time>
      </trkpt>
      <trkpt lat="44.78366" lon="-0.24152">
        <ele>56</ele>
        <time>2012-11-18T15:01:25Z</time>
      </trkpt>
      <trkpt lat="44.78364" lon="-0.24155">
        <ele>56</ele>
        <time>2012-11-18T15:01:26Z</time>
      </trkpt>
      <trkpt lat="44.78362" lon="-0.2416">
        <ele>56</ele>
        <time>2012-11-18T15:01:28Z</time>
      </trkpt>
      <trkpt lat="44.78361" lon="-0.24162">
        <ele>56</ele>
        <time>2012-11-18T15:01:29Z</time>
      </trkpt>
      <trkpt lat="44.78361" lon="-0.24164">
        <ele>55</ele>
        <time>2012-11-18T15:01:38Z</time>
      </trkpt>
      <trkpt lat="44.78361" lon="-0.24165">
        <ele>55</ele>
        <time>2012-11-18T15:02:00Z</time>
      </trkpt>
      <trkpt lat="44.78361" lon="-0.24165">
        <ele>55</ele>
        <time>2012-11-18T15:02:19Z</time>
      </trkpt>
      <trkpt lat="44.78361" lon="-0.24165">
        <ele>55</ele>
        <time>2012-11-18T15:02:38Z</time>
      </trkpt>
      <trkpt lat="44.7836" lon="-0.24166">
        <ele>55</ele>
        <time>2012-11-18T15:02:53Z</time>
      </trkpt>
      <trkpt lat="44.78355" lon="-0.24172">
        <ele>55</ele>
        <time>2012-11-18T15:03:01Z</time>
      </trkpt>
      <trkpt lat="44.78352" lon="-0.24175">
        <ele>54</ele>
        <time>2012-11-18T15:03:03Z</time>
      </trkpt>
      <trkpt lat="44.78349" lon="-0.24181">
        <ele>54</ele>
        <time>2012-11-18T15:03:12Z</time>
      </trkpt>
      <trkpt lat="44.78329" lon="-0.242">
        <ele>52</ele>
        <time>2012-11-18T15:03:23Z</time>
      </trkpt>
      <trkpt lat="44.78299" lon="-0.24226">
        <ele>52</ele>
        <time>2012-11-18T15:03:33Z</time>
      </trkpt>
      <trkpt lat="44.78275" lon="-0.24262">
        <ele>53</ele>
        <time>2012-11-18T15:03:42Z</time>
      </trkpt>
      <trkpt lat="44.78273" lon="-0.24266">
        <ele>53</ele>
        <time>2012-11-18T15:03:43Z</time>
      </trkpt>
      <trkpt lat="44.78249" lon="-0.24323">
        <ele>54</ele>
        <time>2012-11-18T15:03:55Z</time>
      </trkpt>
      <trkpt lat="44.78238" lon="-0.24372">
        <ele>54</ele>
        <time>2012-11-18T15:04:04Z</time>
      </trkpt>
      <trkpt lat="44.78216" lon="-0.24436">
        <ele>55</ele>
        <time>2012-11-18T15:04:15Z</time>
      </trkpt>
      <trkpt lat="44.78206" lon="-0.24456">
        <ele>55</ele>
        <time>2012-11-18T15:04:19Z</time>
      </trkpt>
      <trkpt lat="44.7818" lon="-0.24508">
        <ele>55</ele>
        <time>2012-11-18T15:04:30Z</time>
      </trkpt>
      <trkpt lat="44.78169" lon="-0.24525">
        <ele>56</ele>
        <time>2012-11-18T15:04:34Z</time>
      </trkpt>
      <trkpt lat="44.78151" lon="-0.2454">
        <ele>56</ele>
        <time>2012-11-18T15:04:39Z</time>
      </trkpt>
      <trkpt lat="44.78147" lon="-0.24542">
        <ele>56</ele>
        <time>2012-11-18T15:04:40Z</time>
      </trkpt>
      <trkpt lat="44.78143" lon="-0.24544">
        <ele>56</ele>
        <time>2012-11-18T15:04:41Z</time>
      </trkpt>
      <trkpt lat="44.78139" lon="-0.24547">
        <ele>56</ele>
        <time>2012-11-18T15:04:42Z</time>
      </trkpt>
      <trkpt lat="44.78135" lon="-0.24549">
        <ele>56</ele>
        <time>2012-11-18T15:04:43Z</time>
      </trkpt>
      <trkpt lat="44.7811" lon="-0.24565">
        <ele>57</ele>
        <time>2012-11-18T15:04:49Z</time>
      </trkpt>
      <trkpt lat="44.78106" lon="-0.24568">
        <ele>57</ele>
        <time>2012-11-18T15:04:50Z</time>
      </trkpt>
      <trkpt lat="44.78064" lon="-0.24607">
        <ele>57</ele>
        <time>2012-11-18T15:05:00Z</time>
      </trkpt>
      <trkpt lat="44.78021" lon="-0.24667">
        <ele>54</ele>
        <time>2012-11-18T15:05:09Z</time>
      </trkpt>
      <trkpt lat="44.77963" lon="-0.24746">
        <ele>52</ele>
        <time>2012-11-18T15:05:21Z</time>
      </trkpt>
      <trkpt lat="44.77959" lon="-0.2475">
        <ele>52</ele>
        <time>2012-11-18T15:05:22Z</time>
      </trkpt>
      <trkpt lat="44.77956" lon="-0.24752">
        <ele>52</ele>
        <time>2012-11-18T15:05:23Z</time>
      </trkpt>
      <trkpt lat="44.77952" lon="-0.24752">
        <ele>52</ele>
        <time>2012-11-18T15:05:24Z</time>
      </trkpt>
      <trkpt lat="44.77944" lon="-0.24741">
        <ele>52</ele>
        <time>2012-11-18T15:05:28Z</time>
      </trkpt>
      <trkpt lat="44.77922" lon="-0.24709">
        <ele>53</ele>
        <time>2012-11-18T15:05:38Z</time>
      </trkpt>
      <trkpt lat="44.77888" lon="-0.2466">
        <ele>53</ele>
        <time>2012-11-18T15:05:51Z</time>
      </trkpt>
      <trkpt lat="44.7786" lon="-0.24618">
        <ele>53</ele>
        <time>2012-11-18T15:06:02Z</time>
      </trkpt>
      <trkpt lat="44.77856" lon="-0.24612">
        <ele>53</ele>
        <time>2012-11-18T15:06:04Z</time>
      </trkpt>
      <trkpt lat="44.77848" lon="-0.24624">
        <ele>53</ele>
        <time>2012-11-18T15:06:12Z</time>
      </trkpt>
      <trkpt lat="44.77835" lon="-0.24652">
        <ele>53</ele>
        <time>2012-11-18T15:06:21Z</time>
      </trkpt>
      <trkpt lat="44.77815" lon="-0.24693">
        <ele>54</ele>
        <time>2012-11-18T15:06:34Z</time>
      </trkpt>
      <trkpt lat="44.77798" lon="-0.2472">
        <ele>55</ele>
        <time>2012-11-18T15:06:45Z</time>
      </trkpt>
      <trkpt lat="44.77774" lon="-0.24734">
        <ele>56</ele>
        <time>2012-11-18T15:06:55Z</time>
      </trkpt>
      <trkpt lat="44.77756" lon="-0.2475">
        <ele>57</ele>
        <time>2012-11-18T15:07:03Z</time>
      </trkpt>
      <trkpt lat="44.77733" lon="-0.24771">
        <ele>57</ele>
        <time>2012-11-18T15:07:14Z</time>
      </trkpt>
      <trkpt lat="44.77729" lon="-0.24776">
        <ele>57</ele>
        <time>2012-11-18T15:07:22Z</time>
      </trkpt>
      <trkpt lat="44.77727" lon="-0.24777">
        <ele>57</ele>
        <time>2012-11-18T15:07:39Z</time>
      </trkpt>
      <trkpt lat="44.77727" lon="-0.24776">
        <ele>57</ele>
        <time>2012-11-18T15:07:47Z</time>
      </trkpt>
      <trkpt lat="44.77727" lon="-0.24777">
        <ele>57</ele>
        <time>2012-11-18T15:08:00Z</time>
      </trkpt>
      <trkpt lat="44.77727" lon="-0.24776">
        <ele>57</ele>
        <time>2012-11-18T15:08:17Z</time>
      </trkpt>
      <trkpt lat="44.77708" lon="-0.2479">
        <ele>58</ele>
        <time>2012-11-18T15:08:28Z</time>
      </trkpt>
      <trkpt lat="44.77688" lon="-0.24805">
        <ele>58</ele>
        <time>2012-11-18T15:08:38Z</time>
      </trkpt>
      <trkpt lat="44.77659" lon="-0.24826">
        <ele>60</ele>
        <time>2012-11-18T15:08:51Z</time>
      </trkpt>
      <trkpt lat="44.77634" lon="-0.24844">
        <ele>60</ele>
        <time>2012-11-18T15:09:02Z</time>
      </trkpt>
      <trkpt lat="44.77619" lon="-0.24853">
        <ele>60</ele>
        <time>2012-11-18T15:09:09Z</time>
      </trkpt>
      <trkpt lat="44.7761" lon="-0.24865">
        <ele>60</ele>
        <time>2012-11-18T15:09:15Z</time>
      </trkpt>
      <trkpt lat="44.77604" lon="-0.24873">
        <ele>60</ele>
        <time>2012-11-18T15:09:25Z</time>
      </trkpt>
      <trkpt lat="44.77603" lon="-0.24874">
        <ele>60</ele>
        <time>2012-11-18T15:09:38Z</time>
      </trkpt>
      <trkpt lat="44.77603" lon="-0.24874">
        <ele>60</ele>
        <time>2012-11-18T15:09:54Z</time>
      </trkpt>
      <trkpt lat="44.77604" lon="-0.24873">
        <ele>60</ele>
        <time>2012-11-18T15:10:11Z</time>
      </trkpt>
      <trkpt lat="44.77603" lon="-0.24873">
        <ele>60</ele>
        <time>2012-11-18T15:10:29Z</time>
      </trkpt>
      <trkpt lat="44.77604" lon="-0.24872">
        <ele>60</ele>
        <time>2012-11-18T15:10:51Z</time>
      </trkpt>
      <trkpt lat="44.77603" lon="-0.24873">
        <ele>60</ele>
        <time>2012-11-18T15:11:15Z</time>
      </trkpt>
      <trkpt lat="44.77603" lon="-0.24873">
        <ele>60</ele>
        <time>2012-11-18T15:11:42Z</time>
      </trkpt>
      <trkpt lat="44.77603" lon="-0.24873">
        <ele>60</ele>
        <time>2012-11-18T15:12:06Z</time>
      </trkpt>
      <trkpt lat="44.77602" lon="-0.24875">
        <ele>60</ele>
        <time>2012-11-18T15:12:22Z</time>
      </trkpt>
      <trkpt lat="44.77601" lon="-0.24877">
        <ele>60</ele>
        <time>2012-11-18T15:12:33Z</time>
      </trkpt>
      <trkpt lat="44.77599" lon="-0.24883">
        <ele>60</ele>
        <time>2012-11-18T15:12:37Z</time>
      </trkpt>
      <trkpt lat="44.7758" lon="-0.2491">
        <ele>61</ele>
        <time>2012-11-18T15:12:48Z</time>
      </trkpt>
      <trkpt lat="44.77558" lon="-0.24942">
        <ele>61</ele>
        <time>2012-11-18T15:12:58Z</time>
      </trkpt>
      <trkpt lat="44.77531" lon="-0.24979">
        <ele>61</ele>
        <time>2012-11-18T15:13:10Z</time>
      </trkpt>
      <trkpt lat="44.77501" lon="-0.2502">
        <ele>62</ele>
        <time>2012-11-18T15:13:22Z</time>
      </trkpt>
      <trkpt lat="44.77473" lon="-0.25056">
        <ele>63</ele>
        <time>2012-11-18T15:13:34Z</time>
      </trkpt>
      <trkpt lat="44.77445" lon="-0.25092">
        <ele>63</ele>
        <time>2012-11-18T15:13:47Z</time>
      </trkpt>
      <trkpt lat="44.77427" lon="-0.25118">
        <ele>63</ele>
        <time>2012-11-18T15:13:57Z</time>
      </trkpt>
      <trkpt lat="44.774" lon="-0.25151">
        <ele>63</ele>
        <time>2012-11-18T15:14:09Z</time>
      </trkpt>
      <trkpt lat="44.77369" lon="-0.25182">
        <ele>64</ele>
        <time>2012-11-18T15:14:21Z</time>
      </trkpt>
      <trkpt lat="44.77327" lon="-0.25205">
        <ele>64</ele>
        <time>2012-11-18T15:14:35Z</time>
      </trkpt>
      <trkpt lat="44.77291" lon="-0.2522">
        <ele>65</ele>
        <time>2012-11-18T15:14:47Z</time>
      </trkpt>
      <trkpt lat="44.77263" lon="-0.2523">
        <ele>65</ele>
        <time>2012-11-18T15:14:58Z</time>
      </trkpt>
      <trkpt lat="44.77242" lon="-0.25237">
        <ele>66</ele>
        <time>2012-11-18T15:15:09Z</time>
      </trkpt>
      <trkpt lat="44.77221" lon="-0.25244">
        <ele>66</ele>
        <time>2012-11-18T15:15:19Z</time>
      </trkpt>
      <trkpt lat="44.77194" lon="-0.25269">
        <ele>67</ele>
        <time>2012-11-18T15:15:32Z</time>
      </trkpt>
      <trkpt lat="44.77171" lon="-0.25295">
        <ele>67</ele>
        <time>2012-11-18T15:15:44Z</time>
      </trkpt>
      <trkpt lat="44.77153" lon="-0.25318">
        <ele>68</ele>
        <time>2012-11-18T15:15:55Z</time>
      </trkpt>
      <trkpt lat="44.77138" lon="-0.25336">
        <ele>69</ele>
        <time>2012-11-18T15:16:04Z</time>
      </trkpt>
      <trkpt lat="44.77117" lon="-0.2536">
        <ele>70</ele>
        <time>2012-11-18T15:16:16Z</time>
      </trkpt>
      <trkpt lat="44.77095" lon="-0.25378">
        <ele>70</ele>
        <time>2012-11-18T15:16:27Z</time>
      </trkpt>
      <trkpt lat="44.77067" lon="-0.25392">
        <ele>71</ele>
        <time>2012-11-18T15:16:39Z</time>
      </trkpt>
      <trkpt lat="44.77039" lon="-0.25404">
        <ele>71</ele>
        <time>2012-11-18T15:16:51Z</time>
      </trkpt>
      <trkpt lat="44.77011" lon="-0.2541">
        <ele>72</ele>
        <time>2012-11-18T15:17:03Z</time>
      </trkpt>
      <trkpt lat="44.76996" lon="-0.25427">
        <ele>73</ele>
        <time>2012-11-18T15:17:11Z</time>
      </trkpt>
      <trkpt lat="44.7699" lon="-0.25429">
        <ele>73</ele>
        <time>2012-11-18T15:17:14Z</time>
      </trkpt>
      <trkpt lat="44.7698" lon="-0.25433">
        <ele>73</ele>
        <time>2012-11-18T15:17:20Z</time>
      </trkpt>
      <trkpt lat="44.76969" lon="-0.25438">
        <ele>74</ele>
        <time>2012-11-18T15:17:26Z</time>
      </trkpt>
      <trkpt lat="44.76959" lon="-0.25445">
        <ele>74</ele>
        <time>2012-11-18T15:17:31Z</time>
      </trkpt>
      <trkpt lat="44.76951" lon="-0.25452">
        <ele>74</ele>
        <time>2012-11-18T15:17:36Z</time>
      </trkpt>
      <trkpt lat="44.7693" lon="-0.25465">
        <ele>75</ele>
        <time>2012-11-18T15:17:45Z</time>
      </trkpt>
      <trkpt lat="44.7692" lon="-0.2548">
        <ele>75</ele>
        <time>2012-11-18T15:17:51Z</time>
      </trkpt>
      <trkpt lat="44.76919" lon="-0.25498">
        <ele>75</ele>
        <time>2012-11-18T15:17:56Z</time>
      </trkpt>
      <trkpt lat="44.76922" lon="-0.25509">
        <ele>74</ele>
        <time>2012-11-18T15:17:59Z</time>
      </trkpt>
      <trkpt lat="44.76923" lon="-0.25538">
        <ele>74</ele>
        <time>2012-11-18T15:18:07Z</time>
      </trkpt>
      <trkpt lat="44.76924" lon="-0.25549">
        <ele>74</ele>
        <time>2012-11-18T15:18:10Z</time>
      </trkpt>
      <trkpt lat="44.76926" lon="-0.2557">
        <ele>73</ele>
        <time>2012-11-18T15:18:16Z</time>
      </trkpt>
      <trkpt lat="44.76931" lon="-0.25614">
        <ele>73</ele>
        <time>2012-11-18T15:18:27Z</time>
      </trkpt>
      <trkpt lat="44.76924" lon="-0.25663">
        <ele>72</ele>
        <time>2012-11-18T15:18:37Z</time>
      </trkpt>
      <trkpt lat="44.76915" lon="-0.25724">
        <ele>71</ele>
        <time>2012-11-18T15:18:49Z</time>
      </trkpt>
      <trkpt lat="44.76914" lon="-0.25735">
        <ele>71</ele>
        <time>2012-11-18T15:18:57Z</time>
      </trkpt>
      <trkpt lat="44.76914" lon="-0.25737">
        <ele>71</ele>
        <time>2012-11-18T15:19:14Z</time>
      </trkpt>
      <trkpt lat="44.76912" lon="-0.25745">
        <ele>70</ele>
        <time>2012-11-18T15:19:30Z</time>
      </trkpt>
      <trkpt lat="44.76912" lon="-0.25747">
        <ele>70</ele>
        <time>2012-11-18T15:19:31Z</time>
      </trkpt>
      <trkpt lat="44.76912" lon="-0.25749">
        <ele>70</ele>
        <time>2012-11-18T15:19:32Z</time>
      </trkpt>
      <trkpt lat="44.76911" lon="-0.25751">
        <ele>70</ele>
        <time>2012-11-18T15:19:33Z</time>
      </trkpt>
      <trkpt lat="44.7691" lon="-0.25754">
        <ele>70</ele>
        <time>2012-11-18T15:19:34Z</time>
      </trkpt>
      <trkpt lat="44.76909" lon="-0.25757">
        <ele>70</ele>
        <time>2012-11-18T15:19:35Z</time>
      </trkpt>
      <trkpt lat="44.76908" lon="-0.2576">
        <ele>70</ele>
        <time>2012-11-18T15:19:36Z</time>
      </trkpt>
      <trkpt lat="44.76907" lon="-0.25764">
        <ele>70</ele>
        <time>2012-11-18T15:19:37Z</time>
      </trkpt>
      <trkpt lat="44.76906" lon="-0.25767">
        <ele>70</ele>
        <time>2012-11-18T15:19:38Z</time>
      </trkpt>
      <trkpt lat="44.76906" lon="-0.2577">
        <ele>69</ele>
        <time>2012-11-18T15:19:39Z</time>
      </trkpt>
      <trkpt lat="44.76905" lon="-0.25773">
        <ele>69</ele>
        <time>2012-11-18T15:19:40Z</time>
      </trkpt>
      <trkpt lat="44.76903" lon="-0.2578">
        <ele>69</ele>
        <time>2012-11-18T15:19:43Z</time>
      </trkpt>
      <trkpt lat="44.76903" lon="-0.25783">
        <ele>69</ele>
        <time>2012-11-18T15:19:44Z</time>
      </trkpt>
      <trkpt lat="44.76898" lon="-0.25812">
        <ele>68</ele>
        <time>2012-11-18T15:19:55Z</time>
      </trkpt>
      <trkpt lat="44.76894" lon="-0.25846">
        <ele>67</ele>
        <time>2012-11-18T15:20:05Z</time>
      </trkpt>
      <trkpt lat="44.76887" lon="-0.25886">
        <ele>66</ele>
        <time>2012-11-18T15:20:15Z</time>
      </trkpt>
      <trkpt lat="44.76879" lon="-0.25937">
        <ele>64</ele>
        <time>2012-11-18T15:20:23Z</time>
      </trkpt>
      <trkpt lat="44.76863" lon="-0.26022">
        <ele>61</ele>
        <time>2012-11-18T15:20:33Z</time>
      </trkpt>
      <trkpt lat="44.76856" lon="-0.26045">
        <ele>60</ele>
        <time>2012-11-18T15:20:36Z</time>
      </trkpt>
      <trkpt lat="44.76845" lon="-0.26143">
        <ele>61</ele>
        <time>2012-11-18T15:20:48Z</time>
      </trkpt>
      <trkpt lat="44.76839" lon="-0.26226">
        <ele>63</ele>
        <time>2012-11-18T15:21:00Z</time>
      </trkpt>
      <trkpt lat="44.76838" lon="-0.26279">
        <ele>65</ele>
        <time>2012-11-18T15:21:09Z</time>
      </trkpt>
      <trkpt lat="44.76837" lon="-0.26286">
        <ele>65</ele>
        <time>2012-11-18T15:21:10Z</time>
      </trkpt>
      <trkpt lat="44.76836" lon="-0.26308">
        <ele>66</ele>
        <time>2012-11-18T15:21:14Z</time>
      </trkpt>
      <trkpt lat="44.7684" lon="-0.2632">
        <ele>66</ele>
        <time>2012-11-18T15:21:21Z</time>
      </trkpt>
      <trkpt lat="44.76839" lon="-0.26321">
        <ele>66</ele>
        <time>2012-11-18T15:21:35Z</time>
      </trkpt>
      <trkpt lat="44.7684" lon="-0.26322">
        <ele>66</ele>
        <time>2012-11-18T15:22:04Z</time>
      </trkpt>
      <trkpt lat="44.7684" lon="-0.26322">
        <ele>66</ele>
        <time>2012-11-18T15:22:25Z</time>
      </trkpt>
      <trkpt lat="44.7684" lon="-0.26321">
        <ele>66</ele>
        <time>2012-11-18T15:22:47Z</time>
      </trkpt>
      <trkpt lat="44.7684" lon="-0.26322">
        <ele>66</ele>
        <time>2012-11-18T15:23:12Z</time>
      </trkpt>
      <trkpt lat="44.76839" lon="-0.26322">
        <ele>66</ele>
        <time>2012-11-18T15:23:32Z</time>
      </trkpt>
      <trkpt lat="44.76839" lon="-0.26322">
        <ele>66</ele>
        <time>2012-11-18T15:23:39Z</time>
      </trkpt>
      <trkpt lat="44.76844" lon="-0.26322">
        <ele>66</ele>
        <time>2012-11-18T15:23:43Z</time>
      </trkpt>
      <trkpt lat="44.76866" lon="-0.26324">
        <ele>66</ele>
        <time>2012-11-18T15:23:52Z</time>
      </trkpt>
      <trkpt lat="44.76894" lon="-0.26333">
        <ele>66</ele>
        <time>2012-11-18T15:24:00Z</time>
      </trkpt>
      <trkpt lat="44.76902" lon="-0.26356">
        <ele>66</ele>
        <time>2012-11-18T15:24:06Z</time>
      </trkpt>
      <trkpt lat="44.76913" lon="-0.26412">
        <ele>66</ele>
        <time>2012-11-18T15:24:17Z</time>
      </trkpt>
      <trkpt lat="44.76922" lon="-0.26468">
        <ele>66</ele>
        <time>2012-11-18T15:24:27Z</time>
      </trkpt>
      <trkpt lat="44.76924" lon="-0.26475">
        <ele>65</ele>
        <time>2012-11-18T15:24:28Z</time>
      </trkpt>
      <trkpt lat="44.76945" lon="-0.26571">
        <ele>64</ele>
        <time>2012-11-18T15:24:41Z</time>
      </trkpt>
      <trkpt lat="44.76964" lon="-0.2666">
        <ele>63</ele>
        <time>2012-11-18T15:24:54Z</time>
      </trkpt>
      <trkpt lat="44.76977" lon="-0.26721">
        <ele>63</ele>
        <time>2012-11-18T15:25:05Z</time>
      </trkpt>
      <trkpt lat="44.76988" lon="-0.26758">
        <ele>63</ele>
        <time>2012-11-18T15:25:15Z</time>
      </trkpt>
      <trkpt lat="44.77004" lon="-0.26797">
        <ele>63</ele>
        <time>2012-11-18T15:25:24Z</time>
      </trkpt>
      <trkpt lat="44.77031" lon="-0.26861">
        <ele>63</ele>
        <time>2012-11-18T15:25:36Z</time>
      </trkpt>
      <trkpt lat="44.77044" lon="-0.26891">
        <ele>62</ele>
        <time>2012-11-18T15:25:41Z</time>
      </trkpt>
      <trkpt lat="44.77047" lon="-0.26904">
        <ele>62</ele>
        <time>2012-11-18T15:25:43Z</time>
      </trkpt>
      <trkpt lat="44.77056" lon="-0.26944">
        <ele>62</ele>
        <time>2012-11-18T15:25:49Z</time>
      </trkpt>
      <trkpt lat="44.77074" lon="-0.27015">
        <ele>60</ele>
        <time>2012-11-18T15:26:01Z</time>
      </trkpt>
      <trkpt lat="44.77079" lon="-0.27034">
        <ele>60</ele>
        <time>2012-11-18T15:26:09Z</time>
      </trkpt>
      <trkpt lat="44.77079" lon="-0.27036">
        <ele>60</ele>
        <time>2012-11-18T15:26:20Z</time>
      </trkpt>
      <trkpt lat="44.77079" lon="-0.27036">
        <ele>60</ele>
        <time>2012-11-18T15:26:34Z</time>
      </trkpt>
      <trkpt lat="44.77079" lon="-0.27036">
        <ele>60</ele>
        <time>2012-11-18T15:26:51Z</time>
      </trkpt>
      <trkpt lat="44.77078" lon="-0.27037">
        <ele>60</ele>
        <time>2012-11-18T15:27:10Z</time>
      </trkpt>
      <trkpt lat="44.77078" lon="-0.27036">
        <ele>60</ele>
        <time>2012-11-18T15:27:21Z</time>
      </trkpt>
      <trkpt lat="44.77079" lon="-0.27036">
        <ele>60</ele>
        <time>2012-11-18T15:27:35Z</time>
      </trkpt>
      <trkpt lat="44.77079" lon="-0.27036">
        <ele>60</ele>
        <time>2012-11-18T15:27:49Z</time>
      </trkpt>
      <trkpt lat="44.77079" lon="-0.27036">
        <ele>60</ele>
        <time>2012-11-18T15:27:58Z</time>
      </trkpt>
      <trkpt lat="44.7708" lon="-0.2704">
        <ele>59</ele>
        <time>2012-11-18T15:28:04Z</time>
      </trkpt>
      <trkpt lat="44.77073" lon="-0.2705">
        <ele>59</ele>
        <time>2012-11-18T15:28:12Z</time>
      </trkpt>
      <trkpt lat="44.77089" lon="-0.27076">
        <ele>59</ele>
        <time>2012-11-18T15:28:21Z</time>
      </trkpt>
      <trkpt lat="44.77099" lon="-0.27104">
        <ele>58</ele>
        <time>2012-11-18T15:28:26Z</time>
      </trkpt>
      <trkpt lat="44.77108" lon="-0.27128">
        <ele>57</ele>
        <time>2012-11-18T15:28:30Z</time>
      </trkpt>
      <trkpt lat="44.77124" lon="-0.27185">
        <ele>55</ele>
        <time>2012-11-18T15:28:38Z</time>
      </trkpt>
      <trkpt lat="44.77135" lon="-0.27219">
        <ele>54</ele>
        <time>2012-11-18T15:28:43Z</time>
      </trkpt>
      <trkpt lat="44.77142" lon="-0.27267">
        <ele>53</ele>
        <time>2012-11-18T15:28:52Z</time>
      </trkpt>
      <trkpt lat="44.77143" lon="-0.27291">
        <ele>54</ele>
        <time>2012-11-18T15:29:00Z</time>
      </trkpt>
      <trkpt lat="44.77146" lon="-0.273">
        <ele>54</ele>
        <time>2012-11-18T15:29:09Z</time>
      </trkpt>
      <trkpt lat="44.77148" lon="-0.27308">
        <ele>54</ele>
        <time>2012-11-18T15:29:16Z</time>
      </trkpt>
      <trkpt lat="44.77143" lon="-0.27314">
        <ele>54</ele>
        <time>2012-11-18T15:29:25Z</time>
      </trkpt>
      <trkpt lat="44.7714" lon="-0.27316">
        <ele>54</ele>
        <time>2012-11-18T15:29:27Z</time>
      </trkpt>
      <trkpt lat="44.77129" lon="-0.27322">
        <ele>54</ele>
        <time>2012-11-18T15:29:33Z</time>
      </trkpt>
      <trkpt lat="44.77108" lon="-0.27328">
        <ele>54</ele>
        <time>2012-11-18T15:29:40Z</time>
      </trkpt>
      <trkpt lat="44.77096" lon="-0.2733">
        <ele>54</ele>
        <time>2012-11-18T15:29:44Z</time>
      </trkpt>
      <trkpt lat="44.77095" lon="-0.27348">
        <ele>54</ele>
        <time>2012-11-18T15:29:49Z</time>
      </trkpt>
      <trkpt lat="44.77104" lon="-0.27373">
        <ele>55</ele>
        <time>2012-11-18T15:29:56Z</time>
      </trkpt>
      <trkpt lat="44.7711" lon="-0.27386">
        <ele>56</ele>
        <time>2012-11-18T15:30:00Z</time>
      </trkpt>
      <trkpt lat="44.7712" lon="-0.27404">
        <ele>57</ele>
        <time>2012-11-18T15:30:08Z</time>
      </trkpt>
      <trkpt lat="44.77126" lon="-0.27422">
        <ele>59</ele>
        <time>2012-11-18T15:30:15Z</time>
      </trkpt>
      <trkpt lat="44.77125" lon="-0.27427">
        <ele>59</ele>
        <time>2012-11-18T15:30:16Z</time>
      </trkpt>
      <trkpt lat="44.77127" lon="-0.27462">
        <ele>61</ele>
        <time>2012-11-18T15:30:25Z</time>
      </trkpt>
      <trkpt lat="44.77127" lon="-0.27488">
        <ele>62</ele>
        <time>2012-11-18T15:30:33Z</time>
      </trkpt>
      <trkpt lat="44.77127" lon="-0.27493">
        <ele>63</ele>
        <time>2012-11-18T15:30:35Z</time>
      </trkpt>
      <trkpt lat="44.77131" lon="-0.27514">
        <ele>64</ele>
        <time>2012-11-18T15:30:43Z</time>
      </trkpt>
      <trkpt lat="44.77136" lon="-0.27527">
        <ele>65</ele>
        <time>2012-11-18T15:30:48Z</time>
      </trkpt>
      <trkpt lat="44.77142" lon="-0.27562">
        <ele>67</ele>
        <time>2012-11-18T15:30:58Z</time>
      </trkpt>
      <trkpt lat="44.77144" lon="-0.27596">
        <ele>68</ele>
        <time>2012-11-18T15:31:07Z</time>
      </trkpt>
      <trkpt lat="44.77143" lon="-0.27627">
        <ele>69</ele>
        <time>2012-11-18T15:31:16Z</time>
      </trkpt>
      <trkpt lat="44.77146" lon="-0.27664">
        <ele>69</ele>
        <time>2012-11-18T15:31:27Z</time>
      </trkpt>
      <trkpt lat="44.77146" lon="-0.27705">
        <ele>70</ele>
        <time>2012-11-18T15:31:37Z</time>
      </trkpt>
      <trkpt lat="44.77149" lon="-0.2774">
        <ele>70</ele>
        <time>2012-11-18T15:31:49Z</time>
      </trkpt>
      <trkpt lat="44.77149" lon="-0.27749">
        <ele>71</ele>
        <time>2012-11-18T15:31:53Z</time>
      </trkpt>
      <trkpt lat="44.77143" lon="-0.27772">
        <ele>71</ele>
        <time>2012-11-18T15:32:01Z</time>
      </trkpt>
      <trkpt lat="44.77122" lon="-0.27773">
        <ele>71</ele>
        <time>2012-11-18T15:32:12Z</time>
      </trkpt>
      <trkpt lat="44.77081" lon="-0.27779">
        <ele>70</ele>
        <time>2012-11-18T15:32:25Z</time>
      </trkpt>
      <trkpt lat="44.7707" lon="-0.2778">
        <ele>70</ele>
        <time>2012-11-18T15:32:28Z</time>
      </trkpt>
      <trkpt lat="44.77065" lon="-0.27781">
        <ele>70</ele>
        <time>2012-11-18T15:32:29Z</time>
      </trkpt>
      <trkpt lat="44.77008" lon="-0.27793">
        <ele>68</ele>
        <time>2012-11-18T15:32:41Z</time>
      </trkpt>
      <trkpt lat="44.7696" lon="-0.27808">
        <ele>66</ele>
        <time>2012-11-18T15:32:52Z</time>
      </trkpt>
      <trkpt lat="44.76932" lon="-0.2782">
        <ele>66</ele>
        <time>2012-11-18T15:33:00Z</time>
      </trkpt>
      <trkpt lat="44.76928" lon="-0.27821">
        <ele>66</ele>
        <time>2012-11-18T15:33:01Z</time>
      </trkpt>
      <trkpt lat="44.76923" lon="-0.27821">
        <ele>66</ele>
        <time>2012-11-18T15:33:02Z</time>
      </trkpt>
      <trkpt lat="44.76914" lon="-0.27822">
        <ele>65</ele>
        <time>2012-11-18T15:33:04Z</time>
      </trkpt>
      <trkpt lat="44.7691" lon="-0.27822">
        <ele>65</ele>
        <time>2012-11-18T15:33:05Z</time>
      </trkpt>
      <trkpt lat="44.76906" lon="-0.27821">
        <ele>65</ele>
        <time>2012-11-18T15:33:06Z</time>
      </trkpt>
      <trkpt lat="44.76902" lon="-0.2782">
        <ele>65</ele>
        <time>2012-11-18T15:33:07Z</time>
      </trkpt>
      <trkpt lat="44.76899" lon="-0.27818">
        <ele>65</ele>
        <time>2012-11-18T15:33:08Z</time>
      </trkpt>
      <trkpt lat="44.76896" lon="-0.27818">
        <ele>65</ele>
        <time>2012-11-18T15:33:09Z</time>
      </trkpt>
      <trkpt lat="44.76893" lon="-0.27819">
        <ele>65</ele>
        <time>2012-11-18T15:33:10Z</time>
      </trkpt>
      <trkpt lat="44.7689" lon="-0.27822">
        <ele>65</ele>
        <time>2012-11-18T15:33:11Z</time>
      </trkpt>
      <trkpt lat="44.76889" lon="-0.27827">
        <ele>65</ele>
        <time>2012-11-18T15:33:12Z</time>
      </trkpt>
      <trkpt lat="44.76888" lon="-0.27833">
        <ele>65</ele>
        <time>2012-11-18T15:33:13Z</time>
      </trkpt>
      <trkpt lat="44.76887" lon="-0.2786">
        <ele>65</ele>
        <time>2012-11-18T15:33:17Z</time>
      </trkpt>
      <trkpt lat="44.76887" lon="-0.27867">
        <ele>65</ele>
        <time>2012-11-18T15:33:18Z</time>
      </trkpt>
      <trkpt lat="44.76893" lon="-0.27896">
        <ele>66</ele>
        <time>2012-11-18T15:33:22Z</time>
      </trkpt>
      <trkpt lat="44.76893" lon="-0.27904">
        <ele>66</ele>
        <time>2012-11-18T15:33:23Z</time>
      </trkpt>
      <trkpt lat="44.76896" lon="-0.27928">
        <ele>66</ele>
        <time>2012-11-18T15:33:26Z</time>
      </trkpt>
      <trkpt lat="44.76896" lon="-0.27949">
        <ele>66</ele>
        <time>2012-11-18T15:33:29Z</time>
      </trkpt>
      <trkpt lat="44.76897" lon="-0.27956">
        <ele>66</ele>
        <time>2012-11-18T15:33:30Z</time>
      </trkpt>
      <trkpt lat="44.76913" lon="-0.28015">
        <ele>67</ele>
        <time>2012-11-18T15:33:39Z</time>
      </trkpt>
      <trkpt lat="44.76918" lon="-0.2806">
        <ele>68</ele>
        <time>2012-11-18T15:33:48Z</time>
      </trkpt>
      <trkpt lat="44.76919" lon="-0.28093">
        <ele>68</ele>
        <time>2012-11-18T15:33:55Z</time>
      </trkpt>
      <trkpt lat="44.76916" lon="-0.28129">
        <ele>69</ele>
        <time>2012-11-18T15:34:02Z</time>
      </trkpt>
      <trkpt lat="44.7691" lon="-0.28168">
        <ele>70</ele>
        <time>2012-11-18T15:34:09Z</time>
      </trkpt>
      <trkpt lat="44.7691" lon="-0.28172">
        <ele>70</ele>
        <time>2012-11-18T15:34:10Z</time>
      </trkpt>
      <trkpt lat="44.76909" lon="-0.28177">
        <ele>70</ele>
        <time>2012-11-18T15:34:11Z</time>
      </trkpt>
      <trkpt lat="44.76908" lon="-0.2818">
        <ele>70</ele>
        <time>2012-11-18T15:34:12Z</time>
      </trkpt>
      <trkpt lat="44.76907" lon="-0.28182">
        <ele>70</ele>
        <time>2012-11-18T15:34:13Z</time>
      </trkpt>
      <trkpt lat="44.76907" lon="-0.28185">
        <ele>70</ele>
        <time>2012-11-18T15:34:14Z</time>
      </trkpt>
      <trkpt lat="44.76906" lon="-0.28187">
        <ele>70</ele>
        <time>2012-11-18T15:34:15Z</time>
      </trkpt>
      <trkpt lat="44.76904" lon="-0.28199">
        <ele>70</ele>
        <time>2012-11-18T15:34:19Z</time>
      </trkpt>
      <trkpt lat="44.76904" lon="-0.28202">
        <ele>70</ele>
        <time>2012-11-18T15:34:20Z</time>
      </trkpt>
      <trkpt lat="44.76904" lon="-0.28205">
        <ele>70</ele>
        <time>2012-11-18T15:34:21Z</time>
      </trkpt>
      <trkpt lat="44.76903" lon="-0.28209">
        <ele>70</ele>
        <time>2012-11-18T15:34:22Z</time>
      </trkpt>
      <trkpt lat="44.76903" lon="-0.28212">
        <ele>70</ele>
        <time>2012-11-18T15:34:23Z</time>
      </trkpt>
      <trkpt lat="44.76902" lon="-0.28216">
        <ele>70</ele>
        <time>2012-11-18T15:34:24Z</time>
      </trkpt>
      <trkpt lat="44.76902" lon="-0.28219">
        <ele>71</ele>
        <time>2012-11-18T15:34:25Z</time>
      </trkpt>
      <trkpt lat="44.76901" lon="-0.28221">
        <ele>71</ele>
        <time>2012-11-18T15:34:26Z</time>
      </trkpt>
      <trkpt lat="44.769" lon="-0.28224">
        <ele>71</ele>
        <time>2012-11-18T15:34:27Z</time>
      </trkpt>
      <trkpt lat="44.76898" lon="-0.28227">
        <ele>71</ele>
        <time>2012-11-18T15:34:28Z</time>
      </trkpt>
      <trkpt lat="44.76897" lon="-0.28231">
        <ele>71</ele>
        <time>2012-11-18T15:34:29Z</time>
      </trkpt>
      <trkpt lat="44.76897" lon="-0.28234">
        <ele>71</ele>
        <time>2012-11-18T15:34:30Z</time>
      </trkpt>
      <trkpt lat="44.76883" lon="-0.28267">
        <ele>71</ele>
        <time>2012-11-18T15:34:39Z</time>
      </trkpt>
      <trkpt lat="44.7686" lon="-0.28288">
        <ele>71</ele>
        <time>2012-11-18T15:34:47Z</time>
      </trkpt>
      <trkpt lat="44.7686" lon="-0.28308">
        <ele>72</ele>
        <time>2012-11-18T15:34:53Z</time>
      </trkpt>
      <trkpt lat="44.76865" lon="-0.28323">
        <ele>72</ele>
        <time>2012-11-18T15:34:57Z</time>
      </trkpt>
      <trkpt lat="44.76866" lon="-0.28327">
        <ele>73</ele>
        <time>2012-11-18T15:34:58Z</time>
      </trkpt>
      <trkpt lat="44.76873" lon="-0.28357">
        <ele>73</ele>
        <time>2012-11-18T15:35:07Z</time>
      </trkpt>
      <trkpt lat="44.76873" lon="-0.28397">
        <ele>74</ele>
        <time>2012-11-18T15:35:16Z</time>
      </trkpt>
      <trkpt lat="44.76874" lon="-0.28419">
        <ele>75</ele>
        <time>2012-11-18T15:35:22Z</time>
      </trkpt>
      <trkpt lat="44.76874" lon="-0.28422">
        <ele>75</ele>
        <time>2012-11-18T15:35:23Z</time>
      </trkpt>
      <trkpt lat="44.76875" lon="-0.28428">
        <ele>76</ele>
        <time>2012-11-18T15:35:25Z</time>
      </trkpt>
      <trkpt lat="44.76876" lon="-0.28431">
        <ele>76</ele>
        <time>2012-11-18T15:35:26Z</time>
      </trkpt>
      <trkpt lat="44.76875" lon="-0.28436">
        <ele>76</ele>
        <time>2012-11-18T15:35:27Z</time>
      </trkpt>
      <trkpt lat="44.76875" lon="-0.2844">
        <ele>76</ele>
        <time>2012-11-18T15:35:28Z</time>
      </trkpt>
      <trkpt lat="44.76875" lon="-0.28444">
        <ele>76</ele>
        <time>2012-11-18T15:35:29Z</time>
      </trkpt>
      <trkpt lat="44.76875" lon="-0.28449">
        <ele>77</ele>
        <time>2012-11-18T15:35:30Z</time>
      </trkpt>
      <trkpt lat="44.76874" lon="-0.28462">
        <ele>78</ele>
        <time>2012-11-18T15:35:33Z</time>
      </trkpt>
      <trkpt lat="44.76873" lon="-0.2847">
        <ele>78</ele>
        <time>2012-11-18T15:35:35Z</time>
      </trkpt>
      <trkpt lat="44.76873" lon="-0.28513">
        <ele>81</ele>
        <time>2012-11-18T15:35:45Z</time>
      </trkpt>
      <trkpt lat="44.76876" lon="-0.28537">
        <ele>83</ele>
        <time>2012-11-18T15:35:53Z</time>
      </trkpt>
      <trkpt lat="44.76878" lon="-0.28544">
        <ele>83</ele>
        <time>2012-11-18T15:35:56Z</time>
      </trkpt>
      <trkpt lat="44.76879" lon="-0.28547">
        <ele>83</ele>
        <time>2012-11-18T15:35:57Z</time>
      </trkpt>
      <trkpt lat="44.76881" lon="-0.28557">
        <ele>84</ele>
        <time>2012-11-18T15:36:01Z</time>
      </trkpt>
      <trkpt lat="44.76883" lon="-0.28559">
        <ele>84</ele>
        <time>2012-11-18T15:36:02Z</time>
      </trkpt>
      <trkpt lat="44.76884" lon="-0.28562">
        <ele>85</ele>
        <time>2012-11-18T15:36:03Z</time>
      </trkpt>
      <trkpt lat="44.76885" lon="-0.28566">
        <ele>85</ele>
        <time>2012-11-18T15:36:04Z</time>
      </trkpt>
      <trkpt lat="44.76886" lon="-0.2857">
        <ele>85</ele>
        <time>2012-11-18T15:36:05Z</time>
      </trkpt>
      <trkpt lat="44.76886" lon="-0.28575">
        <ele>85</ele>
        <time>2012-11-18T15:36:06Z</time>
      </trkpt>
      <trkpt lat="44.76887" lon="-0.28579">
        <ele>85</ele>
        <time>2012-11-18T15:36:07Z</time>
      </trkpt>
      <trkpt lat="44.76888" lon="-0.28583">
        <ele>85</ele>
        <time>2012-11-18T15:36:08Z</time>
      </trkpt>
      <trkpt lat="44.76889" lon="-0.28587">
        <ele>86</ele>
        <time>2012-11-18T15:36:09Z</time>
      </trkpt>
      <trkpt lat="44.7689" lon="-0.2859">
        <ele>86</ele>
        <time>2012-11-18T15:36:10Z</time>
      </trkpt>
      <trkpt lat="44.76891" lon="-0.28594">
        <ele>86</ele>
        <time>2012-11-18T15:36:11Z</time>
      </trkpt>
      <trkpt lat="44.76894" lon="-0.28628">
        <ele>87</ele>
        <time>2012-11-18T15:36:19Z</time>
      </trkpt>
      <trkpt lat="44.76894" lon="-0.28638">
        <ele>87</ele>
        <time>2012-11-18T15:36:21Z</time>
      </trkpt>
      <trkpt lat="44.76895" lon="-0.28642">
        <ele>87</ele>
        <time>2012-11-18T15:36:22Z</time>
      </trkpt>
      <trkpt lat="44.76896" lon="-0.28645">
        <ele>87</ele>
        <time>2012-11-18T15:36:23Z</time>
      </trkpt>
      <trkpt lat="44.76896" lon="-0.28646">
        <ele>87</ele>
        <time>2012-11-18T15:36:24Z</time>
      </trkpt>
      <trkpt lat="44.76898" lon="-0.2865">
        <ele>87</ele>
        <time>2012-11-18T15:36:25Z</time>
      </trkpt>
      <trkpt lat="44.76899" lon="-0.28652">
        <ele>87</ele>
        <time>2012-11-18T15:36:26Z</time>
      </trkpt>
      <trkpt lat="44.76901" lon="-0.28656">
        <ele>87</ele>
        <time>2012-11-18T15:36:27Z</time>
      </trkpt>
      <trkpt lat="44.76902" lon="-0.28659">
        <ele>87</ele>
        <time>2012-11-18T15:36:28Z</time>
      </trkpt>
      <trkpt lat="44.76905" lon="-0.28665">
        <ele>87</ele>
        <time>2012-11-18T15:36:30Z</time>
      </trkpt>
      <trkpt lat="44.76906" lon="-0.28668">
        <ele>87</ele>
        <time>2012-11-18T15:36:31Z</time>
      </trkpt>
      <trkpt lat="44.76909" lon="-0.28672">
        <ele>87</ele>
        <time>2012-11-18T15:36:32Z</time>
      </trkpt>
      <trkpt lat="44.76916" lon="-0.28683">
        <ele>87</ele>
        <time>2012-11-18T15:36:35Z</time>
      </trkpt>
      <trkpt lat="44.7692" lon="-0.28692">
        <ele>87</ele>
        <time>2012-11-18T15:36:37Z</time>
      </trkpt>
      <trkpt lat="44.76925" lon="-0.287">
        <ele>87</ele>
        <time>2012-11-18T15:36:39Z</time>
      </trkpt>
      <trkpt lat="44.76929" lon="-0.28712">
        <ele>87</ele>
        <time>2012-11-18T15:36:42Z</time>
      </trkpt>
      <trkpt lat="44.76929" lon="-0.28717">
        <ele>87</ele>
        <time>2012-11-18T15:36:43Z</time>
      </trkpt>
      <trkpt lat="44.7693" lon="-0.28721">
        <ele>87</ele>
        <time>2012-11-18T15:36:44Z</time>
      </trkpt>
      <trkpt lat="44.76928" lon="-0.2875">
        <ele>88</ele>
        <time>2012-11-18T15:36:51Z</time>
      </trkpt>
      <trkpt lat="44.76917" lon="-0.28787">
        <ele>89</ele>
        <time>2012-11-18T15:37:02Z</time>
      </trkpt>
      <trkpt lat="44.76909" lon="-0.2883">
        <ele>90</ele>
        <time>2012-11-18T15:37:15Z</time>
      </trkpt>
      <trkpt lat="44.76914" lon="-0.28851">
        <ele>92</ele>
        <time>2012-11-18T15:37:24Z</time>
      </trkpt>
      <trkpt lat="44.76919" lon="-0.28871">
        <ele>93</ele>
        <time>2012-11-18T15:37:35Z</time>
      </trkpt>
      <trkpt lat="44.7692" lon="-0.28886">
        <ele>94</ele>
        <time>2012-11-18T15:37:41Z</time>
      </trkpt>
      <trkpt lat="44.76919" lon="-0.28888">
        <ele>94</ele>
        <time>2012-11-18T15:37:42Z</time>
      </trkpt>
      <trkpt lat="44.76919" lon="-0.28891">
        <ele>94</ele>
        <time>2012-11-18T15:37:43Z</time>
      </trkpt>
      <trkpt lat="44.76919" lon="-0.28893">
        <ele>95</ele>
        <time>2012-11-18T15:37:44Z</time>
      </trkpt>
      <trkpt lat="44.76919" lon="-0.28896">
        <ele>95</ele>
        <time>2012-11-18T15:37:45Z</time>
      </trkpt>
      <trkpt lat="44.76919" lon="-0.28898">
        <ele>95</ele>
        <time>2012-11-18T15:37:46Z</time>
      </trkpt>
      <trkpt lat="44.76919" lon="-0.289">
        <ele>95</ele>
        <time>2012-11-18T15:37:47Z</time>
      </trkpt>
      <trkpt lat="44.76917" lon="-0.28914">
        <ele>96</ele>
        <time>2012-11-18T15:37:53Z</time>
      </trkpt>
      <trkpt lat="44.76912" lon="-0.28932">
        <ele>98</ele>
        <time>2012-11-18T15:38:02Z</time>
      </trkpt>
      <trkpt lat="44.76911" lon="-0.28951">
        <ele>99</ele>
        <time>2012-11-18T15:38:11Z</time>
      </trkpt>
      <trkpt lat="44.7691" lon="-0.28953">
        <ele>99</ele>
        <time>2012-11-18T15:38:12Z</time>
      </trkpt>
      <trkpt lat="44.7691" lon="-0.28964">
        <ele>100</ele>
        <time>2012-11-18T15:38:17Z</time>
      </trkpt>
      <trkpt lat="44.76909" lon="-0.28977">
        <ele>100</ele>
        <time>2012-11-18T15:38:22Z</time>
      </trkpt>
      <trkpt lat="44.76915" lon="-0.29008">
        <ele>101</ele>
        <time>2012-11-18T15:38:34Z</time>
      </trkpt>
      <trkpt lat="44.76915" lon="-0.29041">
        <ele>102</ele>
        <time>2012-11-18T15:38:46Z</time>
      </trkpt>
      <trkpt lat="44.76916" lon="-0.29073">
        <ele>103</ele>
        <time>2012-11-18T15:38:57Z</time>
      </trkpt>
      <trkpt lat="44.76917" lon="-0.29108">
        <ele>104</ele>
        <time>2012-11-18T15:39:09Z</time>
      </trkpt>
      <trkpt lat="44.7692" lon="-0.29128">
        <ele>105</ele>
        <time>2012-11-18T15:39:16Z</time>
      </trkpt>
      <trkpt lat="44.76925" lon="-0.29162">
        <ele>105</ele>
        <time>2012-11-18T15:39:27Z</time>
      </trkpt>
      <trkpt lat="44.76935" lon="-0.29186">
        <ele>105</ele>
        <time>2012-11-18T15:39:36Z</time>
      </trkpt>
      <trkpt lat="44.76936" lon="-0.29188">
        <ele>105</ele>
        <time>2012-11-18T15:39:37Z</time>
      </trkpt>
      <trkpt lat="44.76938" lon="-0.29189">
        <ele>105</ele>
        <time>2012-11-18T15:39:38Z</time>
      </trkpt>
      <trkpt lat="44.76939" lon="-0.29191">
        <ele>105</ele>
        <time>2012-11-18T15:39:39Z</time>
      </trkpt>
      <trkpt lat="44.7694" lon="-0.29194">
        <ele>104</ele>
        <time>2012-11-18T15:39:40Z</time>
      </trkpt>
      <trkpt lat="44.76942" lon="-0.29196">
        <ele>104</ele>
        <time>2012-11-18T15:39:48Z</time>
      </trkpt>
      <trkpt lat="44.76942" lon="-0.29196">
        <ele>104</ele>
        <time>2012-11-18T15:40:03Z</time>
      </trkpt>
      <trkpt lat="44.76942" lon="-0.29198">
        <ele>104</ele>
        <time>2012-11-18T15:40:22Z</time>
      </trkpt>
      <trkpt lat="44.76941" lon="-0.29199">
        <ele>105</ele>
        <time>2012-11-18T15:40:44Z</time>
      </trkpt>
      <trkpt lat="44.76941" lon="-0.29211">
        <ele>105</ele>
        <time>2012-11-18T15:40:56Z</time>
      </trkpt>
      <trkpt lat="44.76941" lon="-0.29238">
        <ele>105</ele>
        <time>2012-11-18T15:41:04Z</time>
      </trkpt>
      <trkpt lat="44.76942" lon="-0.29248">
        <ele>105</ele>
        <time>2012-11-18T15:41:07Z</time>
      </trkpt>
      <trkpt lat="44.76945" lon="-0.29276">
        <ele>106</ele>
        <time>2012-11-18T15:41:14Z</time>
      </trkpt>
      <trkpt lat="44.76951" lon="-0.29314">
        <ele>106</ele>
        <time>2012-11-18T15:41:22Z</time>
      </trkpt>
      <trkpt lat="44.76955" lon="-0.29331">
        <ele>106</ele>
        <time>2012-11-18T15:41:26Z</time>
      </trkpt>
      <trkpt lat="44.76955" lon="-0.29335">
        <ele>106</ele>
        <time>2012-11-18T15:41:27Z</time>
      </trkpt>
      <trkpt lat="44.76956" lon="-0.29338">
        <ele>106</ele>
        <time>2012-11-18T15:41:28Z</time>
      </trkpt>
      <trkpt lat="44.76968" lon="-0.29375">
        <ele>106</ele>
        <time>2012-11-18T15:41:36Z</time>
      </trkpt>
      <trkpt lat="44.7697" lon="-0.29384">
        <ele>106</ele>
        <time>2012-11-18T15:41:38Z</time>
      </trkpt>
      <trkpt lat="44.7697" lon="-0.29389">
        <ele>107</ele>
        <time>2012-11-18T15:41:39Z</time>
      </trkpt>
      <trkpt lat="44.7697" lon="-0.29394">
        <ele>107</ele>
        <time>2012-11-18T15:41:40Z</time>
      </trkpt>
      <trkpt lat="44.76972" lon="-0.29398">
        <ele>106</ele>
        <time>2012-11-18T15:41:41Z</time>
      </trkpt>
      <trkpt lat="44.76974" lon="-0.29404">
        <ele>106</ele>
        <time>2012-11-18T15:41:42Z</time>
      </trkpt>
      <trkpt lat="44.76976" lon="-0.29409">
        <ele>106</ele>
        <time>2012-11-18T15:41:43Z</time>
      </trkpt>
      <trkpt lat="44.76977" lon="-0.29415">
        <ele>106</ele>
        <time>2012-11-18T15:41:44Z</time>
      </trkpt>
      <trkpt lat="44.76979" lon="-0.2942">
        <ele>106</ele>
        <time>2012-11-18T15:41:45Z</time>
      </trkpt>
      <trkpt lat="44.76981" lon="-0.29425">
        <ele>106</ele>
        <time>2012-11-18T15:41:46Z</time>
      </trkpt>
      <trkpt lat="44.76983" lon="-0.2943">
        <ele>106</ele>
        <time>2012-11-18T15:41:47Z</time>
      </trkpt>
      <trkpt lat="44.76984" lon="-0.29435">
        <ele>106</ele>
        <time>2012-11-18T15:41:48Z</time>
      </trkpt>
      <trkpt lat="44.76987" lon="-0.2944">
        <ele>106</ele>
        <time>2012-11-18T15:41:49Z</time>
      </trkpt>
      <trkpt lat="44.76992" lon="-0.29451">
        <ele>106</ele>
        <time>2012-11-18T15:41:51Z</time>
      </trkpt>
      <trkpt lat="44.77" lon="-0.29478">
        <ele>105</ele>
        <time>2012-11-18T15:41:56Z</time>
      </trkpt>
      <trkpt lat="44.77007" lon="-0.29497">
        <ele>105</ele>
        <time>2012-11-18T15:41:59Z</time>
      </trkpt>
      <trkpt lat="44.77023" lon="-0.29543">
        <ele>103</ele>
        <time>2012-11-18T15:42:05Z</time>
      </trkpt>
      <trkpt lat="44.77035" lon="-0.29573">
        <ele>100</ele>
        <time>2012-11-18T15:42:11Z</time>
      </trkpt>
      <trkpt lat="44.77037" lon="-0.29576">
        <ele>100</ele>
        <time>2012-11-18T15:42:12Z</time>
      </trkpt>
      <trkpt lat="44.7704" lon="-0.29576">
        <ele>100</ele>
        <time>2012-11-18T15:42:13Z</time>
      </trkpt>
      <trkpt lat="44.77043" lon="-0.29574">
        <ele>100</ele>
        <time>2012-11-18T15:42:14Z</time>
      </trkpt>
      <trkpt lat="44.77047" lon="-0.29573">
        <ele>100</ele>
        <time>2012-11-18T15:42:15Z</time>
      </trkpt>
      <trkpt lat="44.77074" lon="-0.29557">
        <ele>102</ele>
        <time>2012-11-18T15:42:25Z</time>
      </trkpt>
      <trkpt lat="44.77104" lon="-0.2955">
        <ele>102</ele>
        <time>2012-11-18T15:42:34Z</time>
      </trkpt>
      <trkpt lat="44.77125" lon="-0.29546">
        <ele>103</ele>
        <time>2012-11-18T15:42:41Z</time>
      </trkpt>
      <trkpt lat="44.77157" lon="-0.29534">
        <ele>104</ele>
        <time>2012-11-18T15:42:51Z</time>
      </trkpt>
      <trkpt lat="44.77183" lon="-0.29532">
        <ele>104</ele>
        <time>2012-11-18T15:42:59Z</time>
      </trkpt>
      <trkpt lat="44.77221" lon="-0.29542">
        <ele>103</ele>
        <time>2012-11-18T15:43:10Z</time>
      </trkpt>
      <trkpt lat="44.77248" lon="-0.29547">
        <ele>103</ele>
        <time>2012-11-18T15:43:19Z</time>
      </trkpt>
      <trkpt lat="44.77272" lon="-0.29556">
        <ele>104</ele>
        <time>2012-11-18T15:43:29Z</time>
      </trkpt>
      <trkpt lat="44.77278" lon="-0.29562">
        <ele>103</ele>
        <time>2012-11-18T15:43:31Z</time>
      </trkpt>
      <trkpt lat="44.77274" lon="-0.29591">
        <ele>102</ele>
        <time>2012-11-18T15:43:36Z</time>
      </trkpt>
      <trkpt lat="44.77267" lon="-0.29611">
        <ele>101</ele>
        <time>2012-11-18T15:43:39Z</time>
      </trkpt>
      <trkpt lat="44.77244" lon="-0.2968">
        <ele>95</ele>
        <time>2012-11-18T15:43:47Z</time>
      </trkpt>
      <trkpt lat="44.77217" lon="-0.2974">
        <ele>90</ele>
        <time>2012-11-18T15:43:54Z</time>
      </trkpt>
      <trkpt lat="44.77189" lon="-0.2983">
        <ele>86</ele>
        <time>2012-11-18T15:44:04Z</time>
      </trkpt>
      <trkpt lat="44.77189" lon="-0.29836">
        <ele>86</ele>
        <time>2012-11-18T15:44:05Z</time>
      </trkpt>
      <trkpt lat="44.77189" lon="-0.29842">
        <ele>86</ele>
        <time>2012-11-18T15:44:06Z</time>
      </trkpt>
      <trkpt lat="44.77194" lon="-0.29878">
        <ele>85</ele>
        <time>2012-11-18T15:44:14Z</time>
      </trkpt>
      <trkpt lat="44.77193" lon="-0.2988">
        <ele>85</ele>
        <time>2012-11-18T15:44:15Z</time>
      </trkpt>
      <trkpt lat="44.77191" lon="-0.29887">
        <ele>84</ele>
        <time>2012-11-18T15:44:18Z</time>
      </trkpt>
      <trkpt lat="44.77196" lon="-0.29908">
        <ele>84</ele>
        <time>2012-11-18T15:44:26Z</time>
      </trkpt>
      <trkpt lat="44.77222" lon="-0.29952">
        <ele>84</ele>
        <time>2012-11-18T15:44:39Z</time>
      </trkpt>
      <trkpt lat="44.7724" lon="-0.29975">
        <ele>84</ele>
        <time>2012-11-18T15:44:46Z</time>
      </trkpt>
      <trkpt lat="44.77267" lon="-0.30018">
        <ele>85</ele>
        <time>2012-11-18T15:44:56Z</time>
      </trkpt>
      <trkpt lat="44.77283" lon="-0.30046">
        <ele>84</ele>
        <time>2012-11-18T15:45:02Z</time>
      </trkpt>
      <trkpt lat="44.77289" lon="-0.30056">
        <ele>84</ele>
        <time>2012-11-18T15:45:04Z</time>
      </trkpt>
      <trkpt lat="44.77302" lon="-0.30079">
        <ele>84</ele>
        <time>2012-11-18T15:45:09Z</time>
      </trkpt>
      <trkpt lat="44.77328" lon="-0.30123">
        <ele>84</ele>
        <time>2012-11-18T15:45:18Z</time>
      </trkpt>
      <trkpt lat="44.77341" lon="-0.30141">
        <ele>83</ele>
        <time>2012-11-18T15:45:22Z</time>
      </trkpt>
      <trkpt lat="44.77359" lon="-0.30167">
        <ele>83</ele>
        <time>2012-11-18T15:45:28Z</time>
      </trkpt>
      <trkpt lat="44.77362" lon="-0.30172">
        <ele>83</ele>
        <time>2012-11-18T15:45:29Z</time>
      </trkpt>
      <trkpt lat="44.77386" lon="-0.30207">
        <ele>83</ele>
        <time>2012-11-18T15:45:39Z</time>
      </trkpt>
      <trkpt lat="44.77401" lon="-0.30227">
        <ele>83</ele>
        <time>2012-11-18T15:45:49Z</time>
      </trkpt>
      <trkpt lat="44.77421" lon="-0.3026">
        <ele>82</ele>
        <time>2012-11-18T15:45:57Z</time>
      </trkpt>
      <trkpt lat="44.77459" lon="-0.30317">
        <ele>80</ele>
        <time>2012-11-18T15:46:07Z</time>
      </trkpt>
      <trkpt lat="44.77512" lon="-0.30401">
        <ele>79</ele>
        <time>2012-11-18T15:46:21Z</time>
      </trkpt>
      <trkpt lat="44.77556" lon="-0.30471">
        <ele>79</ele>
        <time>2012-11-18T15:46:33Z</time>
      </trkpt>
      <trkpt lat="44.77595" lon="-0.30531">
        <ele>79</ele>
        <time>2012-11-18T15:46:43Z</time>
      </trkpt>
      <trkpt lat="44.77644" lon="-0.30602">
        <ele>78</ele>
        <time>2012-11-18T15:46:55Z</time>
      </trkpt>
      <trkpt lat="44.77674" lon="-0.3065">
        <ele>79</ele>
        <time>2012-11-18T15:47:03Z</time>
      </trkpt>
      <trkpt lat="44.77715" lon="-0.30726">
        <ele>81</ele>
        <time>2012-11-18T15:47:15Z</time>
      </trkpt>
      <trkpt lat="44.77729" lon="-0.3076">
        <ele>82</ele>
        <time>2012-11-18T15:47:21Z</time>
      </trkpt>
      <trkpt lat="44.77729" lon="-0.30763">
        <ele>82</ele>
        <time>2012-11-18T15:47:22Z</time>
      </trkpt>
      <trkpt lat="44.77728" lon="-0.30767">
        <ele>82</ele>
        <time>2012-11-18T15:47:23Z</time>
      </trkpt>
      <trkpt lat="44.77727" lon="-0.30769">
        <ele>82</ele>
        <time>2012-11-18T15:47:24Z</time>
      </trkpt>
      <trkpt lat="44.77725" lon="-0.30771">
        <ele>81</ele>
        <time>2012-11-18T15:47:25Z</time>
      </trkpt>
      <trkpt lat="44.77701" lon="-0.3079">
        <ele>81</ele>
        <time>2012-11-18T15:47:34Z</time>
      </trkpt>
      <trkpt lat="44.77672" lon="-0.30813">
        <ele>82</ele>
        <time>2012-11-18T15:47:43Z</time>
      </trkpt>
      <trkpt lat="44.77669" lon="-0.30817">
        <ele>82</ele>
        <time>2012-11-18T15:47:44Z</time>
      </trkpt>
      <trkpt lat="44.77665" lon="-0.3082">
        <ele>82</ele>
        <time>2012-11-18T15:47:45Z</time>
      </trkpt>
      <trkpt lat="44.77662" lon="-0.30823">
        <ele>82</ele>
        <time>2012-11-18T15:47:46Z</time>
      </trkpt>
      <trkpt lat="44.77658" lon="-0.30826">
        <ele>82</ele>
        <time>2012-11-18T15:47:47Z</time>
      </trkpt>
      <trkpt lat="44.77643" lon="-0.30842">
        <ele>81</ele>
        <time>2012-11-18T15:47:51Z</time>
      </trkpt>
      <trkpt lat="44.77624" lon="-0.30861">
        <ele>80</ele>
        <time>2012-11-18T15:47:55Z</time>
      </trkpt>
      <trkpt lat="44.77561" lon="-0.30913">
        <ele>77</ele>
        <time>2012-11-18T15:48:04Z</time>
      </trkpt>
      <trkpt lat="44.77495" lon="-0.30966">
        <ele>77</ele>
        <time>2012-11-18T15:48:14Z</time>
      </trkpt>
      <trkpt lat="44.77476" lon="-0.30978">
        <ele>77</ele>
        <time>2012-11-18T15:48:17Z</time>
      </trkpt>
      <trkpt lat="44.77469" lon="-0.30981">
        <ele>76</ele>
        <time>2012-11-18T15:48:18Z</time>
      </trkpt>
      <trkpt lat="44.77461" lon="-0.30982">
        <ele>76</ele>
        <time>2012-11-18T15:48:19Z</time>
      </trkpt>
      <trkpt lat="44.77377" lon="-0.30987">
        <ele>70</ele>
        <time>2012-11-18T15:48:29Z</time>
      </trkpt>
      <trkpt lat="44.7737" lon="-0.3099">
        <ele>70</ele>
        <time>2012-11-18T15:48:30Z</time>
      </trkpt>
      <trkpt lat="44.77363" lon="-0.30995">
        <ele>70</ele>
        <time>2012-11-18T15:48:31Z</time>
      </trkpt>
      <trkpt lat="44.77358" lon="-0.31001">
        <ele>69</ele>
        <time>2012-11-18T15:48:32Z</time>
      </trkpt>
      <trkpt lat="44.77353" lon="-0.31008">
        <ele>69</ele>
        <time>2012-11-18T15:48:33Z</time>
      </trkpt>
      <trkpt lat="44.77349" lon="-0.31016">
        <ele>69</ele>
        <time>2012-11-18T15:48:34Z</time>
      </trkpt>
      <trkpt lat="44.77316" lon="-0.31082">
        <ele>69</ele>
        <time>2012-11-18T15:48:42Z</time>
      </trkpt>
      <trkpt lat="44.77285" lon="-0.3114">
        <ele>67</ele>
        <time>2012-11-18T15:48:49Z</time>
      </trkpt>
      <trkpt lat="44.77275" lon="-0.31154">
        <ele>66</ele>
        <time>2012-11-18T15:48:51Z</time>
      </trkpt>
      <trkpt lat="44.77269" lon="-0.31159">
        <ele>66</ele>
        <time>2012-11-18T15:48:52Z</time>
      </trkpt>
      <trkpt lat="44.77262" lon="-0.31162">
        <ele>66</ele>
        <time>2012-11-18T15:48:53Z</time>
      </trkpt>
      <trkpt lat="44.77255" lon="-0.31163">
        <ele>66</ele>
        <time>2012-11-18T15:48:54Z</time>
      </trkpt>
      <trkpt lat="44.77248" lon="-0.31163">
        <ele>66</ele>
        <time>2012-11-18T15:48:55Z</time>
      </trkpt>
      <trkpt lat="44.77241" lon="-0.31162">
        <ele>66</ele>
        <time>2012-11-18T15:48:56Z</time>
      </trkpt>
      <trkpt lat="44.77234" lon="-0.31159">
        <ele>66</ele>
        <time>2012-11-18T15:48:57Z</time>
      </trkpt>
      <trkpt lat="44.77227" lon="-0.31157">
        <ele>67</ele>
        <time>2012-11-18T15:48:58Z</time>
      </trkpt>
      <trkpt lat="44.77202" lon="-0.31143">
        <ele>68</ele>
        <time>2012-11-18T15:49:02Z</time>
      </trkpt>
      <trkpt lat="44.7716" lon="-0.31116">
        <ele>70</ele>
        <time>2012-11-18T15:49:11Z</time>
      </trkpt>
      <trkpt lat="44.77121" lon="-0.31088">
        <ele>72</ele>
        <time>2012-11-18T15:49:23Z</time>
      </trkpt>
      <trkpt lat="44.77074" lon="-0.31052">
        <ele>76</ele>
        <time>2012-11-18T15:49:39Z</time>
      </trkpt>
      <trkpt lat="44.77055" lon="-0.31036">
        <ele>78</ele>
        <time>2012-11-18T15:49:47Z</time>
      </trkpt>
      <trkpt lat="44.77045" lon="-0.31029">
        <ele>79</ele>
        <time>2012-11-18T15:49:53Z</time>
      </trkpt>
      <trkpt lat="44.77044" lon="-0.31028">
        <ele>79</ele>
        <time>2012-11-18T15:49:54Z</time>
      </trkpt>
      <trkpt lat="44.77025" lon="-0.31015">
        <ele>79</ele>
        <time>2012-11-18T15:50:05Z</time>
      </trkpt>
      <trkpt lat="44.77022" lon="-0.31013">
        <ele>80</ele>
        <time>2012-11-18T15:50:09Z</time>
      </trkpt>
      <trkpt lat="44.77021" lon="-0.31011">
        <ele>80</ele>
        <time>2012-11-18T15:50:10Z</time>
      </trkpt>
      <trkpt lat="44.77021" lon="-0.31009">
        <ele>80</ele>
        <time>2012-11-18T15:50:11Z</time>
      </trkpt>
      <trkpt lat="44.7702" lon="-0.31007">
        <ele>80</ele>
        <time>2012-11-18T15:50:12Z</time>
      </trkpt>
      <trkpt lat="44.77019" lon="-0.31006">
        <ele>80</ele>
        <time>2012-11-18T15:50:13Z</time>
      </trkpt>
      <trkpt lat="44.77017" lon="-0.31005">
        <ele>80</ele>
        <time>2012-11-18T15:50:14Z</time>
      </trkpt>
      <trkpt lat="44.77015" lon="-0.31004">
        <ele>80</ele>
        <time>2012-11-18T15:50:18Z</time>
      </trkpt>
      <trkpt lat="44.77014" lon="-0.31005">
        <ele>80</ele>
        <time>2012-11-18T15:50:19Z</time>
      </trkpt>
      <trkpt lat="44.77012" lon="-0.31006">
        <ele>80</ele>
        <time>2012-11-18T15:50:20Z</time>
      </trkpt>
      <trkpt lat="44.77011" lon="-0.31007">
        <ele>80</ele>
        <time>2012-11-18T15:50:21Z</time>
      </trkpt>
      <trkpt lat="44.7701" lon="-0.31009">
        <ele>80</ele>
        <time>2012-11-18T15:50:22Z</time>
      </trkpt>
      <trkpt lat="44.77009" lon="-0.31012">
        <ele>80</ele>
        <time>2012-11-18T15:50:23Z</time>
      </trkpt>
      <trkpt lat="44.77008" lon="-0.31014">
        <ele>80</ele>
        <time>2012-11-18T15:50:24Z</time>
      </trkpt>
      <trkpt lat="44.77007" lon="-0.31015">
        <ele>81</ele>
        <time>2012-11-18T15:50:25Z</time>
      </trkpt>
      <trkpt lat="44.77005" lon="-0.31017">
        <ele>81</ele>
        <time>2012-11-18T15:50:26Z</time>
      </trkpt>
      <trkpt lat="44.76989" lon="-0.3104">
        <ele>82</ele>
        <time>2012-11-18T15:50:34Z</time>
      </trkpt>
      <trkpt lat="44.76985" lon="-0.31045">
        <ele>82</ele>
        <time>2012-11-18T15:50:36Z</time>
      </trkpt>
      <trkpt lat="44.76983" lon="-0.31048">
        <ele>82</ele>
        <time>2012-11-18T15:50:37Z</time>
      </trkpt>
      <trkpt lat="44.7698" lon="-0.3105">
        <ele>82</ele>
        <time>2012-11-18T15:50:38Z</time>
      </trkpt>
      <trkpt lat="44.76978" lon="-0.31053">
        <ele>82</ele>
        <time>2012-11-18T15:50:39Z</time>
      </trkpt>
      <trkpt lat="44.76976" lon="-0.31056">
        <ele>82</ele>
        <time>2012-11-18T15:50:40Z</time>
      </trkpt>
      <trkpt lat="44.76973" lon="-0.31058">
        <ele>83</ele>
        <time>2012-11-18T15:50:41Z</time>
      </trkpt>
      <trkpt lat="44.7695" lon="-0.31091">
        <ele>85</ele>
        <time>2012-11-18T15:50:52Z</time>
      </trkpt>
      <trkpt lat="44.76938" lon="-0.31103">
        <ele>87</ele>
        <time>2012-11-18T15:50:59Z</time>
      </trkpt>
      <trkpt lat="44.76935" lon="-0.31101">
        <ele>88</ele>
        <time>2012-11-18T15:51:02Z</time>
      </trkpt>
      <trkpt lat="44.76929" lon="-0.31095">
        <ele>89</ele>
        <time>2012-11-18T15:51:08Z</time>
      </trkpt>
      <trkpt lat="44.76928" lon="-0.31095">
        <ele>89</ele>
        <time>2012-11-18T15:51:09Z</time>
      </trkpt>
      <trkpt lat="44.7691" lon="-0.31081">
        <ele>90</ele>
        <time>2012-11-18T15:51:19Z</time>
      </trkpt>
      <trkpt lat="44.76887" lon="-0.31065">
        <ele>92</ele>
        <time>2012-11-18T15:51:29Z</time>
      </trkpt>
      <trkpt lat="44.76874" lon="-0.31053">
        <ele>92</ele>
        <time>2012-11-18T15:51:40Z</time>
      </trkpt>
      <trkpt lat="44.76872" lon="-0.31051">
        <ele>92</ele>
        <time>2012-11-18T15:51:48Z</time>
      </trkpt>
      <trkpt lat="44.76865" lon="-0.31046">
        <ele>92</ele>
        <time>2012-11-18T15:51:54Z</time>
      </trkpt>
      <trkpt lat="44.76855" lon="-0.3104">
        <ele>92</ele>
        <time>2012-11-18T15:52:00Z</time>
      </trkpt>
      <trkpt lat="44.76854" lon="-0.3104">
        <ele>92</ele>
        <time>2012-11-18T15:52:01Z</time>
      </trkpt>
      <trkpt lat="44.76835" lon="-0.31027">
        <ele>92</ele>
        <time>2012-11-18T15:52:12Z</time>
      </trkpt>
      <trkpt lat="44.76811" lon="-0.3101">
        <ele>93</ele>
        <time>2012-11-18T15:52:22Z</time>
      </trkpt>
      <trkpt lat="44.76782" lon="-0.30991">
        <ele>94</ele>
        <time>2012-11-18T15:52:34Z</time>
      </trkpt>
      <trkpt lat="44.7678" lon="-0.30991">
        <ele>94</ele>
        <time>2012-11-18T15:52:35Z</time>
      </trkpt>
      <trkpt lat="44.76777" lon="-0.30993">
        <ele>94</ele>
        <time>2012-11-18T15:52:36Z</time>
      </trkpt>
      <trkpt lat="44.76775" lon="-0.30996">
        <ele>95</ele>
        <time>2012-11-18T15:52:37Z</time>
      </trkpt>
      <trkpt lat="44.76774" lon="-0.30999">
        <ele>95</ele>
        <time>2012-11-18T15:52:38Z</time>
      </trkpt>
      <trkpt lat="44.76774" lon="-0.31002">
        <ele>95</ele>
        <time>2012-11-18T15:52:39Z</time>
      </trkpt>
      <trkpt lat="44.76766" lon="-0.31046">
        <ele>98</ele>
        <time>2012-11-18T15:52:52Z</time>
      </trkpt>
      <trkpt lat="44.7676" lon="-0.31076">
        <ele>100</ele>
        <time>2012-11-18T15:53:01Z</time>
      </trkpt>
      <trkpt lat="44.76751" lon="-0.31109">
        <ele>101</ele>
        <time>2012-11-18T15:53:12Z</time>
      </trkpt>
      <trkpt lat="44.76747" lon="-0.31113">
        <ele>102</ele>
        <time>2012-11-18T15:53:15Z</time>
      </trkpt>
      <trkpt lat="44.76746" lon="-0.31129">
        <ele>102</ele>
        <time>2012-11-18T15:53:23Z</time>
      </trkpt>
      <trkpt lat="44.76748" lon="-0.31148">
        <ele>102</ele>
        <time>2012-11-18T15:53:30Z</time>
      </trkpt>
      <trkpt lat="44.7674" lon="-0.31197">
        <ele>100</ele>
        <time>2012-11-18T15:53:42Z</time>
      </trkpt>
      <trkpt lat="44.76746" lon="-0.31227">
        <ele>99</ele>
        <time>2012-11-18T15:53:49Z</time>
      </trkpt>
      <trkpt lat="44.76742" lon="-0.31261">
        <ele>99</ele>
        <time>2012-11-18T15:53:57Z</time>
      </trkpt>
      <trkpt lat="44.76739" lon="-0.3127">
        <ele>99</ele>
        <time>2012-11-18T15:54:00Z</time>
      </trkpt>
      <trkpt lat="44.76717" lon="-0.3127">
        <ele>100</ele>
        <time>2012-11-18T15:54:08Z</time>
      </trkpt>
      <trkpt lat="44.76684" lon="-0.31268">
        <ele>102</ele>
        <time>2012-11-18T15:54:19Z</time>
      </trkpt>
      <trkpt lat="44.76653" lon="-0.31264">
        <ele>104</ele>
        <time>2012-11-18T15:54:29Z</time>
      </trkpt>
      <trkpt lat="44.76628" lon="-0.31265">
        <ele>104</ele>
        <time>2012-11-18T15:54:38Z</time>
      </trkpt>
      <trkpt lat="44.76607" lon="-0.3127">
        <ele>105</ele>
        <time>2012-11-18T15:54:47Z</time>
      </trkpt>
      <trkpt lat="44.76577" lon="-0.31286">
        <ele>106</ele>
        <time>2012-11-18T15:54:59Z</time>
      </trkpt>
      <trkpt lat="44.76546" lon="-0.31303">
        <ele>106</ele>
        <time>2012-11-18T15:55:09Z</time>
      </trkpt>
      <trkpt lat="44.7653" lon="-0.31331">
        <ele>107</ele>
        <time>2012-11-18T15:55:17Z</time>
      </trkpt>
      <trkpt lat="44.76528" lon="-0.31373">
        <ele>107</ele>
        <time>2012-11-18T15:55:25Z</time>
      </trkpt>
      <trkpt lat="44.76527" lon="-0.31401">
        <ele>106</ele>
        <time>2012-11-18T15:55:35Z</time>
      </trkpt>
      <trkpt lat="44.76527" lon="-0.31403">
        <ele>106</ele>
        <time>2012-11-18T15:55:37Z</time>
      </trkpt>
      <trkpt lat="44.76526" lon="-0.31428">
        <ele>106</ele>
        <time>2012-11-18T15:55:47Z</time>
      </trkpt>
      <trkpt lat="44.76519" lon="-0.31478">
        <ele>106</ele>
        <time>2012-11-18T15:55:57Z</time>
      </trkpt>
      <trkpt lat="44.7651" lon="-0.31504">
        <ele>105</ele>
        <time>2012-11-18T15:56:04Z</time>
      </trkpt>
      <trkpt lat="44.76818" lon="-0.31709">
        <ele>101</ele>
        <time>2012-11-18T15:56:09Z</time>
      </trkpt>
      <trkpt lat="44.76776" lon="-0.31758">
        <ele>96</ele>
        <time>2012-11-18T15:56:18Z</time>
      </trkpt>
      <trkpt lat="44.76741" lon="-0.31834">
        <ele>84</ele>
        <time>2012-11-18T15:56:28Z</time>
      </trkpt>
      <trkpt lat="44.76702" lon="-0.31848">
        <ele>82</ele>
        <time>2012-11-18T15:56:41Z</time>
      </trkpt>
      <trkpt lat="44.76681" lon="-0.31877">
        <ele>80</ele>
        <time>2012-11-18T15:56:51Z</time>
      </trkpt>
      <trkpt lat="44.76655" lon="-0.32">
        <ele>88</ele>
        <time>2012-11-18T15:57:01Z</time>
      </trkpt>
      <trkpt lat="44.76605" lon="-0.3202">
        <ele>94</ele>
      </trkpt>
      <trkpt lat="44.76551" lon="-0.3202">
        <ele>98</ele>
        <time>2012-11-18T15:57:03Z</time>
      </trkpt>
      <trkpt lat="44.76526" lon="-0.32097">
        <ele>103</ele>
        <time>2012-11-18T15:57:04Z</time>
      </trkpt>
      <trkpt lat="44.76443" lon="-0.32107">
        <ele>102</ele>
        <time>2012-11-18T15:57:17Z</time>
      </trkpt>
      <trkpt lat="44.76364" lon="-0.32075">
        <ele>104</ele>
        <time>2012-11-18T15:57:28Z</time>
      </trkpt>
      <trkpt lat="44.76356" lon="-0.32089">
        <ele>104</ele>
        <time>2012-11-18T15:57:40Z</time>
      </trkpt>
      <trkpt lat="44.76348" lon="-0.32241">
        <ele>100</ele>
        <time>2012-11-18T15:57:47Z</time>
      </trkpt>
      <trkpt lat="44.76242" lon="-0.32249">
        <ele>103</ele>
        <time>2012-11-18T15:57:48Z</time>
      </trkpt>
      <trkpt lat="44.76237" lon="-0.3228">
        <ele>101</ele>
        <time>2012-11-18T15:57:49Z</time>
      </trkpt>
      <trkpt lat="44.76198" lon="-0.32406">
        <ele>98</ele>
        <time>2012-11-18T15:57:50Z</time>
      </trkpt>
      <trkpt lat="44.76048" lon="-0.32664">
        <ele>107</ele>
        <time>2012-11-18T15:57:51Z</time>
      </trkpt>
      <trkpt lat="44.7605" lon="-0.32767">
        <ele>106</ele>
        <time>2012-11-18T15:57:52Z</time>
      </trkpt>
      <trkpt lat="44.76045" lon="-0.32862">
        <ele>106</ele>
        <time>2012-11-18T15:57:55Z</time>
      </trkpt>
      <trkpt lat="44.76039" lon="-0.32893">
        <ele>106</ele>
        <time>2012-11-18T15:57:57Z</time>
      </trkpt>
      <trkpt lat="44.75958" lon="-0.3287">
        <ele>106</ele>
        <time>2012-11-18T15:57:58Z</time>
      </trkpt>
      <trkpt lat="44.7595" lon="-0.32876">
        <ele>107</ele>
        <time>2012-11-18T15:58:11Z</time>
      </trkpt>
      <trkpt lat="44.7595" lon="-0.32957">
        <ele>106</ele>
        <time>2012-11-18T15:58:24Z</time>
      </trkpt>
      <trkpt lat="44.75873" lon="-0.32934">
        <ele>107</ele>
        <time>2012-11-18T15:58:34Z</time>
      </trkpt>
      <trkpt lat="44.75821" lon="-0.32933">
        <ele>107</ele>
        <time>2012-11-18T15:58:42Z</time>
      </trkpt>
      <trkpt lat="44.75814" lon="-0.32935">
        <ele>107</ele>
        <time>2012-11-18T16:01:46Z</time>
      </trkpt>
      <trkpt lat="44.75816" lon="-0.3294">
        <ele>107</ele>
        <time>2012-11-18T16:01:47Z</time>
      </trkpt>
      <trkpt lat="44.75817" lon="-0.32947">
        <ele>107</ele>
        <time>2012-11-18T16:01:48Z</time>
      </trkpt>
      <trkpt lat="44.75818" lon="-0.32953">
        <ele>107</ele>
        <time>2012-11-18T16:01:49Z</time>
      </trkpt>
      <trkpt lat="44.75831" lon="-0.3302">
        <ele>107</ele>
        <time>2012-11-18T16:02:01Z</time>
      </trkpt>
      <trkpt lat="44.75834" lon="-0.33029">
        <ele>106</ele>
        <time>2012-11-18T16:02:03Z</time>
      </trkpt>
      <trkpt lat="44.75837" lon="-0.33033">
        <ele>106</ele>
        <time>2012-11-18T16:02:04Z</time>
      </trkpt>
      <trkpt lat="44.7584" lon="-0.33037">
        <ele>106</ele>
        <time>2012-11-18T16:02:05Z</time>
      </trkpt>
      <trkpt lat="44.75844" lon="-0.3304">
        <ele>106</ele>
        <time>2012-11-18T16:02:06Z</time>
      </trkpt>
      <trkpt lat="44.75849" lon="-0.33042">
        <ele>106</ele>
        <time>2012-11-18T16:02:07Z</time>
      </trkpt>
      <trkpt lat="44.75853" lon="-0.33045">
        <ele>106</ele>
        <time>2012-11-18T16:02:08Z</time>
      </trkpt>
      <trkpt lat="44.75857" lon="-0.33049">
        <ele>106</ele>
        <time>2012-11-18T16:02:09Z</time>
      </trkpt>
      <trkpt lat="44.75865" lon="-0.33056">
        <ele>106</ele>
        <time>2012-11-18T16:02:11Z</time>
      </trkpt>
      <trkpt lat="44.7587" lon="-0.33061">
        <ele>106</ele>
        <time>2012-11-18T16:02:12Z</time>
      </trkpt>
      <trkpt lat="44.7591" lon="-0.33118">
        <ele>106</ele>
        <time>2012-11-18T16:02:21Z</time>
      </trkpt>
      <trkpt lat="44.75913" lon="-0.33126">
        <ele>106</ele>
        <time>2012-11-18T16:02:22Z</time>
      </trkpt>
      <trkpt lat="44.75916" lon="-0.33135">
        <ele>106</ele>
        <time>2012-11-18T16:02:23Z</time>
      </trkpt>
      <trkpt lat="44.75934" lon="-0.33197">
        <ele>105</ele>
        <time>2012-11-18T16:02:31Z</time>
      </trkpt>
      <trkpt lat="44.75955" lon="-0.33274">
        <ele>105</ele>
        <time>2012-11-18T16:02:40Z</time>
      </trkpt>
      <trkpt lat="44.75956" lon="-0.33284">
        <ele>105</ele>
        <time>2012-11-18T16:02:41Z</time>
      </trkpt>
      <trkpt lat="44.75956" lon="-0.33295">
        <ele>105</ele>
        <time>2012-11-18T16:02:42Z</time>
      </trkpt>
      <trkpt lat="44.75956" lon="-0.33305">
        <ele>105</ele>
        <time>2012-11-18T16:02:43Z</time>
      </trkpt>
      <trkpt lat="44.75957" lon="-0.33391">
        <ele>104</ele>
        <time>2012-11-18T16:02:52Z</time>
      </trkpt>
      <trkpt lat="44.75955" lon="-0.3349">
        <ele>101</ele>
        <time>2012-11-18T16:03:03Z</time>
      </trkpt>
      <trkpt lat="44.75946" lon="-0.33582">
        <ele>101</ele>
        <time>2012-11-18T16:03:13Z</time>
      </trkpt>
      <trkpt lat="44.75945" lon="-0.33617">
        <ele>100</ele>
        <time>2012-11-18T16:03:17Z</time>
      </trkpt>
      <trkpt lat="44.75941" lon="-0.33667">
        <ele>99</ele>
        <time>2012-11-18T16:03:24Z</time>
      </trkpt>
      <trkpt lat="44.75937" lon="-0.33713">
        <ele>98</ele>
        <time>2012-11-18T16:03:33Z</time>
      </trkpt>
      <trkpt lat="44.75943" lon="-0.33732">
        <ele>98</ele>
        <time>2012-11-18T16:03:39Z</time>
      </trkpt>
      <trkpt lat="44.75939" lon="-0.33755">
        <ele>97</ele>
        <time>2012-11-18T16:03:47Z</time>
      </trkpt>
      <trkpt lat="44.75934" lon="-0.33765">
        <ele>97</ele>
        <time>2012-11-18T16:03:58Z</time>
      </trkpt>
      <trkpt lat="44.75932" lon="-0.33767">
        <ele>97</ele>
        <time>2012-11-18T16:04:17Z</time>
      </trkpt>
      <trkpt lat="44.75932" lon="-0.33767">
        <ele>97</ele>
        <time>2012-11-18T16:04:33Z</time>
      </trkpt>
      <trkpt lat="44.75932" lon="-0.33767">
        <ele>97</ele>
        <time>2012-11-18T16:04:52Z</time>
      </trkpt>
      <trkpt lat="44.75918" lon="-0.3376">
        <ele>96</ele>
        <time>2012-11-18T16:04:59Z</time>
      </trkpt>
      <trkpt lat="44.7591" lon="-0.33758">
        <ele>96</ele>
        <time>2012-11-18T16:05:01Z</time>
      </trkpt>
      <trkpt lat="44.75891" lon="-0.33762">
        <ele>93</ele>
        <time>2012-11-18T16:05:06Z</time>
      </trkpt>
      <trkpt lat="44.75863" lon="-0.33772">
        <ele>88</ele>
        <time>2012-11-18T16:05:12Z</time>
      </trkpt>
      <trkpt lat="44.75839" lon="-0.33783">
        <ele>83</ele>
        <time>2012-11-18T16:05:17Z</time>
      </trkpt>
      <trkpt lat="44.7582" lon="-0.33787">
        <ele>80</ele>
        <time>2012-11-18T16:05:21Z</time>
      </trkpt>
      <trkpt lat="44.75804" lon="-0.33797">
        <ele>78</ele>
        <time>2012-11-18T16:05:27Z</time>
      </trkpt>
      <trkpt lat="44.75803" lon="-0.33814">
        <ele>77</ele>
        <time>2012-11-18T16:05:30Z</time>
      </trkpt>
      <trkpt lat="44.75797" lon="-0.33864">
        <ele>76</ele>
        <time>2012-11-18T16:05:39Z</time>
      </trkpt>
      <trkpt lat="44.75791" lon="-0.33894">
        <ele>74</ele>
        <time>2012-11-18T16:05:46Z</time>
      </trkpt>
      <trkpt lat="44.7579" lon="-0.33903">
        <ele>74</ele>
        <time>2012-11-18T16:05:48Z</time>
      </trkpt>
      <trkpt lat="44.75783" lon="-0.33936">
        <ele>73</ele>
        <time>2012-11-18T16:05:56Z</time>
      </trkpt>
      <trkpt lat="44.7578" lon="-0.33958">
        <ele>72</ele>
        <time>2012-11-18T16:06:01Z</time>
      </trkpt>
      <trkpt lat="44.75776" lon="-0.33983">
        <ele>71</ele>
        <time>2012-11-18T16:06:06Z</time>
      </trkpt>
      <trkpt lat="44.75779" lon="-0.34018">
        <ele>71</ele>
        <time>2012-11-18T16:06:15Z</time>
      </trkpt>
      <trkpt lat="44.75777" lon="-0.34054">
        <ele>70</ele>
        <time>2012-11-18T16:06:23Z</time>
      </trkpt>
      <trkpt lat="44.75779" lon="-0.34084">
        <ele>69</ele>
        <time>2012-11-18T16:06:29Z</time>
      </trkpt>
      <trkpt lat="44.7578" lon="-0.34107">
        <ele>68</ele>
        <time>2012-11-18T16:06:36Z</time>
      </trkpt>
      <trkpt lat="44.75783" lon="-0.34117">
        <ele>68</ele>
        <time>2012-11-18T16:06:38Z</time>
      </trkpt>
      <trkpt lat="44.7579" lon="-0.34143">
        <ele>67</ele>
        <time>2012-11-18T16:06:44Z</time>
      </trkpt>
      <trkpt lat="44.75792" lon="-0.34175">
        <ele>66</ele>
        <time>2012-11-18T16:06:51Z</time>
      </trkpt>
      <trkpt lat="44.75792" lon="-0.34186">
        <ele>66</ele>
        <time>2012-11-18T16:06:54Z</time>
      </trkpt>
      <trkpt lat="44.75793" lon="-0.34207">
        <ele>66</ele>
        <time>2012-11-18T16:07:01Z</time>
      </trkpt>
      <trkpt lat="44.75793" lon="-0.34225">
        <ele>65</ele>
        <time>2012-11-18T16:07:07Z</time>
      </trkpt>
      <trkpt lat="44.75796" lon="-0.34239">
        <ele>66</ele>
        <time>2012-11-18T16:07:14Z</time>
      </trkpt>
      <trkpt lat="44.75797" lon="-0.34245">
        <ele>66</ele>
        <time>2012-11-18T16:07:16Z</time>
      </trkpt>
      <trkpt lat="44.758" lon="-0.34263">
        <ele>66</ele>
        <time>2012-11-18T16:07:20Z</time>
      </trkpt>
      <trkpt lat="44.75802" lon="-0.34303">
        <ele>68</ele>
        <time>2012-11-18T16:07:31Z</time>
      </trkpt>
      <trkpt lat="44.758" lon="-0.34334">
        <ele>69</ele>
        <time>2012-11-18T16:07:38Z</time>
      </trkpt>
      <trkpt lat="44.75796" lon="-0.34358">
        <ele>67</ele>
        <time>2012-11-18T16:07:43Z</time>
      </trkpt>
      <trkpt lat="44.75791" lon="-0.34376">
        <ele>66</ele>
        <time>2012-11-18T16:07:47Z</time>
      </trkpt>
      <trkpt lat="44.75786" lon="-0.34413">
        <ele>64</ele>
        <time>2012-11-18T16:07:55Z</time>
      </trkpt>
      <trkpt lat="44.75785" lon="-0.3443">
        <ele>63</ele>
        <time>2012-11-18T16:07:59Z</time>
      </trkpt>
      <trkpt lat="44.75784" lon="-0.3446">
        <ele>63</ele>
        <time>2012-11-18T16:08:05Z</time>
      </trkpt>
      <trkpt lat="44.75781" lon="-0.34482">
        <ele>62</ele>
        <time>2012-11-18T16:08:08Z</time>
      </trkpt>
      <trkpt lat="44.75783" lon="-0.34526">
        <ele>61</ele>
        <time>2012-11-18T16:08:15Z</time>
      </trkpt>
      <trkpt lat="44.75793" lon="-0.34561">
        <ele>61</ele>
        <time>2012-11-18T16:08:25Z</time>
      </trkpt>
      <trkpt lat="44.75801" lon="-0.34585">
        <ele>60</ele>
        <time>2012-11-18T16:08:34Z</time>
      </trkpt>
      <trkpt lat="44.75797" lon="-0.34597">
        <ele>60</ele>
        <time>2012-11-18T16:08:43Z</time>
      </trkpt>
      <trkpt lat="44.75794" lon="-0.34601">
        <ele>60</ele>
        <time>2012-11-18T16:08:54Z</time>
      </trkpt>
      <trkpt lat="44.75793" lon="-0.34604">
        <ele>61</ele>
        <time>2012-11-18T16:09:07Z</time>
      </trkpt>
      <trkpt lat="44.75792" lon="-0.34604">
        <ele>61</ele>
        <time>2012-11-18T16:09:08Z</time>
      </trkpt>
      <trkpt lat="44.75789" lon="-0.34605">
        <ele>61</ele>
        <time>2012-11-18T16:09:16Z</time>
      </trkpt>
      <trkpt lat="44.75788" lon="-0.34607">
        <ele>61</ele>
        <time>2012-11-18T16:09:27Z</time>
      </trkpt>
      <trkpt lat="44.75787" lon="-0.34607">
        <ele>61</ele>
        <time>2012-11-18T16:09:43Z</time>
      </trkpt>
      <trkpt lat="44.75786" lon="-0.34608">
        <ele>61</ele>
        <time>2012-11-18T16:10:03Z</time>
      </trkpt>
      <trkpt lat="44.75786" lon="-0.34608">
        <ele>61</ele>
        <time>2012-11-18T16:10:22Z</time>
      </trkpt>
      <trkpt lat="44.75787" lon="-0.34608">
        <ele>61</ele>
        <time>2012-11-18T16:10:38Z</time>
      </trkpt>
      <trkpt lat="44.75786" lon="-0.34608">
        <ele>61</ele>
        <time>2012-11-18T16:10:59Z</time>
      </trkpt>
      <trkpt lat="44.75786" lon="-0.34608">
        <ele>61</ele>
        <time>2012-11-18T16:11:12Z</time>
      </trkpt>
      <trkpt lat="44.75787" lon="-0.3461">
        <ele>61</ele>
        <time>2012-11-18T16:11:18Z</time>
      </trkpt>
      <trkpt lat="44.75796" lon="-0.34633">
        <ele>60</ele>
        <time>2012-11-18T16:11:28Z</time>
      </trkpt>
      <trkpt lat="44.7581" lon="-0.34669">
        <ele>60</ele>
        <time>2012-11-18T16:11:36Z</time>
      </trkpt>
      <trkpt lat="44.7583" lon="-0.3472">
        <ele>59</ele>
        <time>2012-11-18T16:11:46Z</time>
      </trkpt>
      <trkpt lat="44.75843" lon="-0.34753">
        <ele>59</ele>
        <time>2012-11-18T16:11:52Z</time>
      </trkpt>
      <trkpt lat="44.75853" lon="-0.3477">
        <ele>59</ele>
        <time>2012-11-18T16:11:55Z</time>
      </trkpt>
      <trkpt lat="44.75866" lon="-0.34791">
        <ele>58</ele>
        <time>2012-11-18T16:11:59Z</time>
      </trkpt>
      <trkpt lat="44.75875" lon="-0.34815">
        <ele>57</ele>
        <time>2012-11-18T16:12:04Z</time>
      </trkpt>
      <trkpt lat="44.75873" lon="-0.34834">
        <ele>57</ele>
        <time>2012-11-18T16:12:07Z</time>
      </trkpt>
      <trkpt lat="44.75867" lon="-0.34848">
        <ele>57</ele>
        <time>2012-11-18T16:12:09Z</time>
      </trkpt>
      <trkpt lat="44.75835" lon="-0.34899">
        <ele>57</ele>
        <time>2012-11-18T16:12:20Z</time>
      </trkpt>
      <trkpt lat="44.75818" lon="-0.34927">
        <ele>57</ele>
        <time>2012-11-18T16:12:29Z</time>
      </trkpt>
      <trkpt lat="44.7581" lon="-0.34985">
        <ele>57</ele>
        <time>2012-11-18T16:12:40Z</time>
      </trkpt>
      <trkpt lat="44.7581" lon="-0.35013">
        <ele>58</ele>
        <time>2012-11-18T16:12:48Z</time>
      </trkpt>
      <trkpt lat="44.7581" lon="-0.35046">
        <ele>57</ele>
        <time>2012-11-18T16:12:56Z</time>
      </trkpt>
      <trkpt lat="44.75818" lon="-0.35087">
        <ele>56</ele>
        <time>2012-11-18T16:13:04Z</time>
      </trkpt>
      <trkpt lat="44.75821" lon="-0.35092">
        <ele>55</ele>
        <time>2012-11-18T16:13:05Z</time>
      </trkpt>
      <trkpt lat="44.75824" lon="-0.35097">
        <ele>55</ele>
        <time>2012-11-18T16:13:06Z</time>
      </trkpt>
      <trkpt lat="44.75829" lon="-0.35103">
        <ele>54</ele>
        <time>2012-11-18T16:13:07Z</time>
      </trkpt>
      <trkpt lat="44.75833" lon="-0.35108">
        <ele>53</ele>
        <time>2012-11-18T16:13:08Z</time>
      </trkpt>
      <trkpt lat="44.75837" lon="-0.35114">
        <ele>53</ele>
        <time>2012-11-18T16:13:09Z</time>
      </trkpt>
      <trkpt lat="44.7584" lon="-0.3512">
        <ele>53</ele>
        <time>2012-11-18T16:13:10Z</time>
      </trkpt>
      <trkpt lat="44.75843" lon="-0.35125">
        <ele>53</ele>
        <time>2012-11-18T16:13:11Z</time>
      </trkpt>
      <trkpt lat="44.75852" lon="-0.35142">
        <ele>52</ele>
        <time>2012-11-18T16:26:15Z</time>
      </trkpt>
      <trkpt lat="44.75876" lon="-0.35147">
        <ele>52</ele>
        <time>2012-11-18T16:26:25Z</time>
      </trkpt>
      <trkpt lat="44.75908" lon="-0.35159">
        <ele>53</ele>
        <time>2012-11-18T16:26:35Z</time>
      </trkpt>
      <trkpt lat="44.75914" lon="-0.35138">
        <ele>53</ele>
        <time>2012-11-18T16:26:41Z</time>
      </trkpt>
      <trkpt lat="44.75922" lon="-0.35108">
        <ele>53</ele>
        <time>2012-11-18T16:26:48Z</time>
      </trkpt>
      <trkpt lat="44.75925" lon="-0.35079">
        <ele>54</ele>
        <time>2012-11-18T16:26:55Z</time>
      </trkpt>
      <trkpt lat="44.75931" lon="-0.35037">
        <ele>56</ele>
        <time>2012-11-18T16:27:05Z</time>
      </trkpt>
      <trkpt lat="44.75931" lon="-0.35006">
        <ele>57</ele>
        <time>2012-11-18T16:27:13Z</time>
      </trkpt>
      <trkpt lat="44.75939" lon="-0.34972">
        <ele>59</ele>
        <time>2012-11-18T16:27:25Z</time>
      </trkpt>
      <trkpt lat="44.75948" lon="-0.34947">
        <ele>60</ele>
        <time>2012-11-18T16:27:34Z</time>
      </trkpt>
      <trkpt lat="44.75952" lon="-0.34927">
        <ele>61</ele>
        <time>2012-11-18T16:27:42Z</time>
      </trkpt>
      <trkpt lat="44.75952" lon="-0.34917">
        <ele>61</ele>
        <time>2012-11-18T16:27:46Z</time>
      </trkpt>
      <trkpt lat="44.75954" lon="-0.34906">
        <ele>61</ele>
        <time>2012-11-18T16:27:51Z</time>
      </trkpt>
      <trkpt lat="44.75953" lon="-0.34889">
        <ele>61</ele>
        <time>2012-11-18T16:27:57Z</time>
      </trkpt>
      <trkpt lat="44.75956" lon="-0.34847">
        <ele>59</ele>
        <time>2012-11-18T16:28:10Z</time>
      </trkpt>
      <trkpt lat="44.75962" lon="-0.34824">
        <ele>59</ele>
        <time>2012-11-18T16:28:19Z</time>
      </trkpt>
      <trkpt lat="44.75976" lon="-0.34804">
        <ele>59</ele>
        <time>2012-11-18T16:28:27Z</time>
      </trkpt>
      <trkpt lat="44.75991" lon="-0.34789">
        <ele>60</ele>
        <time>2012-11-18T16:28:35Z</time>
      </trkpt>
      <trkpt lat="44.76003" lon="-0.34776">
        <ele>61</ele>
        <time>2012-11-18T16:28:42Z</time>
      </trkpt>
      <trkpt lat="44.76017" lon="-0.34757">
        <ele>61</ele>
        <time>2012-11-18T16:28:50Z</time>
      </trkpt>
      <trkpt lat="44.76024" lon="-0.34749">
        <ele>61</ele>
        <time>2012-11-18T16:28:54Z</time>
      </trkpt>
      <trkpt lat="44.7604" lon="-0.34725">
        <ele>60</ele>
        <time>2012-11-18T16:29:03Z</time>
      </trkpt>
      <trkpt lat="44.76044" lon="-0.34699">
        <ele>60</ele>
        <time>2012-11-18T16:29:12Z</time>
      </trkpt>
      <trkpt lat="44.76053" lon="-0.34697">
        <ele>60</ele>
        <time>2012-11-18T16:29:22Z</time>
      </trkpt>
      <trkpt lat="44.76054" lon="-0.34693">
        <ele>60</ele>
        <time>2012-11-18T16:29:33Z</time>
      </trkpt>
      <trkpt lat="44.76052" lon="-0.34688">
        <ele>60</ele>
        <time>2012-11-18T16:29:43Z</time>
      </trkpt>
      <trkpt lat="44.76052" lon="-0.34688">
        <ele>60</ele>
        <time>2012-11-18T16:29:46Z</time>
      </trkpt>
      <trkpt lat="44.7605" lon="-0.34684">
        <ele>60</ele>
        <time>2012-11-18T16:29:53Z</time>
      </trkpt>
      <trkpt lat="44.76049" lon="-0.34683">
        <ele>60</ele>
        <time>2012-11-18T16:30:04Z</time>
      </trkpt>
      <trkpt lat="44.76042" lon="-0.34676">
        <ele>61</ele>
        <time>2012-11-18T16:30:14Z</time>
      </trkpt>
      <trkpt lat="44.76038" lon="-0.34669">
        <ele>62</ele>
        <time>2012-11-18T16:30:23Z</time>
      </trkpt>
      <trkpt lat="44.76038" lon="-0.3467">
        <ele>62</ele>
        <time>2012-11-18T16:30:38Z</time>
      </trkpt>
      <trkpt lat="44.76038" lon="-0.34669">
        <ele>62</ele>
        <time>2012-11-18T16:31:05Z</time>
      </trkpt>
      <trkpt lat="44.76038" lon="-0.34667">
        <ele>62</ele>
        <time>2012-11-18T16:31:21Z</time>
      </trkpt>
      <trkpt lat="44.76038" lon="-0.34664">
        <ele>62</ele>
        <time>2012-11-18T16:31:34Z</time>
      </trkpt>
      <trkpt lat="44.76038" lon="-0.34662">
        <ele>62</ele>
        <time>2012-11-18T16:31:50Z</time>
      </trkpt>
      <trkpt lat="44.76038" lon="-0.34661">
        <ele>62</ele>
        <time>2012-11-18T16:32:17Z</time>
      </trkpt>
      <trkpt lat="44.76038" lon="-0.34661">
        <ele>62</ele>
        <time>2012-11-18T16:32:32Z</time>
      </trkpt>
      <trkpt lat="44.76038" lon="-0.34659">
        <ele>62</ele>
        <time>2012-11-18T16:32:55Z</time>
      </trkpt>
      <trkpt lat="44.76039" lon="-0.34657">
        <ele>62</ele>
        <time>2012-11-18T16:33:03Z</time>
      </trkpt>
      <trkpt lat="44.76044" lon="-0.34651">
        <ele>62</ele>
        <time>2012-11-18T16:33:08Z</time>
      </trkpt>
      <trkpt lat="44.76054" lon="-0.3464">
        <ele>62</ele>
        <time>2012-11-18T16:33:17Z</time>
      </trkpt>
      <trkpt lat="44.76064" lon="-0.34628">
        <ele>62</ele>
        <time>2012-11-18T16:33:22Z</time>
      </trkpt>
      <trkpt lat="44.76078" lon="-0.34601">
        <ele>63</ele>
        <time>2012-11-18T16:33:31Z</time>
      </trkpt>
      <trkpt lat="44.76085" lon="-0.34588">
        <ele>64</ele>
        <time>2012-11-18T16:33:37Z</time>
      </trkpt>
      <trkpt lat="44.76089" lon="-0.34579">
        <ele>64</ele>
        <time>2012-11-18T16:33:41Z</time>
      </trkpt>
      <trkpt lat="44.76099" lon="-0.34542">
        <ele>65</ele>
        <time>2012-11-18T16:33:49Z</time>
      </trkpt>
      <trkpt lat="44.76104" lon="-0.34521">
        <ele>66</ele>
        <time>2012-11-18T16:33:54Z</time>
      </trkpt>
      <trkpt lat="44.76108" lon="-0.34508">
        <ele>66</ele>
        <time>2012-11-18T16:33:57Z</time>
      </trkpt>
      <trkpt lat="44.76111" lon="-0.34476">
        <ele>67</ele>
        <time>2012-11-18T16:34:04Z</time>
      </trkpt>
      <trkpt lat="44.76112" lon="-0.3443">
        <ele>68</ele>
        <time>2012-11-18T16:34:14Z</time>
      </trkpt>
      <trkpt lat="44.76115" lon="-0.34394">
        <ele>68</ele>
        <time>2012-11-18T16:34:22Z</time>
      </trkpt>
      <trkpt lat="44.76116" lon="-0.3439">
        <ele>68</ele>
        <time>2012-11-18T16:34:23Z</time>
      </trkpt>
      <trkpt lat="44.76121" lon="-0.34365">
        <ele>68</ele>
        <time>2012-11-18T16:34:29Z</time>
      </trkpt>
      <trkpt lat="44.76123" lon="-0.34359">
        <ele>68</ele>
        <time>2012-11-18T16:34:31Z</time>
      </trkpt>
      <trkpt lat="44.76128" lon="-0.34334">
        <ele>68</ele>
        <time>2012-11-18T16:34:39Z</time>
      </trkpt>
      <trkpt lat="44.76129" lon="-0.34323">
        <ele>68</ele>
        <time>2012-11-18T16:34:42Z</time>
      </trkpt>
      <trkpt lat="44.76143" lon="-0.343">
        <ele>67</ele>
        <time>2012-11-18T16:34:53Z</time>
      </trkpt>
      <trkpt lat="44.76147" lon="-0.34296">
        <ele>67</ele>
        <time>2012-11-18T16:34:55Z</time>
      </trkpt>
      <trkpt lat="44.76185" lon="-0.34294">
        <ele>65</ele>
        <time>2012-11-18T16:35:06Z</time>
      </trkpt>
      <trkpt lat="44.76211" lon="-0.34292">
        <ele>65</ele>
        <time>2012-11-18T16:35:17Z</time>
      </trkpt>
      <trkpt lat="44.76239" lon="-0.34299">
        <ele>67</ele>
        <time>2012-11-18T16:35:31Z</time>
      </trkpt>
      <trkpt lat="44.76243" lon="-0.34303">
        <ele>68</ele>
        <time>2012-11-18T16:35:34Z</time>
      </trkpt>
      <trkpt lat="44.7625" lon="-0.34305">
        <ele>69</ele>
        <time>2012-11-18T16:35:38Z</time>
      </trkpt>
      <trkpt lat="44.76265" lon="-0.34311">
        <ele>70</ele>
        <time>2012-11-18T16:35:49Z</time>
      </trkpt>
      <trkpt lat="44.76268" lon="-0.34312">
        <ele>71</ele>
        <time>2012-11-18T16:35:52Z</time>
      </trkpt>
      <trkpt lat="44.76278" lon="-0.34317">
        <ele>72</ele>
        <time>2012-11-18T16:36:01Z</time>
      </trkpt>
      <trkpt lat="44.76285" lon="-0.34321">
        <ele>73</ele>
        <time>2012-11-18T16:36:08Z</time>
      </trkpt>
      <trkpt lat="44.76287" lon="-0.34321">
        <ele>73</ele>
        <time>2012-11-18T16:36:10Z</time>
      </trkpt>
      <trkpt lat="44.76297" lon="-0.34333">
        <ele>74</ele>
        <time>2012-11-18T16:36:21Z</time>
      </trkpt>
      <trkpt lat="44.76297" lon="-0.3434">
        <ele>75</ele>
        <time>2012-11-18T16:36:26Z</time>
      </trkpt>
      <trkpt lat="44.76297" lon="-0.34358">
        <ele>76</ele>
        <time>2012-11-18T16:36:38Z</time>
      </trkpt>
      <trkpt lat="44.76296" lon="-0.34362">
        <ele>77</ele>
        <time>2012-11-18T16:36:41Z</time>
      </trkpt>
      <trkpt lat="44.76296" lon="-0.34378">
        <ele>78</ele>
        <time>2012-11-18T16:36:52Z</time>
      </trkpt>
      <trkpt lat="44.76296" lon="-0.34385">
        <ele>79</ele>
        <time>2012-11-18T16:36:57Z</time>
      </trkpt>
      <trkpt lat="44.76295" lon="-0.34388">
        <ele>80</ele>
        <time>2012-11-18T16:36:59Z</time>
      </trkpt>
      <trkpt lat="44.76295" lon="-0.34404">
        <ele>81</ele>
        <time>2012-11-18T16:37:10Z</time>
      </trkpt>
      <trkpt lat="44.763" lon="-0.34416">
        <ele>83</ele>
        <time>2012-11-18T16:37:20Z</time>
      </trkpt>
      <trkpt lat="44.76305" lon="-0.34414">
        <ele>84</ele>
        <time>2012-11-18T16:37:25Z</time>
      </trkpt>
      <trkpt lat="44.76312" lon="-0.34413">
        <ele>85</ele>
        <time>2012-11-18T16:37:30Z</time>
      </trkpt>
      <trkpt lat="44.76314" lon="-0.34413">
        <ele>86</ele>
        <time>2012-11-18T16:37:32Z</time>
      </trkpt>
      <trkpt lat="44.7632" lon="-0.34415">
        <ele>87</ele>
        <time>2012-11-18T16:37:37Z</time>
      </trkpt>
      <trkpt lat="44.76328" lon="-0.34416">
        <ele>89</ele>
        <time>2012-11-18T16:37:44Z</time>
      </trkpt>
      <trkpt lat="44.76339" lon="-0.34417">
        <ele>91</ele>
        <time>2012-11-18T16:37:54Z</time>
      </trkpt>
      <trkpt lat="44.76344" lon="-0.3442">
        <ele>92</ele>
        <time>2012-11-18T16:37:59Z</time>
      </trkpt>
      <trkpt lat="44.76356" lon="-0.34417">
        <ele>93</ele>
        <time>2012-11-18T16:38:10Z</time>
      </trkpt>
      <trkpt lat="44.76364" lon="-0.34415">
        <ele>94</ele>
        <time>2012-11-18T16:38:18Z</time>
      </trkpt>
      <trkpt lat="44.76377" lon="-0.34411">
        <ele>95</ele>
        <time>2012-11-18T16:38:28Z</time>
      </trkpt>
      <trkpt lat="44.76394" lon="-0.34404">
        <ele>95</ele>
        <time>2012-11-18T16:38:41Z</time>
      </trkpt>
      <trkpt lat="44.76409" lon="-0.34397">
        <ele>95</ele>
        <time>2012-11-18T16:38:51Z</time>
      </trkpt>
      <trkpt lat="44.76429" lon="-0.34386">
        <ele>95</ele>
        <time>2012-11-18T16:39:04Z</time>
      </trkpt>
      <trkpt lat="44.76445" lon="-0.34375">
        <ele>95</ele>
        <time>2012-11-18T16:39:13Z</time>
      </trkpt>
      <trkpt lat="44.76472" lon="-0.34359">
        <ele>95</ele>
        <time>2012-11-18T16:39:23Z</time>
      </trkpt>
      <trkpt lat="44.76513" lon="-0.34334">
        <ele>96</ele>
        <time>2012-11-18T16:39:37Z</time>
      </trkpt>
      <trkpt lat="44.76543" lon="-0.34317">
        <ele>98</ele>
        <time>2012-11-18T16:39:49Z</time>
      </trkpt>
      <trkpt lat="44.76547" lon="-0.34315">
        <ele>98</ele>
        <time>2012-11-18T16:39:56Z</time>
      </trkpt>
      <trkpt lat="44.76548" lon="-0.34315">
        <ele>98</ele>
        <time>2012-11-18T16:40:00Z</time>
      </trkpt>
      <trkpt lat="44.7655" lon="-0.34316">
        <ele>98</ele>
        <time>2012-11-18T16:40:05Z</time>
      </trkpt>
      <trkpt lat="44.76552" lon="-0.34316">
        <ele>98</ele>
        <time>2012-11-18T16:40:16Z</time>
      </trkpt>
      <trkpt lat="44.76552" lon="-0.34309">
        <ele>98</ele>
        <time>2012-11-18T16:40:27Z</time>
      </trkpt>
      <trkpt lat="44.76552" lon="-0.34305">
        <ele>98</ele>
        <time>2012-11-18T16:40:35Z</time>
      </trkpt>
      <trkpt lat="44.76552" lon="-0.343">
        <ele>98</ele>
        <time>2012-11-18T16:40:44Z</time>
      </trkpt>
      <trkpt lat="44.76552" lon="-0.34299">
        <ele>98</ele>
        <time>2012-11-18T16:40:50Z</time>
      </trkpt>
      <trkpt lat="44.76554" lon="-0.34295">
        <ele>98</ele>
        <time>2012-11-18T16:40:54Z</time>
      </trkpt>
      <trkpt lat="44.76555" lon="-0.34287">
        <ele>99</ele>
        <time>2012-11-18T16:41:00Z</time>
      </trkpt>
      <trkpt lat="44.76556" lon="-0.34275">
        <ele>99</ele>
        <time>2012-11-18T16:41:09Z</time>
      </trkpt>
      <trkpt lat="44.76556" lon="-0.34268">
        <ele>99</ele>
        <time>2012-11-18T16:41:12Z</time>
      </trkpt>
      <trkpt lat="44.76557" lon="-0.34258">
        <ele>99</ele>
        <time>2012-11-18T16:41:16Z</time>
      </trkpt>
      <trkpt lat="44.76559" lon="-0.34246">
        <ele>100</ele>
        <time>2012-11-18T16:41:25Z</time>
      </trkpt>
      <trkpt lat="44.76559" lon="-0.34242">
        <ele>100</ele>
        <time>2012-11-18T16:41:29Z</time>
      </trkpt>
      <trkpt lat="44.76562" lon="-0.34231">
        <ele>100</ele>
        <time>2012-11-18T16:41:36Z</time>
      </trkpt>
      <trkpt lat="44.76564" lon="-0.34224">
        <ele>100</ele>
        <time>2012-11-18T16:41:41Z</time>
      </trkpt>
      <trkpt lat="44.76565" lon="-0.34208">
        <ele>101</ele>
        <time>2012-11-18T16:41:45Z</time>
      </trkpt>
      <trkpt lat="44.76564" lon="-0.34202">
        <ele>101</ele>
        <time>2012-11-18T16:41:46Z</time>
      </trkpt>
      <trkpt lat="44.76564" lon="-0.34174">
        <ele>101</ele>
        <time>2012-11-18T16:41:50Z</time>
      </trkpt>
      <trkpt lat="44.76566" lon="-0.34169">
        <ele>101</ele>
        <time>2012-11-18T16:41:51Z</time>
      </trkpt>
      <trkpt lat="44.76567" lon="-0.34164">
        <ele>101</ele>
        <time>2012-11-18T16:41:52Z</time>
      </trkpt>
      <trkpt lat="44.7657" lon="-0.3416">
        <ele>101</ele>
        <time>2012-11-18T16:41:53Z</time>
      </trkpt>
      <trkpt lat="44.76573" lon="-0.34156">
        <ele>101</ele>
        <time>2012-11-18T16:41:54Z</time>
      </trkpt>
      <trkpt lat="44.76576" lon="-0.34153">
        <ele>101</ele>
        <time>2012-11-18T16:41:55Z</time>
      </trkpt>
      <trkpt lat="44.76579" lon="-0.3415">
        <ele>101</ele>
        <time>2012-11-18T16:41:56Z</time>
      </trkpt>
      <trkpt lat="44.76608" lon="-0.34148">
        <ele>101</ele>
        <time>2012-11-18T16:42:04Z</time>
      </trkpt>
      <trkpt lat="44.76638" lon="-0.34182">
        <ele>102</ele>
        <time>2012-11-18T16:42:14Z</time>
      </trkpt>
      <trkpt lat="44.76679" lon="-0.34231">
        <ele>103</ele>
        <time>2012-11-18T16:42:28Z</time>
      </trkpt>
      <trkpt lat="44.76717" lon="-0.34257">
        <ele>103</ele>
        <time>2012-11-18T16:42:39Z</time>
      </trkpt>
      <trkpt lat="44.76748" lon="-0.34277">
        <ele>103</ele>
        <time>2012-11-18T16:42:48Z</time>
      </trkpt>
      <trkpt lat="44.76787" lon="-0.34304">
        <ele>103</ele>
        <time>2012-11-18T16:42:57Z</time>
      </trkpt>
      <trkpt lat="44.76791" lon="-0.34307">
        <ele>103</ele>
        <time>2012-11-18T16:42:58Z</time>
      </trkpt>
      <trkpt lat="44.76794" lon="-0.3431">
        <ele>103</ele>
        <time>2012-11-18T16:42:59Z</time>
      </trkpt>
      <trkpt lat="44.76798" lon="-0.34312">
        <ele>103</ele>
        <time>2012-11-18T16:43:00Z</time>
      </trkpt>
      <trkpt lat="44.76802" lon="-0.34313">
        <ele>103</ele>
        <time>2012-11-18T16:43:01Z</time>
      </trkpt>
      <trkpt lat="44.76805" lon="-0.34316">
        <ele>103</ele>
        <time>2012-11-18T16:43:02Z</time>
      </trkpt>
      <trkpt lat="44.76809" lon="-0.34318">
        <ele>103</ele>
        <time>2012-11-18T16:43:03Z</time>
      </trkpt>
      <trkpt lat="44.76813" lon="-0.34321">
        <ele>103</ele>
        <time>2012-11-18T16:43:04Z</time>
      </trkpt>
      <trkpt lat="44.76817" lon="-0.34323">
        <ele>103</ele>
        <time>2012-11-18T16:43:05Z</time>
      </trkpt>
      <trkpt lat="44.76821" lon="-0.34326">
        <ele>103</ele>
        <time>2012-11-18T16:43:06Z</time>
      </trkpt>
      <trkpt lat="44.76825" lon="-0.34329">
        <ele>103</ele>
        <time>2012-11-18T16:43:07Z</time>
      </trkpt>
      <trkpt lat="44.7687" lon="-0.34357">
        <ele>103</ele>
        <time>2012-11-18T16:43:18Z</time>
      </trkpt>
      <trkpt lat="44.76906" lon="-0.34379">
        <ele>103</ele>
        <time>2012-11-18T16:43:27Z</time>
      </trkpt>
      <trkpt lat="44.76932" lon="-0.34397">
        <ele>103</ele>
        <time>2012-11-18T16:43:34Z</time>
      </trkpt>
      <trkpt lat="44.76967" lon="-0.34419">
        <ele>104</ele>
        <time>2012-11-18T16:43:43Z</time>
      </trkpt>
      <trkpt lat="44.77022" lon="-0.34438">
        <ele>105</ele>
        <time>2012-11-18T16:43:55Z</time>
      </trkpt>
      <trkpt lat="44.77065" lon="-0.34457">
        <ele>105</ele>
        <time>2012-11-18T16:44:05Z</time>
      </trkpt>
      <trkpt lat="44.7707" lon="-0.34461">
        <ele>105</ele>
        <time>2012-11-18T16:44:06Z</time>
      </trkpt>
      <trkpt lat="44.77089" lon="-0.34475">
        <ele>105</ele>
        <time>2012-11-18T16:44:10Z</time>
      </trkpt>
      <trkpt lat="44.77094" lon="-0.34478">
        <ele>105</ele>
        <time>2012-11-18T16:44:11Z</time>
      </trkpt>
      <trkpt lat="44.77099" lon="-0.3448">
        <ele>105</ele>
        <time>2012-11-18T16:44:12Z</time>
      </trkpt>
      <trkpt lat="44.77104" lon="-0.34482">
        <ele>105</ele>
        <time>2012-11-18T16:44:13Z</time>
      </trkpt>
      <trkpt lat="44.77109" lon="-0.34484">
        <ele>105</ele>
        <time>2012-11-18T16:44:14Z</time>
      </trkpt>
      <trkpt lat="44.77113" lon="-0.34486">
        <ele>105</ele>
        <time>2012-11-18T16:44:15Z</time>
      </trkpt>
      <trkpt lat="44.77117" lon="-0.34488">
        <ele>105</ele>
        <time>2012-11-18T16:44:16Z</time>
      </trkpt>
      <trkpt lat="44.77164" lon="-0.34518">
        <ele>105</ele>
        <time>2012-11-18T16:44:27Z</time>
      </trkpt>
      <trkpt lat="44.77206" lon="-0.34545">
        <ele>105</ele>
        <time>2012-11-18T16:44:38Z</time>
      </trkpt>
      <trkpt lat="44.77241" lon="-0.34565">
        <ele>105</ele>
        <time>2012-11-18T16:44:47Z</time>
      </trkpt>
      <trkpt lat="44.77276" lon="-0.34583">
        <ele>105</ele>
        <time>2012-11-18T16:44:58Z</time>
      </trkpt>
      <trkpt lat="44.77278" lon="-0.34582">
        <ele>105</ele>
        <time>2012-11-18T16:44:59Z</time>
      </trkpt>
      <trkpt lat="44.77279" lon="-0.34579">
        <ele>105</ele>
        <time>2012-11-18T16:45:00Z</time>
      </trkpt>
      <trkpt lat="44.7728" lon="-0.34577">
        <ele>105</ele>
        <time>2012-11-18T16:45:01Z</time>
      </trkpt>
      <trkpt lat="44.77282" lon="-0.34574">
        <ele>105</ele>
        <time>2012-11-18T16:45:02Z</time>
      </trkpt>
      <trkpt lat="44.77284" lon="-0.3457">
        <ele>105</ele>
        <time>2012-11-18T16:45:03Z</time>
      </trkpt>
      <trkpt lat="44.77289" lon="-0.34565">
        <ele>105</ele>
        <time>2012-11-18T16:45:05Z</time>
      </trkpt>
      <trkpt lat="44.77293" lon="-0.34566">
        <ele>105</ele>
        <time>2012-11-18T16:45:06Z</time>
      </trkpt>
      <trkpt lat="44.77296" lon="-0.34569">
        <ele>105</ele>
        <time>2012-11-18T16:45:07Z</time>
      </trkpt>
      <trkpt lat="44.77298" lon="-0.34573">
        <ele>105</ele>
        <time>2012-11-18T16:45:08Z</time>
      </trkpt>
      <trkpt lat="44.77299" lon="-0.34578">
        <ele>105</ele>
        <time>2012-11-18T16:45:09Z</time>
      </trkpt>
      <trkpt lat="44.773" lon="-0.34583">
        <ele>105</ele>
        <time>2012-11-18T16:45:10Z</time>
      </trkpt>
      <trkpt lat="44.773" lon="-0.34588">
        <ele>105</ele>
        <time>2012-11-18T16:45:11Z</time>
      </trkpt>
      <trkpt lat="44.77301" lon="-0.34591">
        <ele>105</ele>
        <time>2012-11-18T16:45:12Z</time>
      </trkpt>
      <trkpt lat="44.77303" lon="-0.34594">
        <ele>105</ele>
        <time>2012-11-18T16:45:13Z</time>
      </trkpt>
      <trkpt lat="44.77306" lon="-0.34596">
        <ele>105</ele>
        <time>2012-11-18T16:45:14Z</time>
      </trkpt>
      <trkpt lat="44.77329" lon="-0.3463">
        <ele>104</ele>
        <time>2012-11-18T16:45:24Z</time>
      </trkpt>
      <trkpt lat="44.77334" lon="-0.34635">
        <ele>104</ele>
        <time>2012-11-18T16:45:27Z</time>
      </trkpt>
      <trkpt lat="44.77336" lon="-0.34635">
        <ele>104</ele>
        <time>2012-11-18T16:45:28Z</time>
      </trkpt>
      <trkpt lat="44.77338" lon="-0.34634">
        <ele>104</ele>
        <time>2012-11-18T16:45:29Z</time>
      </trkpt>
      <trkpt lat="44.77341" lon="-0.34632">
        <ele>104</ele>
        <time>2012-11-18T16:45:30Z</time>
      </trkpt>
      <trkpt lat="44.77344" lon="-0.3463">
        <ele>104</ele>
        <time>2012-11-18T16:45:31Z</time>
      </trkpt>
      <trkpt lat="44.77346" lon="-0.34627">
        <ele>104</ele>
        <time>2012-11-18T16:45:32Z</time>
      </trkpt>
      <trkpt lat="44.77376" lon="-0.34596">
        <ele>105</ele>
        <time>2012-11-18T16:45:43Z</time>
      </trkpt>
      <trkpt lat="44.77386" lon="-0.34585">
        <ele>105</ele>
        <time>2012-11-18T16:45:53Z</time>
      </trkpt>
      <trkpt lat="44.77391" lon="-0.3458">
        <ele>105</ele>
        <time>2012-11-18T16:46:01Z</time>
      </trkpt>
      <trkpt lat="44.77392" lon="-0.34578">
        <ele>105</ele>
        <time>2012-11-18T16:46:02Z</time>
      </trkpt>
      <trkpt lat="44.77395" lon="-0.34576">
        <ele>105</ele>
        <time>2012-11-18T16:46:03Z</time>
      </trkpt>
      <trkpt lat="44.77399" lon="-0.34573">
        <ele>105</ele>
        <time>2012-11-18T16:46:05Z</time>
      </trkpt>
      <trkpt lat="44.77401" lon="-0.34573">
        <ele>105</ele>
        <time>2012-11-18T16:46:06Z</time>
      </trkpt>
      <trkpt lat="44.7742" lon="-0.34571">
        <ele>105</ele>
        <time>2012-11-18T16:46:14Z</time>
      </trkpt>
      <trkpt lat="44.77422" lon="-0.3457">
        <ele>105</ele>
        <time>2012-11-18T16:46:15Z</time>
      </trkpt>
      <trkpt lat="44.77423" lon="-0.34572">
        <ele>105</ele>
        <time>2012-11-18T16:46:23Z</time>
      </trkpt>
      <trkpt lat="44.77423" lon="-0.34572">
        <ele>105</ele>
        <time>2012-11-18T16:46:26Z</time>
      </trkpt>
      <trkpt lat="44.77425" lon="-0.34573">
        <ele>105</ele>
        <time>2012-11-18T16:46:27Z</time>
      </trkpt>
      <trkpt lat="44.77428" lon="-0.34574">
        <ele>105</ele>
        <time>2012-11-18T16:46:28Z</time>
      </trkpt>
      <trkpt lat="44.77431" lon="-0.34574">
        <ele>105</ele>
        <time>2012-11-18T16:46:29Z</time>
      </trkpt>
      <trkpt lat="44.77435" lon="-0.34574">
        <ele>105</ele>
        <time>2012-11-18T16:46:30Z</time>
      </trkpt>
      <trkpt lat="44.77439" lon="-0.34575">
        <ele>105</ele>
        <time>2012-11-18T16:46:31Z</time>
      </trkpt>
      <trkpt lat="44.77443" lon="-0.34577">
        <ele>105</ele>
        <time>2012-11-18T16:46:32Z</time>
      </trkpt>
      <trkpt lat="44.77501" lon="-0.34603">
        <ele>105</ele>
        <time>2012-11-18T16:46:44Z</time>
      </trkpt>
      <trkpt lat="44.77534" lon="-0.34617">
        <ele>104</ele>
        <time>2012-11-18T16:46:54Z</time>
      </trkpt>
      <trkpt lat="44.77555" lon="-0.34628">
        <ele>104</ele>
        <time>2012-11-18T16:47:01Z</time>
      </trkpt>
      <trkpt lat="44.77571" lon="-0.3463">
        <ele>104</ele>
        <time>2012-11-18T16:47:05Z</time>
      </trkpt>
      <trkpt lat="44.77576" lon="-0.3463">
        <ele>104</ele>
        <time>2012-11-18T16:47:06Z</time>
      </trkpt>
      <trkpt lat="44.7758" lon="-0.34631">
        <ele>104</ele>
        <time>2012-11-18T16:47:07Z</time>
      </trkpt>
    </trkseg>
  </trk>
</gpx>